<?xml version="1.0" encoding="UTF-8" standalone="no" ?>
<gpx xmlns="http://www.topografix.com/GPX/1/1" xmlns:xsi="http://www.w3.org/2001/XMLSchema-instance" xsi:schemaLocation="http://www.topografix.com/GPX/1/1 http://www.topografix.com/GPX/1/1/gpx.xsd" version="1.1" creator="VisuGPX - https://www.visugpx.com">
  <metadata>
    <name>2025-01-12  Randonnée TwoNav</name>
    <desc><![CDATA[2025-01-12_092506.trk]]></desc>
  </metadata>
  <trk>
    <name><![CDATA[2025-01-12  Randonnée TwoNav_1]]></name>
    <trkseg>
      <trkpt lat="48.23419" lon="6.67224">
        <ele>377.8</ele>
        <time>2025-01-12T08:25:06Z</time>
      </trkpt>
      <trkpt lat="48.23422" lon="6.67216">
        <ele>377.8</ele>
        <time>2025-01-12T08:25:07Z</time>
      </trkpt>
      <trkpt lat="48.23425" lon="6.67209">
        <ele>377.8</ele>
        <time>2025-01-12T08:25:08Z</time>
      </trkpt>
      <trkpt lat="48.23429" lon="6.67202">
        <ele>377.8</ele>
        <time>2025-01-12T08:25:09Z</time>
      </trkpt>
      <trkpt lat="48.23432" lon="6.67195">
        <ele>377.8</ele>
        <time>2025-01-12T08:25:19Z</time>
      </trkpt>
      <trkpt lat="48.23436" lon="6.67188">
        <ele>377.8</ele>
        <time>2025-01-12T08:25:26Z</time>
      </trkpt>
      <trkpt lat="48.23439" lon="6.67181">
        <ele>377.8</ele>
        <time>2025-01-12T08:25:36Z</time>
      </trkpt>
      <trkpt lat="48.23443" lon="6.67173">
        <ele>378</ele>
        <time>2025-01-12T08:25:45Z</time>
      </trkpt>
      <trkpt lat="48.23446" lon="6.67166">
        <ele>378.3</ele>
        <time>2025-01-12T08:25:54Z</time>
      </trkpt>
      <trkpt lat="48.23449" lon="6.67159">
        <ele>378.7</ele>
        <time>2025-01-12T08:26:01Z</time>
      </trkpt>
      <trkpt lat="48.23453" lon="6.67152">
        <ele>379.1</ele>
        <time>2025-01-12T08:26:01Z</time>
      </trkpt>
      <trkpt lat="48.2346" lon="6.67144">
        <ele>380</ele>
        <time>2025-01-12T08:26:07Z</time>
      </trkpt>
      <trkpt lat="48.23467" lon="6.67133">
        <ele>380.9</ele>
        <time>2025-01-12T08:26:15Z</time>
      </trkpt>
      <trkpt lat="48.23472" lon="6.67121">
        <ele>381.7</ele>
        <time>2025-01-12T08:26:23Z</time>
      </trkpt>
      <trkpt lat="48.23478" lon="6.6711">
        <ele>382.5</ele>
        <time>2025-01-12T08:26:31Z</time>
      </trkpt>
      <trkpt lat="48.23487" lon="6.67105">
        <ele>383.2</ele>
        <time>2025-01-12T08:26:44Z</time>
      </trkpt>
      <trkpt lat="48.23488" lon="6.67109">
        <ele>383.3</ele>
        <time>2025-01-12T08:26:54Z</time>
      </trkpt>
      <trkpt lat="48.23488" lon="6.67109">
        <ele>383.4</ele>
        <time>2025-01-12T08:26:55Z</time>
      </trkpt>
      <trkpt lat="48.23488" lon="6.67109">
        <ele>383.4</ele>
        <time>2025-01-12T08:26:56Z</time>
      </trkpt>
      <trkpt lat="48.23488" lon="6.67109">
        <ele>383.4</ele>
        <time>2025-01-12T08:26:57Z</time>
      </trkpt>
      <trkpt lat="48.23488" lon="6.67109">
        <ele>383.4</ele>
        <time>2025-01-12T08:26:58Z</time>
      </trkpt>
      <trkpt lat="48.23488" lon="6.67108">
        <ele>383.3</ele>
        <time>2025-01-12T08:27:09Z</time>
      </trkpt>
      <trkpt lat="48.23488" lon="6.67107">
        <ele>383.3</ele>
        <time>2025-01-12T08:27:10Z</time>
      </trkpt>
      <trkpt lat="48.23488" lon="6.67107">
        <ele>383.3</ele>
        <time>2025-01-12T08:27:11Z</time>
      </trkpt>
      <trkpt lat="48.23489" lon="6.67107">
        <ele>383.3</ele>
        <time>2025-01-12T08:27:29Z</time>
      </trkpt>
      <trkpt lat="48.23489" lon="6.67107">
        <ele>383.3</ele>
        <time>2025-01-12T08:27:30Z</time>
      </trkpt>
      <trkpt lat="48.23489" lon="6.67107">
        <ele>383.3</ele>
        <time>2025-01-12T08:27:31Z</time>
      </trkpt>
      <trkpt lat="48.23489" lon="6.67107">
        <ele>383.3</ele>
        <time>2025-01-12T08:27:32Z</time>
      </trkpt>
      <trkpt lat="48.23489" lon="6.67107">
        <ele>383.3</ele>
        <time>2025-01-12T08:27:33Z</time>
      </trkpt>
      <trkpt lat="48.23489" lon="6.67107">
        <ele>383.2</ele>
        <time>2025-01-12T08:27:49Z</time>
      </trkpt>
      <trkpt lat="48.23489" lon="6.67106">
        <ele>383.2</ele>
        <time>2025-01-12T08:27:50Z</time>
      </trkpt>
      <trkpt lat="48.23489" lon="6.67106">
        <ele>383.2</ele>
        <time>2025-01-12T08:27:51Z</time>
      </trkpt>
      <trkpt lat="48.23485" lon="6.67091">
        <ele>382.3</ele>
        <time>2025-01-12T08:28:01Z</time>
      </trkpt>
      <trkpt lat="48.23483" lon="6.67078">
        <ele>381.6</ele>
        <time>2025-01-12T08:28:09Z</time>
      </trkpt>
      <trkpt lat="48.23484" lon="6.67063">
        <ele>380.8</ele>
        <time>2025-01-12T08:28:18Z</time>
      </trkpt>
      <trkpt lat="48.23476" lon="6.67073">
        <ele>380</ele>
        <time>2025-01-12T08:28:39Z</time>
      </trkpt>
      <trkpt lat="48.23473" lon="6.67086">
        <ele>379.6</ele>
        <time>2025-01-12T08:28:46Z</time>
      </trkpt>
      <trkpt lat="48.23469" lon="6.67099">
        <ele>379.1</ele>
        <time>2025-01-12T08:28:53Z</time>
      </trkpt>
      <trkpt lat="48.23466" lon="6.67113">
        <ele>378.7</ele>
        <time>2025-01-12T08:29:01Z</time>
      </trkpt>
      <trkpt lat="48.23463" lon="6.67128">
        <ele>378.4</ele>
        <time>2025-01-12T08:29:09Z</time>
      </trkpt>
      <trkpt lat="48.2346" lon="6.67142">
        <ele>378.2</ele>
        <time>2025-01-12T08:29:17Z</time>
      </trkpt>
      <trkpt lat="48.23458" lon="6.67157">
        <ele>378</ele>
        <time>2025-01-12T08:29:25Z</time>
      </trkpt>
      <trkpt lat="48.23457" lon="6.6717">
        <ele>377.8</ele>
        <time>2025-01-12T08:29:33Z</time>
      </trkpt>
      <trkpt lat="48.23467" lon="6.67166">
        <ele>378.6</ele>
        <time>2025-01-12T08:29:48Z</time>
      </trkpt>
      <trkpt lat="48.23472" lon="6.67154">
        <ele>379.5</ele>
        <time>2025-01-12T08:29:56Z</time>
      </trkpt>
      <trkpt lat="48.23476" lon="6.67141">
        <ele>380.4</ele>
        <time>2025-01-12T08:30:04Z</time>
      </trkpt>
      <trkpt lat="48.23482" lon="6.67129">
        <ele>381.5</ele>
        <time>2025-01-12T08:30:12Z</time>
      </trkpt>
      <trkpt lat="48.23487" lon="6.67116">
        <ele>382.4</ele>
        <time>2025-01-12T08:30:20Z</time>
      </trkpt>
      <trkpt lat="48.23496" lon="6.67113">
        <ele>383.5</ele>
        <time>2025-01-12T08:30:30Z</time>
      </trkpt>
      <trkpt lat="48.23499" lon="6.67127">
        <ele>384.5</ele>
        <time>2025-01-12T08:30:39Z</time>
      </trkpt>
      <trkpt lat="48.23502" lon="6.6714">
        <ele>385.2</ele>
        <time>2025-01-12T08:30:47Z</time>
      </trkpt>
      <trkpt lat="48.23506" lon="6.67153">
        <ele>385.9</ele>
        <time>2025-01-12T08:30:55Z</time>
      </trkpt>
      <trkpt lat="48.23512" lon="6.67164">
        <ele>386.5</ele>
        <time>2025-01-12T08:31:03Z</time>
      </trkpt>
      <trkpt lat="48.23521" lon="6.67171">
        <ele>386.9</ele>
        <time>2025-01-12T08:31:11Z</time>
      </trkpt>
      <trkpt lat="48.23529" lon="6.67177">
        <ele>387.3</ele>
        <time>2025-01-12T08:31:19Z</time>
      </trkpt>
      <trkpt lat="48.23539" lon="6.67183">
        <ele>387.6</ele>
        <time>2025-01-12T08:31:27Z</time>
      </trkpt>
      <trkpt lat="48.23544" lon="6.67195">
        <ele>387.9</ele>
        <time>2025-01-12T08:31:35Z</time>
      </trkpt>
      <trkpt lat="48.23547" lon="6.67208">
        <ele>388.1</ele>
        <time>2025-01-12T08:31:43Z</time>
      </trkpt>
      <trkpt lat="48.23547" lon="6.67223">
        <ele>388.3</ele>
        <time>2025-01-12T08:31:52Z</time>
      </trkpt>
      <trkpt lat="48.23548" lon="6.67236">
        <ele>388.5</ele>
        <time>2025-01-12T08:32:00Z</time>
      </trkpt>
      <trkpt lat="48.23549" lon="6.67245">
        <ele>388.6</ele>
        <time>2025-01-12T08:32:14Z</time>
      </trkpt>
      <trkpt lat="48.23549" lon="6.67245">
        <ele>388.6</ele>
        <time>2025-01-12T08:32:15Z</time>
      </trkpt>
      <trkpt lat="48.23549" lon="6.67246">
        <ele>388.6</ele>
        <time>2025-01-12T08:32:43Z</time>
      </trkpt>
      <trkpt lat="48.23549" lon="6.67248">
        <ele>388.7</ele>
        <time>2025-01-12T08:32:44Z</time>
      </trkpt>
      <trkpt lat="48.23549" lon="6.67249">
        <ele>388.7</ele>
        <time>2025-01-12T08:32:45Z</time>
      </trkpt>
      <trkpt lat="48.23549" lon="6.67264">
        <ele>388.9</ele>
        <time>2025-01-12T08:32:54Z</time>
      </trkpt>
      <trkpt lat="48.23549" lon="6.67278">
        <ele>389.1</ele>
        <time>2025-01-12T08:33:02Z</time>
      </trkpt>
      <trkpt lat="48.23551" lon="6.67293">
        <ele>389.3</ele>
        <time>2025-01-12T08:33:10Z</time>
      </trkpt>
      <trkpt lat="48.23553" lon="6.67308">
        <ele>389.5</ele>
        <time>2025-01-12T08:33:18Z</time>
      </trkpt>
      <trkpt lat="48.23555" lon="6.67322">
        <ele>389.7</ele>
        <time>2025-01-12T08:33:26Z</time>
      </trkpt>
      <trkpt lat="48.23558" lon="6.67335">
        <ele>390</ele>
        <time>2025-01-12T08:33:33Z</time>
      </trkpt>
      <trkpt lat="48.23561" lon="6.67348">
        <ele>390.2</ele>
        <time>2025-01-12T08:33:40Z</time>
      </trkpt>
      <trkpt lat="48.23564" lon="6.67363">
        <ele>390.6</ele>
        <time>2025-01-12T08:33:48Z</time>
      </trkpt>
      <trkpt lat="48.23567" lon="6.67376">
        <ele>390.9</ele>
        <time>2025-01-12T08:33:56Z</time>
      </trkpt>
      <trkpt lat="48.2357" lon="6.67391">
        <ele>391.3</ele>
        <time>2025-01-12T08:34:04Z</time>
      </trkpt>
      <trkpt lat="48.23573" lon="6.67405">
        <ele>391.7</ele>
        <time>2025-01-12T08:34:12Z</time>
      </trkpt>
      <trkpt lat="48.23575" lon="6.6742">
        <ele>392</ele>
        <time>2025-01-12T08:34:20Z</time>
      </trkpt>
      <trkpt lat="48.23576" lon="6.67434">
        <ele>392.3</ele>
        <time>2025-01-12T08:34:28Z</time>
      </trkpt>
      <trkpt lat="48.23576" lon="6.67449">
        <ele>392.6</ele>
        <time>2025-01-12T08:34:36Z</time>
      </trkpt>
      <trkpt lat="48.23578" lon="6.67463">
        <ele>393</ele>
        <time>2025-01-12T08:34:44Z</time>
      </trkpt>
      <trkpt lat="48.23578" lon="6.67478">
        <ele>393.3</ele>
        <time>2025-01-12T08:34:53Z</time>
      </trkpt>
      <trkpt lat="48.23578" lon="6.67493">
        <ele>393.7</ele>
        <time>2025-01-12T08:35:02Z</time>
      </trkpt>
      <trkpt lat="48.23577" lon="6.67507">
        <ele>394</ele>
        <time>2025-01-12T08:35:10Z</time>
      </trkpt>
      <trkpt lat="48.23574" lon="6.67521">
        <ele>394.5</ele>
        <time>2025-01-12T08:35:18Z</time>
      </trkpt>
      <trkpt lat="48.2357" lon="6.67533">
        <ele>395</ele>
        <time>2025-01-12T08:35:26Z</time>
      </trkpt>
      <trkpt lat="48.23564" lon="6.67544">
        <ele>395.5</ele>
        <time>2025-01-12T08:35:34Z</time>
      </trkpt>
      <trkpt lat="48.23557" lon="6.67555">
        <ele>395.9</ele>
        <time>2025-01-12T08:35:42Z</time>
      </trkpt>
      <trkpt lat="48.2355" lon="6.67564">
        <ele>396.3</ele>
        <time>2025-01-12T08:35:50Z</time>
      </trkpt>
      <trkpt lat="48.23544" lon="6.67576">
        <ele>396.7</ele>
        <time>2025-01-12T08:35:58Z</time>
      </trkpt>
      <trkpt lat="48.23539" lon="6.67589">
        <ele>397.1</ele>
        <time>2025-01-12T08:36:06Z</time>
      </trkpt>
      <trkpt lat="48.23536" lon="6.67603">
        <ele>397.7</ele>
        <time>2025-01-12T08:36:14Z</time>
      </trkpt>
      <trkpt lat="48.23535" lon="6.67618">
        <ele>398.3</ele>
        <time>2025-01-12T08:36:22Z</time>
      </trkpt>
      <trkpt lat="48.23534" lon="6.67632">
        <ele>399.1</ele>
        <time>2025-01-12T08:36:30Z</time>
      </trkpt>
      <trkpt lat="48.23533" lon="6.67645">
        <ele>400</ele>
        <time>2025-01-12T08:36:37Z</time>
      </trkpt>
      <trkpt lat="48.23534" lon="6.6766">
        <ele>401</ele>
        <time>2025-01-12T08:36:45Z</time>
      </trkpt>
      <trkpt lat="48.23534" lon="6.67673">
        <ele>401.9</ele>
        <time>2025-01-12T08:36:52Z</time>
      </trkpt>
      <trkpt lat="48.23535" lon="6.67687">
        <ele>402.8</ele>
        <time>2025-01-12T08:36:59Z</time>
      </trkpt>
      <trkpt lat="48.23536" lon="6.67702">
        <ele>403.7</ele>
        <time>2025-01-12T08:37:07Z</time>
      </trkpt>
      <trkpt lat="48.23538" lon="6.67716">
        <ele>404.6</ele>
        <time>2025-01-12T08:37:14Z</time>
      </trkpt>
      <trkpt lat="48.23538" lon="6.6773">
        <ele>405.6</ele>
        <time>2025-01-12T08:37:21Z</time>
      </trkpt>
      <trkpt lat="48.23539" lon="6.67745">
        <ele>406.6</ele>
        <time>2025-01-12T08:37:29Z</time>
      </trkpt>
      <trkpt lat="48.23539" lon="6.6776">
        <ele>407.6</ele>
        <time>2025-01-12T08:37:37Z</time>
      </trkpt>
      <trkpt lat="48.23539" lon="6.67774">
        <ele>408.5</ele>
        <time>2025-01-12T08:37:44Z</time>
      </trkpt>
      <trkpt lat="48.2354" lon="6.67788">
        <ele>409.2</ele>
        <time>2025-01-12T08:37:51Z</time>
      </trkpt>
      <trkpt lat="48.23542" lon="6.67803">
        <ele>409.8</ele>
        <time>2025-01-12T08:37:59Z</time>
      </trkpt>
      <trkpt lat="48.23547" lon="6.67815">
        <ele>410.2</ele>
        <time>2025-01-12T08:38:06Z</time>
      </trkpt>
      <trkpt lat="48.23551" lon="6.67827">
        <ele>410.4</ele>
        <time>2025-01-12T08:38:13Z</time>
      </trkpt>
      <trkpt lat="48.23556" lon="6.67839">
        <ele>410.6</ele>
        <time>2025-01-12T08:38:20Z</time>
      </trkpt>
      <trkpt lat="48.2356" lon="6.67853">
        <ele>410.8</ele>
        <time>2025-01-12T08:38:28Z</time>
      </trkpt>
      <trkpt lat="48.23562" lon="6.67866">
        <ele>410.9</ele>
        <time>2025-01-12T08:38:35Z</time>
      </trkpt>
      <trkpt lat="48.23565" lon="6.67881">
        <ele>411.1</ele>
        <time>2025-01-12T08:38:43Z</time>
      </trkpt>
      <trkpt lat="48.23566" lon="6.67896">
        <ele>411.2</ele>
        <time>2025-01-12T08:38:51Z</time>
      </trkpt>
      <trkpt lat="48.23569" lon="6.6791">
        <ele>411.4</ele>
        <time>2025-01-12T08:38:58Z</time>
      </trkpt>
      <trkpt lat="48.2357" lon="6.67924">
        <ele>411.5</ele>
        <time>2025-01-12T08:39:06Z</time>
      </trkpt>
      <trkpt lat="48.23572" lon="6.67938">
        <ele>411.7</ele>
        <time>2025-01-12T08:39:13Z</time>
      </trkpt>
      <trkpt lat="48.23574" lon="6.67953">
        <ele>411.8</ele>
        <time>2025-01-12T08:39:21Z</time>
      </trkpt>
      <trkpt lat="48.23576" lon="6.67967">
        <ele>411.9</ele>
        <time>2025-01-12T08:39:29Z</time>
      </trkpt>
      <trkpt lat="48.23578" lon="6.67982">
        <ele>412.1</ele>
        <time>2025-01-12T08:39:37Z</time>
      </trkpt>
      <trkpt lat="48.23581" lon="6.67996">
        <ele>412.4</ele>
        <time>2025-01-12T08:39:45Z</time>
      </trkpt>
      <trkpt lat="48.23584" lon="6.6801">
        <ele>412.7</ele>
        <time>2025-01-12T08:39:53Z</time>
      </trkpt>
      <trkpt lat="48.23587" lon="6.68023">
        <ele>412.9</ele>
        <time>2025-01-12T08:40:00Z</time>
      </trkpt>
      <trkpt lat="48.23591" lon="6.68037">
        <ele>413</ele>
        <time>2025-01-12T08:40:08Z</time>
      </trkpt>
      <trkpt lat="48.23594" lon="6.68051">
        <ele>413.1</ele>
        <time>2025-01-12T08:40:16Z</time>
      </trkpt>
      <trkpt lat="48.23598" lon="6.68065">
        <ele>413.2</ele>
        <time>2025-01-12T08:40:24Z</time>
      </trkpt>
      <trkpt lat="48.23601" lon="6.68079">
        <ele>413.2</ele>
        <time>2025-01-12T08:40:31Z</time>
      </trkpt>
      <trkpt lat="48.23603" lon="6.68092">
        <ele>413.2</ele>
        <time>2025-01-12T08:40:38Z</time>
      </trkpt>
      <trkpt lat="48.23609" lon="6.68105">
        <ele>412.5</ele>
        <time>2025-01-12T08:40:46Z</time>
      </trkpt>
      <trkpt lat="48.23614" lon="6.68118">
        <ele>412</ele>
        <time>2025-01-12T08:40:54Z</time>
      </trkpt>
      <trkpt lat="48.2362" lon="6.68128">
        <ele>411.3</ele>
        <time>2025-01-12T08:41:02Z</time>
      </trkpt>
      <trkpt lat="48.23627" lon="6.68137">
        <ele>410.6</ele>
        <time>2025-01-12T08:41:10Z</time>
      </trkpt>
      <trkpt lat="48.23632" lon="6.68149">
        <ele>409.7</ele>
        <time>2025-01-12T08:41:17Z</time>
      </trkpt>
      <trkpt lat="48.23638" lon="6.68161">
        <ele>408.7</ele>
        <time>2025-01-12T08:41:26Z</time>
      </trkpt>
      <trkpt lat="48.23643" lon="6.68172">
        <ele>407.7</ele>
        <time>2025-01-12T08:41:33Z</time>
      </trkpt>
      <trkpt lat="48.23648" lon="6.68185">
        <ele>406.7</ele>
        <time>2025-01-12T08:41:40Z</time>
      </trkpt>
      <trkpt lat="48.23652" lon="6.68199">
        <ele>405.6</ele>
        <time>2025-01-12T08:41:47Z</time>
      </trkpt>
      <trkpt lat="48.23656" lon="6.68213">
        <ele>404.4</ele>
        <time>2025-01-12T08:41:54Z</time>
      </trkpt>
      <trkpt lat="48.23656" lon="6.68227">
        <ele>403.1</ele>
        <time>2025-01-12T08:42:03Z</time>
      </trkpt>
      <trkpt lat="48.23652" lon="6.6824">
        <ele>401.8</ele>
        <time>2025-01-12T08:42:11Z</time>
      </trkpt>
      <trkpt lat="48.23647" lon="6.68252">
        <ele>400.5</ele>
        <time>2025-01-12T08:42:19Z</time>
      </trkpt>
      <trkpt lat="48.23649" lon="6.68266">
        <ele>399.3</ele>
        <time>2025-01-12T08:42:27Z</time>
      </trkpt>
      <trkpt lat="48.23646" lon="6.68281">
        <ele>398.1</ele>
        <time>2025-01-12T08:42:37Z</time>
      </trkpt>
      <trkpt lat="48.23648" lon="6.68294">
        <ele>397.2</ele>
        <time>2025-01-12T08:42:44Z</time>
      </trkpt>
      <trkpt lat="48.2365" lon="6.6831">
        <ele>396.3</ele>
        <time>2025-01-12T08:42:52Z</time>
      </trkpt>
      <trkpt lat="48.2365" lon="6.68324">
        <ele>395.6</ele>
        <time>2025-01-12T08:43:00Z</time>
      </trkpt>
      <trkpt lat="48.23646" lon="6.68337">
        <ele>395</ele>
        <time>2025-01-12T08:43:08Z</time>
      </trkpt>
      <trkpt lat="48.23643" lon="6.68351">
        <ele>394.4</ele>
        <time>2025-01-12T08:43:16Z</time>
      </trkpt>
      <trkpt lat="48.23642" lon="6.68366">
        <ele>393.8</ele>
        <time>2025-01-12T08:43:24Z</time>
      </trkpt>
      <trkpt lat="48.23641" lon="6.68379">
        <ele>393.1</ele>
        <time>2025-01-12T08:43:33Z</time>
      </trkpt>
      <trkpt lat="48.23637" lon="6.68392">
        <ele>392.2</ele>
        <time>2025-01-12T08:43:40Z</time>
      </trkpt>
      <trkpt lat="48.23634" lon="6.68405">
        <ele>391.3</ele>
        <time>2025-01-12T08:43:47Z</time>
      </trkpt>
      <trkpt lat="48.23637" lon="6.6842">
        <ele>389.9</ele>
        <time>2025-01-12T08:43:54Z</time>
      </trkpt>
      <trkpt lat="48.23644" lon="6.6843">
        <ele>388.4</ele>
        <time>2025-01-12T08:44:00Z</time>
      </trkpt>
      <trkpt lat="48.23654" lon="6.68436">
        <ele>386.8</ele>
        <time>2025-01-12T08:44:07Z</time>
      </trkpt>
      <trkpt lat="48.23662" lon="6.68443">
        <ele>385.2</ele>
        <time>2025-01-12T08:44:14Z</time>
      </trkpt>
      <trkpt lat="48.2367" lon="6.6845">
        <ele>384.1</ele>
        <time>2025-01-12T08:44:25Z</time>
      </trkpt>
      <trkpt lat="48.2367" lon="6.6845">
        <ele>384</ele>
        <time>2025-01-12T08:44:26Z</time>
      </trkpt>
      <trkpt lat="48.2367" lon="6.68452">
        <ele>383.9</ele>
        <time>2025-01-12T08:44:27Z</time>
      </trkpt>
      <trkpt lat="48.2367" lon="6.68452">
        <ele>383.9</ele>
        <time>2025-01-12T08:44:28Z</time>
      </trkpt>
      <trkpt lat="48.2367" lon="6.68453">
        <ele>383.8</ele>
        <time>2025-01-12T08:44:36Z</time>
      </trkpt>
      <trkpt lat="48.23671" lon="6.68453">
        <ele>383.8</ele>
        <time>2025-01-12T08:44:37Z</time>
      </trkpt>
      <trkpt lat="48.23671" lon="6.68455">
        <ele>383.7</ele>
        <time>2025-01-12T08:44:38Z</time>
      </trkpt>
      <trkpt lat="48.23678" lon="6.68462">
        <ele>382.7</ele>
        <time>2025-01-12T08:44:47Z</time>
      </trkpt>
      <trkpt lat="48.23685" lon="6.68473">
        <ele>381.5</ele>
        <time>2025-01-12T08:44:55Z</time>
      </trkpt>
      <trkpt lat="48.23688" lon="6.68488">
        <ele>380.7</ele>
        <time>2025-01-12T08:45:02Z</time>
      </trkpt>
      <trkpt lat="48.23689" lon="6.68501">
        <ele>380.6</ele>
        <time>2025-01-12T08:45:09Z</time>
      </trkpt>
      <trkpt lat="48.23688" lon="6.6851">
        <ele>380.6</ele>
        <time>2025-01-12T08:45:19Z</time>
      </trkpt>
      <trkpt lat="48.23688" lon="6.6851">
        <ele>380.6</ele>
        <time>2025-01-12T08:45:20Z</time>
      </trkpt>
      <trkpt lat="48.23688" lon="6.6851">
        <ele>380.6</ele>
        <time>2025-01-12T08:45:21Z</time>
      </trkpt>
      <trkpt lat="48.23688" lon="6.6851">
        <ele>380.6</ele>
        <time>2025-01-12T08:45:24Z</time>
      </trkpt>
      <trkpt lat="48.23688" lon="6.6851">
        <ele>380.6</ele>
        <time>2025-01-12T08:45:25Z</time>
      </trkpt>
      <trkpt lat="48.23688" lon="6.6851">
        <ele>380.6</ele>
        <time>2025-01-12T08:45:26Z</time>
      </trkpt>
      <trkpt lat="48.23688" lon="6.6851">
        <ele>380.6</ele>
        <time>2025-01-12T08:45:27Z</time>
      </trkpt>
      <trkpt lat="48.23688" lon="6.6851">
        <ele>380.6</ele>
        <time>2025-01-12T08:45:28Z</time>
      </trkpt>
      <trkpt lat="48.23683" lon="6.68508">
        <ele>380.6</ele>
        <time>2025-01-12T08:45:38Z</time>
      </trkpt>
      <trkpt lat="48.23683" lon="6.68511">
        <ele>380.6</ele>
        <time>2025-01-12T08:45:39Z</time>
      </trkpt>
      <trkpt lat="48.23683" lon="6.68513">
        <ele>380.6</ele>
        <time>2025-01-12T08:45:40Z</time>
      </trkpt>
      <trkpt lat="48.23679" lon="6.68526">
        <ele>380.6</ele>
        <time>2025-01-12T08:45:49Z</time>
      </trkpt>
      <trkpt lat="48.23677" lon="6.6854">
        <ele>380.6</ele>
        <time>2025-01-12T08:45:58Z</time>
      </trkpt>
      <trkpt lat="48.23674" lon="6.68553">
        <ele>380.7</ele>
        <time>2025-01-12T08:46:08Z</time>
      </trkpt>
      <trkpt lat="48.23673" lon="6.68568">
        <ele>380.7</ele>
        <time>2025-01-12T08:46:17Z</time>
      </trkpt>
      <trkpt lat="48.23671" lon="6.68583">
        <ele>380.8</ele>
        <time>2025-01-12T08:46:26Z</time>
      </trkpt>
      <trkpt lat="48.23673" lon="6.68597">
        <ele>380.9</ele>
        <time>2025-01-12T08:46:33Z</time>
      </trkpt>
      <trkpt lat="48.23675" lon="6.68611">
        <ele>380.9</ele>
        <time>2025-01-12T08:46:41Z</time>
      </trkpt>
      <trkpt lat="48.23674" lon="6.68626">
        <ele>381</ele>
        <time>2025-01-12T08:46:48Z</time>
      </trkpt>
      <trkpt lat="48.23673" lon="6.68641">
        <ele>381.1</ele>
        <time>2025-01-12T08:46:56Z</time>
      </trkpt>
      <trkpt lat="48.23672" lon="6.68655">
        <ele>381.2</ele>
        <time>2025-01-12T08:47:03Z</time>
      </trkpt>
      <trkpt lat="48.23671" lon="6.68669">
        <ele>381.2</ele>
        <time>2025-01-12T08:47:11Z</time>
      </trkpt>
      <trkpt lat="48.2367" lon="6.68684">
        <ele>381.3</ele>
        <time>2025-01-12T08:47:19Z</time>
      </trkpt>
      <trkpt lat="48.23669" lon="6.68698">
        <ele>381.4</ele>
        <time>2025-01-12T08:47:26Z</time>
      </trkpt>
      <trkpt lat="48.23668" lon="6.68712">
        <ele>381.4</ele>
        <time>2025-01-12T08:47:33Z</time>
      </trkpt>
      <trkpt lat="48.23666" lon="6.68726">
        <ele>381.5</ele>
        <time>2025-01-12T08:47:40Z</time>
      </trkpt>
      <trkpt lat="48.23663" lon="6.68739">
        <ele>381.5</ele>
        <time>2025-01-12T08:47:47Z</time>
      </trkpt>
      <trkpt lat="48.23664" lon="6.68753">
        <ele>381.6</ele>
        <time>2025-01-12T08:47:54Z</time>
      </trkpt>
      <trkpt lat="48.23662" lon="6.68767">
        <ele>381.7</ele>
        <time>2025-01-12T08:48:01Z</time>
      </trkpt>
      <trkpt lat="48.23661" lon="6.6878">
        <ele>381.8</ele>
        <time>2025-01-12T08:48:09Z</time>
      </trkpt>
      <trkpt lat="48.23659" lon="6.68795">
        <ele>381.9</ele>
        <time>2025-01-12T08:48:17Z</time>
      </trkpt>
      <trkpt lat="48.2366" lon="6.6881">
        <ele>382.1</ele>
        <time>2025-01-12T08:48:25Z</time>
      </trkpt>
      <trkpt lat="48.23659" lon="6.68812">
        <ele>382.1</ele>
        <time>2025-01-12T08:48:29Z</time>
      </trkpt>
      <trkpt lat="48.23659" lon="6.68812">
        <ele>382.1</ele>
        <time>2025-01-12T08:48:30Z</time>
      </trkpt>
      <trkpt lat="48.23657" lon="6.68815">
        <ele>382.2</ele>
        <time>2025-01-12T08:48:47Z</time>
      </trkpt>
      <trkpt lat="48.23658" lon="6.68816">
        <ele>382.2</ele>
        <time>2025-01-12T08:48:48Z</time>
      </trkpt>
      <trkpt lat="48.2366" lon="6.68829">
        <ele>382.4</ele>
        <time>2025-01-12T08:48:56Z</time>
      </trkpt>
      <trkpt lat="48.23657" lon="6.68842">
        <ele>382.7</ele>
        <time>2025-01-12T08:49:03Z</time>
      </trkpt>
      <trkpt lat="48.23654" lon="6.68857">
        <ele>383.1</ele>
        <time>2025-01-12T08:49:11Z</time>
      </trkpt>
      <trkpt lat="48.23652" lon="6.68872">
        <ele>383.4</ele>
        <time>2025-01-12T08:49:19Z</time>
      </trkpt>
      <trkpt lat="48.23651" lon="6.68887">
        <ele>383.8</ele>
        <time>2025-01-12T08:49:26Z</time>
      </trkpt>
      <trkpt lat="48.23647" lon="6.689">
        <ele>384.1</ele>
        <time>2025-01-12T08:49:33Z</time>
      </trkpt>
      <trkpt lat="48.23647" lon="6.68914">
        <ele>384.4</ele>
        <time>2025-01-12T08:49:41Z</time>
      </trkpt>
      <trkpt lat="48.23647" lon="6.68929">
        <ele>384.7</ele>
        <time>2025-01-12T08:49:48Z</time>
      </trkpt>
      <trkpt lat="48.23642" lon="6.68941">
        <ele>384.9</ele>
        <time>2025-01-12T08:49:56Z</time>
      </trkpt>
      <trkpt lat="48.23641" lon="6.68955">
        <ele>385.2</ele>
        <time>2025-01-12T08:50:04Z</time>
      </trkpt>
      <trkpt lat="48.23637" lon="6.68968">
        <ele>385.4</ele>
        <time>2025-01-12T08:50:11Z</time>
      </trkpt>
      <trkpt lat="48.23636" lon="6.68982">
        <ele>385.6</ele>
        <time>2025-01-12T08:50:19Z</time>
      </trkpt>
      <trkpt lat="48.23636" lon="6.68996">
        <ele>385.8</ele>
        <time>2025-01-12T08:50:25Z</time>
      </trkpt>
      <trkpt lat="48.23637" lon="6.69011">
        <ele>386</ele>
        <time>2025-01-12T08:50:32Z</time>
      </trkpt>
      <trkpt lat="48.23634" lon="6.69024">
        <ele>386.2</ele>
        <time>2025-01-12T08:50:39Z</time>
      </trkpt>
      <trkpt lat="48.23633" lon="6.69039">
        <ele>386.4</ele>
        <time>2025-01-12T08:50:46Z</time>
      </trkpt>
      <trkpt lat="48.23627" lon="6.6905">
        <ele>386.7</ele>
        <time>2025-01-12T08:50:53Z</time>
      </trkpt>
      <trkpt lat="48.23622" lon="6.69061">
        <ele>386.9</ele>
        <time>2025-01-12T08:51:01Z</time>
      </trkpt>
      <trkpt lat="48.23615" lon="6.69064">
        <ele>387</ele>
        <time>2025-01-12T08:51:13Z</time>
      </trkpt>
      <trkpt lat="48.23615" lon="6.69064">
        <ele>387</ele>
        <time>2025-01-12T08:51:14Z</time>
      </trkpt>
      <trkpt lat="48.23615" lon="6.69064">
        <ele>387</ele>
        <time>2025-01-12T08:51:15Z</time>
      </trkpt>
      <trkpt lat="48.23615" lon="6.69066">
        <ele>387.1</ele>
        <time>2025-01-12T08:51:18Z</time>
      </trkpt>
      <trkpt lat="48.23616" lon="6.69067">
        <ele>387.1</ele>
        <time>2025-01-12T08:51:19Z</time>
      </trkpt>
      <trkpt lat="48.23617" lon="6.69069">
        <ele>387.1</ele>
        <time>2025-01-12T08:51:20Z</time>
      </trkpt>
      <trkpt lat="48.23619" lon="6.69076">
        <ele>387.2</ele>
        <time>2025-01-12T08:51:32Z</time>
      </trkpt>
      <trkpt lat="48.23619" lon="6.69076">
        <ele>387.2</ele>
        <time>2025-01-12T08:51:33Z</time>
      </trkpt>
      <trkpt lat="48.23617" lon="6.69076">
        <ele>387.3</ele>
        <time>2025-01-12T08:51:39Z</time>
      </trkpt>
      <trkpt lat="48.23616" lon="6.69075">
        <ele>387.3</ele>
        <time>2025-01-12T08:51:40Z</time>
      </trkpt>
      <trkpt lat="48.2361" lon="6.69066">
        <ele>387.5</ele>
        <time>2025-01-12T08:51:48Z</time>
      </trkpt>
      <trkpt lat="48.236" lon="6.69058">
        <ele>387.6</ele>
        <time>2025-01-12T08:51:56Z</time>
      </trkpt>
      <trkpt lat="48.23592" lon="6.69054">
        <ele>387.6</ele>
        <time>2025-01-12T08:52:03Z</time>
      </trkpt>
      <trkpt lat="48.23583" lon="6.69049">
        <ele>387.5</ele>
        <time>2025-01-12T08:52:13Z</time>
      </trkpt>
      <trkpt lat="48.23576" lon="6.69044">
        <ele>387.5</ele>
        <time>2025-01-12T08:52:29Z</time>
      </trkpt>
      <trkpt lat="48.23575" lon="6.69044">
        <ele>387.5</ele>
        <time>2025-01-12T08:52:30Z</time>
      </trkpt>
      <trkpt lat="48.23575" lon="6.69044">
        <ele>387.5</ele>
        <time>2025-01-12T08:52:31Z</time>
      </trkpt>
      <trkpt lat="48.23575" lon="6.69044">
        <ele>387.5</ele>
        <time>2025-01-12T08:52:32Z</time>
      </trkpt>
      <trkpt lat="48.23575" lon="6.69044">
        <ele>387.5</ele>
        <time>2025-01-12T08:52:33Z</time>
      </trkpt>
      <trkpt lat="48.23575" lon="6.69044">
        <ele>387.5</ele>
        <time>2025-01-12T08:52:34Z</time>
      </trkpt>
      <trkpt lat="48.23575" lon="6.69044">
        <ele>387.5</ele>
        <time>2025-01-12T08:52:35Z</time>
      </trkpt>
      <trkpt lat="48.23576" lon="6.69043">
        <ele>387.5</ele>
        <time>2025-01-12T08:52:49Z</time>
      </trkpt>
      <trkpt lat="48.23576" lon="6.69043">
        <ele>387.5</ele>
        <time>2025-01-12T08:52:50Z</time>
      </trkpt>
      <trkpt lat="48.23577" lon="6.69043">
        <ele>387.5</ele>
        <time>2025-01-12T08:52:54Z</time>
      </trkpt>
      <trkpt lat="48.23577" lon="6.69043">
        <ele>387.5</ele>
        <time>2025-01-12T08:52:55Z</time>
      </trkpt>
      <trkpt lat="48.23579" lon="6.69046">
        <ele>387.5</ele>
        <time>2025-01-12T08:53:11Z</time>
      </trkpt>
      <trkpt lat="48.2358" lon="6.69047">
        <ele>387.5</ele>
        <time>2025-01-12T08:53:12Z</time>
      </trkpt>
      <trkpt lat="48.23587" lon="6.69055">
        <ele>387.5</ele>
        <time>2025-01-12T08:53:35Z</time>
      </trkpt>
      <trkpt lat="48.23596" lon="6.6906">
        <ele>387.5</ele>
        <time>2025-01-12T08:53:42Z</time>
      </trkpt>
      <trkpt lat="48.23605" lon="6.69067">
        <ele>387.5</ele>
        <time>2025-01-12T08:53:49Z</time>
      </trkpt>
      <trkpt lat="48.23614" lon="6.69074">
        <ele>387.6</ele>
        <time>2025-01-12T08:53:56Z</time>
      </trkpt>
      <trkpt lat="48.23618" lon="6.69088">
        <ele>387.7</ele>
        <time>2025-01-12T08:54:04Z</time>
      </trkpt>
      <trkpt lat="48.2362" lon="6.69101">
        <ele>387.8</ele>
        <time>2025-01-12T08:54:12Z</time>
      </trkpt>
      <trkpt lat="48.23621" lon="6.69116">
        <ele>388.1</ele>
        <time>2025-01-12T08:54:20Z</time>
      </trkpt>
      <trkpt lat="48.23623" lon="6.6913">
        <ele>388.3</ele>
        <time>2025-01-12T08:54:28Z</time>
      </trkpt>
      <trkpt lat="48.23624" lon="6.69143">
        <ele>388.6</ele>
        <time>2025-01-12T08:54:35Z</time>
      </trkpt>
      <trkpt lat="48.23624" lon="6.69157">
        <ele>389</ele>
        <time>2025-01-12T08:54:42Z</time>
      </trkpt>
      <trkpt lat="48.23626" lon="6.69171">
        <ele>389.4</ele>
        <time>2025-01-12T08:54:50Z</time>
      </trkpt>
      <trkpt lat="48.23629" lon="6.69186">
        <ele>389.9</ele>
        <time>2025-01-12T08:54:58Z</time>
      </trkpt>
      <trkpt lat="48.23631" lon="6.692">
        <ele>390.5</ele>
        <time>2025-01-12T08:55:05Z</time>
      </trkpt>
      <trkpt lat="48.23635" lon="6.69213">
        <ele>391.2</ele>
        <time>2025-01-12T08:55:12Z</time>
      </trkpt>
      <trkpt lat="48.23639" lon="6.69227">
        <ele>392</ele>
        <time>2025-01-12T08:55:21Z</time>
      </trkpt>
      <trkpt lat="48.23641" lon="6.6924">
        <ele>392.8</ele>
        <time>2025-01-12T08:55:28Z</time>
      </trkpt>
      <trkpt lat="48.23643" lon="6.69254">
        <ele>393.5</ele>
        <time>2025-01-12T08:55:36Z</time>
      </trkpt>
      <trkpt lat="48.23644" lon="6.69269">
        <ele>394.4</ele>
        <time>2025-01-12T08:55:44Z</time>
      </trkpt>
      <trkpt lat="48.23645" lon="6.69283">
        <ele>395</ele>
        <time>2025-01-12T08:55:51Z</time>
      </trkpt>
      <trkpt lat="48.23646" lon="6.69298">
        <ele>395.5</ele>
        <time>2025-01-12T08:55:59Z</time>
      </trkpt>
      <trkpt lat="48.23644" lon="6.69312">
        <ele>395.8</ele>
        <time>2025-01-12T08:56:07Z</time>
      </trkpt>
      <trkpt lat="48.23642" lon="6.69327">
        <ele>396</ele>
        <time>2025-01-12T08:56:14Z</time>
      </trkpt>
      <trkpt lat="48.23639" lon="6.69341">
        <ele>396.1</ele>
        <time>2025-01-12T08:56:21Z</time>
      </trkpt>
      <trkpt lat="48.23639" lon="6.69355">
        <ele>396.1</ele>
        <time>2025-01-12T08:56:29Z</time>
      </trkpt>
      <trkpt lat="48.23645" lon="6.69356">
        <ele>396.2</ele>
        <time>2025-01-12T08:56:52Z</time>
      </trkpt>
      <trkpt lat="48.23645" lon="6.69356">
        <ele>396.2</ele>
        <time>2025-01-12T08:56:53Z</time>
      </trkpt>
      <trkpt lat="48.23645" lon="6.69356">
        <ele>396.2</ele>
        <time>2025-01-12T08:56:56Z</time>
      </trkpt>
      <trkpt lat="48.23644" lon="6.69355">
        <ele>396.2</ele>
        <time>2025-01-12T08:56:57Z</time>
      </trkpt>
      <trkpt lat="48.23644" lon="6.69355">
        <ele>396.2</ele>
        <time>2025-01-12T08:56:58Z</time>
      </trkpt>
      <trkpt lat="48.23644" lon="6.69358">
        <ele>396.2</ele>
        <time>2025-01-12T08:57:06Z</time>
      </trkpt>
      <trkpt lat="48.23644" lon="6.69358">
        <ele>396.2</ele>
        <time>2025-01-12T08:57:07Z</time>
      </trkpt>
      <trkpt lat="48.23644" lon="6.69358">
        <ele>396.2</ele>
        <time>2025-01-12T08:57:08Z</time>
      </trkpt>
      <trkpt lat="48.23644" lon="6.69358">
        <ele>396.2</ele>
        <time>2025-01-12T08:57:09Z</time>
      </trkpt>
      <trkpt lat="48.23644" lon="6.69358">
        <ele>396.2</ele>
        <time>2025-01-12T08:57:10Z</time>
      </trkpt>
      <trkpt lat="48.23643" lon="6.69358">
        <ele>396.2</ele>
        <time>2025-01-12T08:57:11Z</time>
      </trkpt>
      <trkpt lat="48.23643" lon="6.69358">
        <ele>396.2</ele>
        <time>2025-01-12T08:57:12Z</time>
      </trkpt>
      <trkpt lat="48.23643" lon="6.69358">
        <ele>396.2</ele>
        <time>2025-01-12T08:57:13Z</time>
      </trkpt>
      <trkpt lat="48.23643" lon="6.69358">
        <ele>396.2</ele>
        <time>2025-01-12T08:57:14Z</time>
      </trkpt>
      <trkpt lat="48.23643" lon="6.69359">
        <ele>396.2</ele>
        <time>2025-01-12T08:57:15Z</time>
      </trkpt>
      <trkpt lat="48.23644" lon="6.69359">
        <ele>396.2</ele>
        <time>2025-01-12T08:57:16Z</time>
      </trkpt>
      <trkpt lat="48.23643" lon="6.69359">
        <ele>396.2</ele>
        <time>2025-01-12T08:57:21Z</time>
      </trkpt>
      <trkpt lat="48.23643" lon="6.69359">
        <ele>396.2</ele>
        <time>2025-01-12T08:57:22Z</time>
      </trkpt>
      <trkpt lat="48.23643" lon="6.69359">
        <ele>396.2</ele>
        <time>2025-01-12T08:57:23Z</time>
      </trkpt>
      <trkpt lat="48.23643" lon="6.69359">
        <ele>396.2</ele>
        <time>2025-01-12T08:57:27Z</time>
      </trkpt>
      <trkpt lat="48.23643" lon="6.6936">
        <ele>396.2</ele>
        <time>2025-01-12T08:57:28Z</time>
      </trkpt>
      <trkpt lat="48.23645" lon="6.69374">
        <ele>396.3</ele>
        <time>2025-01-12T08:57:45Z</time>
      </trkpt>
      <trkpt lat="48.23644" lon="6.69389">
        <ele>396.3</ele>
        <time>2025-01-12T08:57:53Z</time>
      </trkpt>
      <trkpt lat="48.23643" lon="6.69403">
        <ele>396.3</ele>
        <time>2025-01-12T08:58:01Z</time>
      </trkpt>
      <trkpt lat="48.2364" lon="6.69416">
        <ele>396.2</ele>
        <time>2025-01-12T08:58:09Z</time>
      </trkpt>
      <trkpt lat="48.23637" lon="6.6943">
        <ele>396.1</ele>
        <time>2025-01-12T08:58:17Z</time>
      </trkpt>
      <trkpt lat="48.23633" lon="6.69444">
        <ele>396</ele>
        <time>2025-01-12T08:58:25Z</time>
      </trkpt>
      <trkpt lat="48.2363" lon="6.69457">
        <ele>395.8</ele>
        <time>2025-01-12T08:58:33Z</time>
      </trkpt>
      <trkpt lat="48.23626" lon="6.69471">
        <ele>395.6</ele>
        <time>2025-01-12T08:58:41Z</time>
      </trkpt>
      <trkpt lat="48.23623" lon="6.69485">
        <ele>395.2</ele>
        <time>2025-01-12T08:58:49Z</time>
      </trkpt>
      <trkpt lat="48.23618" lon="6.69498">
        <ele>394.6</ele>
        <time>2025-01-12T08:58:58Z</time>
      </trkpt>
      <trkpt lat="48.23616" lon="6.69511">
        <ele>394.1</ele>
        <time>2025-01-12T08:59:06Z</time>
      </trkpt>
      <trkpt lat="48.23615" lon="6.69525">
        <ele>393.6</ele>
        <time>2025-01-12T08:59:14Z</time>
      </trkpt>
      <trkpt lat="48.23614" lon="6.6954">
        <ele>393</ele>
        <time>2025-01-12T08:59:23Z</time>
      </trkpt>
      <trkpt lat="48.23612" lon="6.69554">
        <ele>392.4</ele>
        <time>2025-01-12T08:59:32Z</time>
      </trkpt>
      <trkpt lat="48.23612" lon="6.69569">
        <ele>391.8</ele>
        <time>2025-01-12T08:59:41Z</time>
      </trkpt>
      <trkpt lat="48.2361" lon="6.69584">
        <ele>391.4</ele>
        <time>2025-01-12T08:59:49Z</time>
      </trkpt>
      <trkpt lat="48.23608" lon="6.69598">
        <ele>391.1</ele>
        <time>2025-01-12T08:59:57Z</time>
      </trkpt>
      <trkpt lat="48.23605" lon="6.69612">
        <ele>391</ele>
        <time>2025-01-12T09:00:05Z</time>
      </trkpt>
      <trkpt lat="48.23604" lon="6.69626">
        <ele>390.9</ele>
        <time>2025-01-12T09:00:13Z</time>
      </trkpt>
      <trkpt lat="48.23602" lon="6.6964">
        <ele>390.9</ele>
        <time>2025-01-12T09:00:20Z</time>
      </trkpt>
      <trkpt lat="48.23601" lon="6.69654">
        <ele>391</ele>
        <time>2025-01-12T09:00:27Z</time>
      </trkpt>
      <trkpt lat="48.23598" lon="6.69667">
        <ele>391.2</ele>
        <time>2025-01-12T09:00:34Z</time>
      </trkpt>
      <trkpt lat="48.23594" lon="6.69681">
        <ele>391.4</ele>
        <time>2025-01-12T09:00:42Z</time>
      </trkpt>
      <trkpt lat="48.23588" lon="6.69694">
        <ele>391.7</ele>
        <time>2025-01-12T09:00:50Z</time>
      </trkpt>
      <trkpt lat="48.23583" lon="6.69706">
        <ele>392</ele>
        <time>2025-01-12T09:00:57Z</time>
      </trkpt>
      <trkpt lat="48.23579" lon="6.69718">
        <ele>392.5</ele>
        <time>2025-01-12T09:01:05Z</time>
      </trkpt>
      <trkpt lat="48.23573" lon="6.6973">
        <ele>392.9</ele>
        <time>2025-01-12T09:01:13Z</time>
      </trkpt>
      <trkpt lat="48.23567" lon="6.69742">
        <ele>393.5</ele>
        <time>2025-01-12T09:01:21Z</time>
      </trkpt>
      <trkpt lat="48.2356" lon="6.69751">
        <ele>394.1</ele>
        <time>2025-01-12T09:01:28Z</time>
      </trkpt>
      <trkpt lat="48.23553" lon="6.69761">
        <ele>394.6</ele>
        <time>2025-01-12T09:01:36Z</time>
      </trkpt>
      <trkpt lat="48.23547" lon="6.69772">
        <ele>394.8</ele>
        <time>2025-01-12T09:01:43Z</time>
      </trkpt>
      <trkpt lat="48.23541" lon="6.69784">
        <ele>394.8</ele>
        <time>2025-01-12T09:01:51Z</time>
      </trkpt>
      <trkpt lat="48.23536" lon="6.69796">
        <ele>394.8</ele>
        <time>2025-01-12T09:01:59Z</time>
      </trkpt>
      <trkpt lat="48.2353" lon="6.69809">
        <ele>394.7</ele>
        <time>2025-01-12T09:02:07Z</time>
      </trkpt>
      <trkpt lat="48.23526" lon="6.69822">
        <ele>394.7</ele>
        <time>2025-01-12T09:02:21Z</time>
      </trkpt>
      <trkpt lat="48.23524" lon="6.69836">
        <ele>394.7</ele>
        <time>2025-01-12T09:02:28Z</time>
      </trkpt>
      <trkpt lat="48.23519" lon="6.6985">
        <ele>394.7</ele>
        <time>2025-01-12T09:02:36Z</time>
      </trkpt>
      <trkpt lat="48.23513" lon="6.69861">
        <ele>394.7</ele>
        <time>2025-01-12T09:02:44Z</time>
      </trkpt>
      <trkpt lat="48.23507" lon="6.69873">
        <ele>394.9</ele>
        <time>2025-01-12T09:02:52Z</time>
      </trkpt>
      <trkpt lat="48.23499" lon="6.69883">
        <ele>395.1</ele>
        <time>2025-01-12T09:03:00Z</time>
      </trkpt>
      <trkpt lat="48.23492" lon="6.6989">
        <ele>395.3</ele>
        <time>2025-01-12T09:03:08Z</time>
      </trkpt>
      <trkpt lat="48.23483" lon="6.69893">
        <ele>395.5</ele>
        <time>2025-01-12T09:03:16Z</time>
      </trkpt>
      <trkpt lat="48.23473" lon="6.69894">
        <ele>395.8</ele>
        <time>2025-01-12T09:03:25Z</time>
      </trkpt>
      <trkpt lat="48.23465" lon="6.699">
        <ele>396.1</ele>
        <time>2025-01-12T09:03:32Z</time>
      </trkpt>
      <trkpt lat="48.23456" lon="6.69902">
        <ele>396.3</ele>
        <time>2025-01-12T09:03:40Z</time>
      </trkpt>
      <trkpt lat="48.23446" lon="6.69904">
        <ele>396.5</ele>
        <time>2025-01-12T09:03:48Z</time>
      </trkpt>
      <trkpt lat="48.23436" lon="6.69907">
        <ele>396.7</ele>
        <time>2025-01-12T09:03:56Z</time>
      </trkpt>
      <trkpt lat="48.23427" lon="6.6991">
        <ele>397</ele>
        <time>2025-01-12T09:04:04Z</time>
      </trkpt>
      <trkpt lat="48.23418" lon="6.69915">
        <ele>397.3</ele>
        <time>2025-01-12T09:04:12Z</time>
      </trkpt>
      <trkpt lat="48.23408" lon="6.69921">
        <ele>397.6</ele>
        <time>2025-01-12T09:04:20Z</time>
      </trkpt>
      <trkpt lat="48.234" lon="6.69927">
        <ele>397.8</ele>
        <time>2025-01-12T09:04:27Z</time>
      </trkpt>
      <trkpt lat="48.23391" lon="6.69934">
        <ele>397.9</ele>
        <time>2025-01-12T09:04:35Z</time>
      </trkpt>
      <trkpt lat="48.23383" lon="6.69941">
        <ele>397.9</ele>
        <time>2025-01-12T09:04:42Z</time>
      </trkpt>
      <trkpt lat="48.23374" lon="6.69949">
        <ele>397.8</ele>
        <time>2025-01-12T09:04:50Z</time>
      </trkpt>
      <trkpt lat="48.23365" lon="6.69956">
        <ele>397.8</ele>
        <time>2025-01-12T09:04:58Z</time>
      </trkpt>
      <trkpt lat="48.23357" lon="6.69964">
        <ele>397.7</ele>
        <time>2025-01-12T09:05:06Z</time>
      </trkpt>
      <trkpt lat="48.23348" lon="6.69972">
        <ele>397.7</ele>
        <time>2025-01-12T09:05:14Z</time>
      </trkpt>
      <trkpt lat="48.2334" lon="6.69979">
        <ele>397.6</ele>
        <time>2025-01-12T09:05:21Z</time>
      </trkpt>
      <trkpt lat="48.23332" lon="6.69985">
        <ele>397.6</ele>
        <time>2025-01-12T09:05:28Z</time>
      </trkpt>
      <trkpt lat="48.23323" lon="6.69993">
        <ele>397.6</ele>
        <time>2025-01-12T09:05:36Z</time>
      </trkpt>
      <trkpt lat="48.23314" lon="6.69998">
        <ele>397.6</ele>
        <time>2025-01-12T09:05:45Z</time>
      </trkpt>
      <trkpt lat="48.23305" lon="6.70002">
        <ele>397.6</ele>
        <time>2025-01-12T09:05:51Z</time>
      </trkpt>
      <trkpt lat="48.23296" lon="6.70008">
        <ele>397.7</ele>
        <time>2025-01-12T09:05:58Z</time>
      </trkpt>
      <trkpt lat="48.23288" lon="6.70014">
        <ele>397.9</ele>
        <time>2025-01-12T09:06:05Z</time>
      </trkpt>
      <trkpt lat="48.23279" lon="6.70023">
        <ele>398.2</ele>
        <time>2025-01-12T09:06:13Z</time>
      </trkpt>
      <trkpt lat="48.23272" lon="6.70033">
        <ele>398.5</ele>
        <time>2025-01-12T09:06:21Z</time>
      </trkpt>
      <trkpt lat="48.23266" lon="6.70042">
        <ele>398.8</ele>
        <time>2025-01-12T09:06:28Z</time>
      </trkpt>
      <trkpt lat="48.23258" lon="6.70053">
        <ele>399</ele>
        <time>2025-01-12T09:06:36Z</time>
      </trkpt>
      <trkpt lat="48.2325" lon="6.70059">
        <ele>399.2</ele>
        <time>2025-01-12T09:06:43Z</time>
      </trkpt>
      <trkpt lat="48.23241" lon="6.70067">
        <ele>399.4</ele>
        <time>2025-01-12T09:06:51Z</time>
      </trkpt>
      <trkpt lat="48.23233" lon="6.70075">
        <ele>399.5</ele>
        <time>2025-01-12T09:06:59Z</time>
      </trkpt>
      <trkpt lat="48.23225" lon="6.70083">
        <ele>399.7</ele>
        <time>2025-01-12T09:07:07Z</time>
      </trkpt>
      <trkpt lat="48.23216" lon="6.70091">
        <ele>399.8</ele>
        <time>2025-01-12T09:07:14Z</time>
      </trkpt>
      <trkpt lat="48.23208" lon="6.701">
        <ele>400</ele>
        <time>2025-01-12T09:07:22Z</time>
      </trkpt>
      <trkpt lat="48.232" lon="6.70109">
        <ele>400.1</ele>
        <time>2025-01-12T09:07:30Z</time>
      </trkpt>
      <trkpt lat="48.23192" lon="6.70117">
        <ele>400.2</ele>
        <time>2025-01-12T09:07:37Z</time>
      </trkpt>
      <trkpt lat="48.23185" lon="6.70124">
        <ele>400.2</ele>
        <time>2025-01-12T09:07:44Z</time>
      </trkpt>
      <trkpt lat="48.23177" lon="6.70135">
        <ele>400.4</ele>
        <time>2025-01-12T09:07:54Z</time>
      </trkpt>
      <trkpt lat="48.2317" lon="6.70144">
        <ele>400.5</ele>
        <time>2025-01-12T09:08:01Z</time>
      </trkpt>
      <trkpt lat="48.23162" lon="6.70152">
        <ele>400.7</ele>
        <time>2025-01-12T09:08:08Z</time>
      </trkpt>
      <trkpt lat="48.23154" lon="6.70162">
        <ele>401</ele>
        <time>2025-01-12T09:08:17Z</time>
      </trkpt>
      <trkpt lat="48.23147" lon="6.7017">
        <ele>401.2</ele>
        <time>2025-01-12T09:08:24Z</time>
      </trkpt>
      <trkpt lat="48.2314" lon="6.70178">
        <ele>401.4</ele>
        <time>2025-01-12T09:08:31Z</time>
      </trkpt>
      <trkpt lat="48.23132" lon="6.70185">
        <ele>401.5</ele>
        <time>2025-01-12T09:08:38Z</time>
      </trkpt>
      <trkpt lat="48.23123" lon="6.70193">
        <ele>401.8</ele>
        <time>2025-01-12T09:08:46Z</time>
      </trkpt>
      <trkpt lat="48.23116" lon="6.702">
        <ele>402.1</ele>
        <time>2025-01-12T09:08:53Z</time>
      </trkpt>
      <trkpt lat="48.23108" lon="6.7021">
        <ele>402.6</ele>
        <time>2025-01-12T09:09:01Z</time>
      </trkpt>
      <trkpt lat="48.231" lon="6.70218">
        <ele>403.2</ele>
        <time>2025-01-12T09:09:09Z</time>
      </trkpt>
      <trkpt lat="48.23091" lon="6.70226">
        <ele>403.9</ele>
        <time>2025-01-12T09:09:17Z</time>
      </trkpt>
      <trkpt lat="48.23082" lon="6.70232">
        <ele>404.8</ele>
        <time>2025-01-12T09:09:25Z</time>
      </trkpt>
      <trkpt lat="48.23072" lon="6.70233">
        <ele>405.6</ele>
        <time>2025-01-12T09:09:33Z</time>
      </trkpt>
      <trkpt lat="48.23063" lon="6.70234">
        <ele>406.5</ele>
        <time>2025-01-12T09:09:40Z</time>
      </trkpt>
      <trkpt lat="48.23053" lon="6.70234">
        <ele>407.4</ele>
        <time>2025-01-12T09:09:49Z</time>
      </trkpt>
      <trkpt lat="48.23044" lon="6.70234">
        <ele>408.2</ele>
        <time>2025-01-12T09:09:57Z</time>
      </trkpt>
      <trkpt lat="48.23034" lon="6.70235">
        <ele>409</ele>
        <time>2025-01-12T09:10:05Z</time>
      </trkpt>
      <trkpt lat="48.23024" lon="6.70239">
        <ele>409.5</ele>
        <time>2025-01-12T09:10:13Z</time>
      </trkpt>
      <trkpt lat="48.23016" lon="6.70247">
        <ele>409.8</ele>
        <time>2025-01-12T09:10:20Z</time>
      </trkpt>
      <trkpt lat="48.23011" lon="6.70259">
        <ele>410</ele>
        <time>2025-01-12T09:10:27Z</time>
      </trkpt>
      <trkpt lat="48.23007" lon="6.70271">
        <ele>409.9</ele>
        <time>2025-01-12T09:10:34Z</time>
      </trkpt>
      <trkpt lat="48.23002" lon="6.70283">
        <ele>409.7</ele>
        <time>2025-01-12T09:10:42Z</time>
      </trkpt>
      <trkpt lat="48.22997" lon="6.70296">
        <ele>409.4</ele>
        <time>2025-01-12T09:10:50Z</time>
      </trkpt>
      <trkpt lat="48.22992" lon="6.70309">
        <ele>409</ele>
        <time>2025-01-12T09:10:58Z</time>
      </trkpt>
      <trkpt lat="48.22985" lon="6.70317">
        <ele>408.7</ele>
        <time>2025-01-12T09:11:05Z</time>
      </trkpt>
      <trkpt lat="48.22975" lon="6.70324">
        <ele>408.4</ele>
        <time>2025-01-12T09:11:12Z</time>
      </trkpt>
      <trkpt lat="48.22967" lon="6.70332">
        <ele>408.2</ele>
        <time>2025-01-12T09:11:20Z</time>
      </trkpt>
      <trkpt lat="48.22958" lon="6.7034">
        <ele>408.1</ele>
        <time>2025-01-12T09:11:28Z</time>
      </trkpt>
      <trkpt lat="48.2295" lon="6.70346">
        <ele>408</ele>
        <time>2025-01-12T09:11:35Z</time>
      </trkpt>
      <trkpt lat="48.22941" lon="6.70354">
        <ele>407.9</ele>
        <time>2025-01-12T09:11:43Z</time>
      </trkpt>
      <trkpt lat="48.22932" lon="6.7036">
        <ele>407.8</ele>
        <time>2025-01-12T09:11:52Z</time>
      </trkpt>
      <trkpt lat="48.22923" lon="6.70362">
        <ele>407.8</ele>
        <time>2025-01-12T09:12:00Z</time>
      </trkpt>
      <trkpt lat="48.22913" lon="6.70363">
        <ele>407.9</ele>
        <time>2025-01-12T09:12:05Z</time>
      </trkpt>
      <trkpt lat="48.22904" lon="6.70365">
        <ele>407.9</ele>
        <time>2025-01-12T09:12:11Z</time>
      </trkpt>
      <trkpt lat="48.22895" lon="6.70369">
        <ele>408</ele>
        <time>2025-01-12T09:12:19Z</time>
      </trkpt>
      <trkpt lat="48.22886" lon="6.70374">
        <ele>408.2</ele>
        <time>2025-01-12T09:12:28Z</time>
      </trkpt>
      <trkpt lat="48.22877" lon="6.70378">
        <ele>408.4</ele>
        <time>2025-01-12T09:12:36Z</time>
      </trkpt>
      <trkpt lat="48.22867" lon="6.70378">
        <ele>408.6</ele>
        <time>2025-01-12T09:12:43Z</time>
      </trkpt>
      <trkpt lat="48.22857" lon="6.70381">
        <ele>408.9</ele>
        <time>2025-01-12T09:12:51Z</time>
      </trkpt>
      <trkpt lat="48.22847" lon="6.70383">
        <ele>409.2</ele>
        <time>2025-01-12T09:12:58Z</time>
      </trkpt>
      <trkpt lat="48.22837" lon="6.7038">
        <ele>409.6</ele>
        <time>2025-01-12T09:13:08Z</time>
      </trkpt>
      <trkpt lat="48.22828" lon="6.70381">
        <ele>409.9</ele>
        <time>2025-01-12T09:13:16Z</time>
      </trkpt>
      <trkpt lat="48.22818" lon="6.70381">
        <ele>410.1</ele>
        <time>2025-01-12T09:13:24Z</time>
      </trkpt>
      <trkpt lat="48.22818" lon="6.7038">
        <ele>410.1</ele>
        <time>2025-01-12T09:13:29Z</time>
      </trkpt>
      <trkpt lat="48.22818" lon="6.7038">
        <ele>410.1</ele>
        <time>2025-01-12T09:13:30Z</time>
      </trkpt>
      <trkpt lat="48.22818" lon="6.7038">
        <ele>410.1</ele>
        <time>2025-01-12T09:13:31Z</time>
      </trkpt>
      <trkpt lat="48.22817" lon="6.70381">
        <ele>410.1</ele>
        <time>2025-01-12T09:13:32Z</time>
      </trkpt>
      <trkpt lat="48.22817" lon="6.70382">
        <ele>410.1</ele>
        <time>2025-01-12T09:13:33Z</time>
      </trkpt>
      <trkpt lat="48.2281" lon="6.70392">
        <ele>410.1</ele>
        <time>2025-01-12T09:13:41Z</time>
      </trkpt>
      <trkpt lat="48.22803" lon="6.70403">
        <ele>410</ele>
        <time>2025-01-12T09:13:49Z</time>
      </trkpt>
      <trkpt lat="48.228" lon="6.70417">
        <ele>409.9</ele>
        <time>2025-01-12T09:13:57Z</time>
      </trkpt>
      <trkpt lat="48.22797" lon="6.7043">
        <ele>409.7</ele>
        <time>2025-01-12T09:14:05Z</time>
      </trkpt>
      <trkpt lat="48.22795" lon="6.70445">
        <ele>409.6</ele>
        <time>2025-01-12T09:14:13Z</time>
      </trkpt>
      <trkpt lat="48.22794" lon="6.70458">
        <ele>409.4</ele>
        <time>2025-01-12T09:14:20Z</time>
      </trkpt>
      <trkpt lat="48.22793" lon="6.70473">
        <ele>409.3</ele>
        <time>2025-01-12T09:14:27Z</time>
      </trkpt>
      <trkpt lat="48.2279" lon="6.70485">
        <ele>409.2</ele>
        <time>2025-01-12T09:14:35Z</time>
      </trkpt>
      <trkpt lat="48.22788" lon="6.705">
        <ele>409.2</ele>
        <time>2025-01-12T09:14:43Z</time>
      </trkpt>
      <trkpt lat="48.22785" lon="6.70514">
        <ele>409.1</ele>
        <time>2025-01-12T09:14:51Z</time>
      </trkpt>
      <trkpt lat="48.22782" lon="6.70528">
        <ele>409.2</ele>
        <time>2025-01-12T09:14:59Z</time>
      </trkpt>
      <trkpt lat="48.22775" lon="6.70538">
        <ele>409.3</ele>
        <time>2025-01-12T09:15:07Z</time>
      </trkpt>
      <trkpt lat="48.2277" lon="6.7055">
        <ele>409.5</ele>
        <time>2025-01-12T09:15:14Z</time>
      </trkpt>
      <trkpt lat="48.22764" lon="6.70561">
        <ele>409.7</ele>
        <time>2025-01-12T09:15:21Z</time>
      </trkpt>
      <trkpt lat="48.22757" lon="6.70571">
        <ele>410</ele>
        <time>2025-01-12T09:15:28Z</time>
      </trkpt>
      <trkpt lat="48.22749" lon="6.70579">
        <ele>410.4</ele>
        <time>2025-01-12T09:15:35Z</time>
      </trkpt>
      <trkpt lat="48.22743" lon="6.70589">
        <ele>410.9</ele>
        <time>2025-01-12T09:15:42Z</time>
      </trkpt>
      <trkpt lat="48.22734" lon="6.70598">
        <ele>411.4</ele>
        <time>2025-01-12T09:15:50Z</time>
      </trkpt>
      <trkpt lat="48.22726" lon="6.70605">
        <ele>412</ele>
        <time>2025-01-12T09:15:58Z</time>
      </trkpt>
      <trkpt lat="48.22716" lon="6.7061">
        <ele>412.7</ele>
        <time>2025-01-12T09:16:05Z</time>
      </trkpt>
      <trkpt lat="48.22708" lon="6.70617">
        <ele>413.4</ele>
        <time>2025-01-12T09:16:13Z</time>
      </trkpt>
      <trkpt lat="48.22699" lon="6.7062">
        <ele>414.2</ele>
        <time>2025-01-12T09:16:20Z</time>
      </trkpt>
      <trkpt lat="48.2269" lon="6.70624">
        <ele>415</ele>
        <time>2025-01-12T09:16:28Z</time>
      </trkpt>
      <trkpt lat="48.22682" lon="6.70631">
        <ele>415.8</ele>
        <time>2025-01-12T09:16:36Z</time>
      </trkpt>
      <trkpt lat="48.22673" lon="6.70639">
        <ele>416.6</ele>
        <time>2025-01-12T09:16:44Z</time>
      </trkpt>
      <trkpt lat="48.22664" lon="6.70645">
        <ele>417.3</ele>
        <time>2025-01-12T09:16:52Z</time>
      </trkpt>
      <trkpt lat="48.22655" lon="6.70651">
        <ele>417.8</ele>
        <time>2025-01-12T09:17:00Z</time>
      </trkpt>
      <trkpt lat="48.22647" lon="6.70659">
        <ele>418.1</ele>
        <time>2025-01-12T09:17:08Z</time>
      </trkpt>
      <trkpt lat="48.22639" lon="6.70667">
        <ele>418.3</ele>
        <time>2025-01-12T09:17:16Z</time>
      </trkpt>
      <trkpt lat="48.22632" lon="6.70675">
        <ele>418.5</ele>
        <time>2025-01-12T09:17:24Z</time>
      </trkpt>
      <trkpt lat="48.22623" lon="6.70679">
        <ele>418.6</ele>
        <time>2025-01-12T09:17:31Z</time>
      </trkpt>
      <trkpt lat="48.22614" lon="6.70688">
        <ele>418.8</ele>
        <time>2025-01-12T09:17:39Z</time>
      </trkpt>
      <trkpt lat="48.22606" lon="6.70693">
        <ele>418.9</ele>
        <time>2025-01-12T09:17:46Z</time>
      </trkpt>
      <trkpt lat="48.22597" lon="6.70699">
        <ele>419</ele>
        <time>2025-01-12T09:17:53Z</time>
      </trkpt>
      <trkpt lat="48.22589" lon="6.70704">
        <ele>419.2</ele>
        <time>2025-01-12T09:18:01Z</time>
      </trkpt>
      <trkpt lat="48.2258" lon="6.70712">
        <ele>419.5</ele>
        <time>2025-01-12T09:18:09Z</time>
      </trkpt>
      <trkpt lat="48.22571" lon="6.70717">
        <ele>419.9</ele>
        <time>2025-01-12T09:18:17Z</time>
      </trkpt>
      <trkpt lat="48.22563" lon="6.70724">
        <ele>420.3</ele>
        <time>2025-01-12T09:18:25Z</time>
      </trkpt>
      <trkpt lat="48.22554" lon="6.7073">
        <ele>420.8</ele>
        <time>2025-01-12T09:18:31Z</time>
      </trkpt>
      <trkpt lat="48.22547" lon="6.70738">
        <ele>421.2</ele>
        <time>2025-01-12T09:18:37Z</time>
      </trkpt>
      <trkpt lat="48.22538" lon="6.70743">
        <ele>421.7</ele>
        <time>2025-01-12T09:18:44Z</time>
      </trkpt>
      <trkpt lat="48.22528" lon="6.70748">
        <ele>422.2</ele>
        <time>2025-01-12T09:18:52Z</time>
      </trkpt>
      <trkpt lat="48.2252" lon="6.70752">
        <ele>422.6</ele>
        <time>2025-01-12T09:18:59Z</time>
      </trkpt>
      <trkpt lat="48.22511" lon="6.7076">
        <ele>423</ele>
        <time>2025-01-12T09:19:07Z</time>
      </trkpt>
      <trkpt lat="48.22503" lon="6.70768">
        <ele>423.4</ele>
        <time>2025-01-12T09:19:14Z</time>
      </trkpt>
      <trkpt lat="48.22495" lon="6.70773">
        <ele>423.8</ele>
        <time>2025-01-12T09:19:21Z</time>
      </trkpt>
      <trkpt lat="48.22485" lon="6.70779">
        <ele>424.2</ele>
        <time>2025-01-12T09:19:29Z</time>
      </trkpt>
      <trkpt lat="48.22476" lon="6.70784">
        <ele>424.6</ele>
        <time>2025-01-12T09:19:37Z</time>
      </trkpt>
      <trkpt lat="48.22467" lon="6.70787">
        <ele>425</ele>
        <time>2025-01-12T09:19:43Z</time>
      </trkpt>
      <trkpt lat="48.22458" lon="6.70794">
        <ele>425.3</ele>
        <time>2025-01-12T09:19:51Z</time>
      </trkpt>
      <trkpt lat="48.2245" lon="6.70801">
        <ele>425.7</ele>
        <time>2025-01-12T09:19:59Z</time>
      </trkpt>
      <trkpt lat="48.2244" lon="6.70802">
        <ele>426.2</ele>
        <time>2025-01-12T09:20:06Z</time>
      </trkpt>
      <trkpt lat="48.2243" lon="6.70803">
        <ele>426.7</ele>
        <time>2025-01-12T09:20:13Z</time>
      </trkpt>
      <trkpt lat="48.2242" lon="6.70808">
        <ele>427.3</ele>
        <time>2025-01-12T09:20:21Z</time>
      </trkpt>
      <trkpt lat="48.22411" lon="6.7081">
        <ele>428.1</ele>
        <time>2025-01-12T09:20:31Z</time>
      </trkpt>
      <trkpt lat="48.224" lon="6.7081">
        <ele>428.9</ele>
        <time>2025-01-12T09:20:41Z</time>
      </trkpt>
      <trkpt lat="48.22391" lon="6.70813">
        <ele>429.5</ele>
        <time>2025-01-12T09:20:47Z</time>
      </trkpt>
      <trkpt lat="48.22382" lon="6.7081">
        <ele>430.1</ele>
        <time>2025-01-12T09:20:56Z</time>
      </trkpt>
      <trkpt lat="48.22371" lon="6.7081">
        <ele>430.5</ele>
        <time>2025-01-12T09:21:03Z</time>
      </trkpt>
      <trkpt lat="48.22362" lon="6.70808">
        <ele>430.7</ele>
        <time>2025-01-12T09:21:12Z</time>
      </trkpt>
      <trkpt lat="48.22353" lon="6.70805">
        <ele>430.9</ele>
        <time>2025-01-12T09:21:18Z</time>
      </trkpt>
      <trkpt lat="48.22344" lon="6.70798">
        <ele>431.1</ele>
        <time>2025-01-12T09:21:28Z</time>
      </trkpt>
      <trkpt lat="48.22336" lon="6.7079">
        <ele>431.3</ele>
        <time>2025-01-12T09:21:37Z</time>
      </trkpt>
      <trkpt lat="48.22332" lon="6.70788">
        <ele>431.3</ele>
        <time>2025-01-12T09:21:46Z</time>
      </trkpt>
      <trkpt lat="48.22332" lon="6.70788">
        <ele>431.3</ele>
        <time>2025-01-12T09:21:47Z</time>
      </trkpt>
      <trkpt lat="48.2233" lon="6.70786">
        <ele>431.3</ele>
        <time>2025-01-12T09:22:17Z</time>
      </trkpt>
      <trkpt lat="48.22329" lon="6.70785">
        <ele>431.3</ele>
        <time>2025-01-12T09:22:18Z</time>
      </trkpt>
      <trkpt lat="48.22319" lon="6.7078">
        <ele>431</ele>
        <time>2025-01-12T09:22:27Z</time>
      </trkpt>
      <trkpt lat="48.2231" lon="6.70778">
        <ele>430.6</ele>
        <time>2025-01-12T09:22:36Z</time>
      </trkpt>
      <trkpt lat="48.22301" lon="6.70776">
        <ele>430.1</ele>
        <time>2025-01-12T09:22:43Z</time>
      </trkpt>
      <trkpt lat="48.22291" lon="6.70775">
        <ele>429.6</ele>
        <time>2025-01-12T09:22:53Z</time>
      </trkpt>
      <trkpt lat="48.22282" lon="6.70774">
        <ele>429.3</ele>
        <time>2025-01-12T09:23:02Z</time>
      </trkpt>
      <trkpt lat="48.22271" lon="6.7077">
        <ele>429.1</ele>
        <time>2025-01-12T09:23:10Z</time>
      </trkpt>
      <trkpt lat="48.22261" lon="6.70768">
        <ele>429.1</ele>
        <time>2025-01-12T09:23:17Z</time>
      </trkpt>
      <trkpt lat="48.22253" lon="6.70764">
        <ele>429.3</ele>
        <time>2025-01-12T09:23:24Z</time>
      </trkpt>
      <trkpt lat="48.22243" lon="6.70762">
        <ele>429.7</ele>
        <time>2025-01-12T09:23:33Z</time>
      </trkpt>
      <trkpt lat="48.22234" lon="6.70757">
        <ele>430.2</ele>
        <time>2025-01-12T09:23:40Z</time>
      </trkpt>
      <trkpt lat="48.22225" lon="6.7075">
        <ele>430.7</ele>
        <time>2025-01-12T09:23:49Z</time>
      </trkpt>
      <trkpt lat="48.22218" lon="6.70741">
        <ele>431.2</ele>
        <time>2025-01-12T09:23:57Z</time>
      </trkpt>
      <trkpt lat="48.2221" lon="6.70734">
        <ele>431.6</ele>
        <time>2025-01-12T09:24:04Z</time>
      </trkpt>
      <trkpt lat="48.22201" lon="6.70731">
        <ele>432</ele>
        <time>2025-01-12T09:24:10Z</time>
      </trkpt>
      <trkpt lat="48.22191" lon="6.70728">
        <ele>432.3</ele>
        <time>2025-01-12T09:24:17Z</time>
      </trkpt>
      <trkpt lat="48.22181" lon="6.70726">
        <ele>432.6</ele>
        <time>2025-01-12T09:24:25Z</time>
      </trkpt>
      <trkpt lat="48.22171" lon="6.70721">
        <ele>433</ele>
        <time>2025-01-12T09:24:33Z</time>
      </trkpt>
      <trkpt lat="48.22162" lon="6.70715">
        <ele>433.3</ele>
        <time>2025-01-12T09:24:40Z</time>
      </trkpt>
      <trkpt lat="48.22155" lon="6.70706">
        <ele>433.6</ele>
        <time>2025-01-12T09:24:48Z</time>
      </trkpt>
      <trkpt lat="48.22146" lon="6.70702">
        <ele>433.8</ele>
        <time>2025-01-12T09:24:57Z</time>
      </trkpt>
      <trkpt lat="48.22136" lon="6.70701">
        <ele>433.9</ele>
        <time>2025-01-12T09:25:04Z</time>
      </trkpt>
      <trkpt lat="48.22127" lon="6.70702">
        <ele>434</ele>
        <time>2025-01-12T09:25:10Z</time>
      </trkpt>
      <trkpt lat="48.22117" lon="6.707">
        <ele>434</ele>
        <time>2025-01-12T09:25:17Z</time>
      </trkpt>
      <trkpt lat="48.22108" lon="6.70701">
        <ele>434</ele>
        <time>2025-01-12T09:25:23Z</time>
      </trkpt>
      <trkpt lat="48.22099" lon="6.70695">
        <ele>434</ele>
        <time>2025-01-12T09:25:33Z</time>
      </trkpt>
      <trkpt lat="48.2209" lon="6.70696">
        <ele>434.1</ele>
        <time>2025-01-12T09:25:46Z</time>
      </trkpt>
      <trkpt lat="48.22081" lon="6.70696">
        <ele>433.9</ele>
        <time>2025-01-12T09:25:54Z</time>
      </trkpt>
      <trkpt lat="48.22071" lon="6.70697">
        <ele>433.6</ele>
        <time>2025-01-12T09:26:01Z</time>
      </trkpt>
      <trkpt lat="48.22062" lon="6.70698">
        <ele>433.3</ele>
        <time>2025-01-12T09:26:09Z</time>
      </trkpt>
      <trkpt lat="48.22052" lon="6.70697">
        <ele>432.9</ele>
        <time>2025-01-12T09:26:18Z</time>
      </trkpt>
      <trkpt lat="48.22042" lon="6.70696">
        <ele>432.3</ele>
        <time>2025-01-12T09:26:25Z</time>
      </trkpt>
      <trkpt lat="48.22033" lon="6.70696">
        <ele>431.7</ele>
        <time>2025-01-12T09:26:32Z</time>
      </trkpt>
      <trkpt lat="48.22024" lon="6.70694">
        <ele>431</ele>
        <time>2025-01-12T09:26:40Z</time>
      </trkpt>
      <trkpt lat="48.22014" lon="6.70693">
        <ele>430.4</ele>
        <time>2025-01-12T09:26:49Z</time>
      </trkpt>
      <trkpt lat="48.22005" lon="6.70692">
        <ele>429.8</ele>
        <time>2025-01-12T09:26:55Z</time>
      </trkpt>
      <trkpt lat="48.21995" lon="6.70692">
        <ele>429.4</ele>
        <time>2025-01-12T09:27:02Z</time>
      </trkpt>
      <trkpt lat="48.21986" lon="6.70694">
        <ele>429.1</ele>
        <time>2025-01-12T09:27:09Z</time>
      </trkpt>
      <trkpt lat="48.21976" lon="6.707">
        <ele>428.9</ele>
        <time>2025-01-12T09:27:17Z</time>
      </trkpt>
      <trkpt lat="48.21968" lon="6.70705">
        <ele>428.9</ele>
        <time>2025-01-12T09:27:23Z</time>
      </trkpt>
      <trkpt lat="48.21962" lon="6.70707">
        <ele>428.9</ele>
        <time>2025-01-12T09:27:32Z</time>
      </trkpt>
      <trkpt lat="48.21961" lon="6.70707">
        <ele>428.9</ele>
        <time>2025-01-12T09:27:33Z</time>
      </trkpt>
      <trkpt lat="48.2196" lon="6.70708">
        <ele>428.9</ele>
        <time>2025-01-12T09:27:34Z</time>
      </trkpt>
      <trkpt lat="48.21959" lon="6.70709">
        <ele>428.9</ele>
        <time>2025-01-12T09:27:35Z</time>
      </trkpt>
      <trkpt lat="48.2195" lon="6.70715">
        <ele>429</ele>
        <time>2025-01-12T09:27:43Z</time>
      </trkpt>
      <trkpt lat="48.21947" lon="6.70716">
        <ele>429</ele>
        <time>2025-01-12T09:27:51Z</time>
      </trkpt>
      <trkpt lat="48.21947" lon="6.70717">
        <ele>429</ele>
        <time>2025-01-12T09:27:52Z</time>
      </trkpt>
      <trkpt lat="48.21947" lon="6.70718">
        <ele>429</ele>
        <time>2025-01-12T09:27:53Z</time>
      </trkpt>
      <trkpt lat="48.21946" lon="6.70719">
        <ele>429</ele>
        <time>2025-01-12T09:27:54Z</time>
      </trkpt>
      <trkpt lat="48.21945" lon="6.7072">
        <ele>429</ele>
        <time>2025-01-12T09:27:55Z</time>
      </trkpt>
      <trkpt lat="48.21936" lon="6.70725">
        <ele>429.2</ele>
        <time>2025-01-12T09:28:02Z</time>
      </trkpt>
      <trkpt lat="48.21926" lon="6.70728">
        <ele>429.4</ele>
        <time>2025-01-12T09:28:10Z</time>
      </trkpt>
      <trkpt lat="48.21917" lon="6.7073">
        <ele>429.7</ele>
        <time>2025-01-12T09:28:17Z</time>
      </trkpt>
      <trkpt lat="48.21908" lon="6.70735">
        <ele>429.9</ele>
        <time>2025-01-12T09:28:26Z</time>
      </trkpt>
      <trkpt lat="48.21899" lon="6.70739">
        <ele>430.3</ele>
        <time>2025-01-12T09:28:34Z</time>
      </trkpt>
      <trkpt lat="48.2189" lon="6.70743">
        <ele>430.7</ele>
        <time>2025-01-12T09:28:42Z</time>
      </trkpt>
      <trkpt lat="48.21881" lon="6.70744">
        <ele>431.1</ele>
        <time>2025-01-12T09:28:50Z</time>
      </trkpt>
      <trkpt lat="48.21871" lon="6.70745">
        <ele>431.5</ele>
        <time>2025-01-12T09:28:58Z</time>
      </trkpt>
      <trkpt lat="48.21862" lon="6.70746">
        <ele>432</ele>
        <time>2025-01-12T09:29:06Z</time>
      </trkpt>
      <trkpt lat="48.21853" lon="6.70749">
        <ele>432.4</ele>
        <time>2025-01-12T09:29:14Z</time>
      </trkpt>
      <trkpt lat="48.21844" lon="6.70753">
        <ele>432.9</ele>
        <time>2025-01-12T09:29:22Z</time>
      </trkpt>
      <trkpt lat="48.21834" lon="6.70758">
        <ele>433.5</ele>
        <time>2025-01-12T09:29:31Z</time>
      </trkpt>
      <trkpt lat="48.21825" lon="6.7076">
        <ele>434</ele>
        <time>2025-01-12T09:29:40Z</time>
      </trkpt>
      <trkpt lat="48.21815" lon="6.70763">
        <ele>434.4</ele>
        <time>2025-01-12T09:29:48Z</time>
      </trkpt>
      <trkpt lat="48.21806" lon="6.70766">
        <ele>435</ele>
        <time>2025-01-12T09:29:56Z</time>
      </trkpt>
      <trkpt lat="48.21798" lon="6.70773">
        <ele>435.5</ele>
        <time>2025-01-12T09:30:04Z</time>
      </trkpt>
      <trkpt lat="48.21789" lon="6.70774">
        <ele>436.1</ele>
        <time>2025-01-12T09:30:12Z</time>
      </trkpt>
      <trkpt lat="48.21779" lon="6.70776">
        <ele>436.6</ele>
        <time>2025-01-12T09:30:20Z</time>
      </trkpt>
      <trkpt lat="48.21769" lon="6.70779">
        <ele>437.2</ele>
        <time>2025-01-12T09:30:28Z</time>
      </trkpt>
      <trkpt lat="48.2176" lon="6.70781">
        <ele>437.6</ele>
        <time>2025-01-12T09:30:35Z</time>
      </trkpt>
      <trkpt lat="48.2175" lon="6.70784">
        <ele>438.1</ele>
        <time>2025-01-12T09:30:43Z</time>
      </trkpt>
      <trkpt lat="48.2174" lon="6.70786">
        <ele>438.7</ele>
        <time>2025-01-12T09:30:51Z</time>
      </trkpt>
      <trkpt lat="48.21729" lon="6.70787">
        <ele>439.2</ele>
        <time>2025-01-12T09:30:59Z</time>
      </trkpt>
      <trkpt lat="48.2172" lon="6.70788">
        <ele>439.8</ele>
        <time>2025-01-12T09:31:07Z</time>
      </trkpt>
      <trkpt lat="48.21711" lon="6.70789">
        <ele>440.4</ele>
        <time>2025-01-12T09:31:14Z</time>
      </trkpt>
      <trkpt lat="48.21702" lon="6.70793">
        <ele>441</ele>
        <time>2025-01-12T09:31:22Z</time>
      </trkpt>
      <trkpt lat="48.21693" lon="6.70797">
        <ele>441.7</ele>
        <time>2025-01-12T09:31:30Z</time>
      </trkpt>
      <trkpt lat="48.21684" lon="6.70799">
        <ele>442.5</ele>
        <time>2025-01-12T09:31:37Z</time>
      </trkpt>
      <trkpt lat="48.21674" lon="6.70801">
        <ele>443.3</ele>
        <time>2025-01-12T09:31:44Z</time>
      </trkpt>
      <trkpt lat="48.21665" lon="6.70805">
        <ele>444.3</ele>
        <time>2025-01-12T09:31:52Z</time>
      </trkpt>
      <trkpt lat="48.21656" lon="6.70811">
        <ele>445.3</ele>
        <time>2025-01-12T09:32:00Z</time>
      </trkpt>
      <trkpt lat="48.21648" lon="6.70818">
        <ele>446.3</ele>
        <time>2025-01-12T09:32:08Z</time>
      </trkpt>
      <trkpt lat="48.2164" lon="6.70826">
        <ele>447.3</ele>
        <time>2025-01-12T09:32:16Z</time>
      </trkpt>
      <trkpt lat="48.21633" lon="6.70837">
        <ele>448.3</ele>
        <time>2025-01-12T09:32:24Z</time>
      </trkpt>
      <trkpt lat="48.21628" lon="6.70848">
        <ele>449.2</ele>
        <time>2025-01-12T09:32:32Z</time>
      </trkpt>
      <trkpt lat="48.21622" lon="6.7086">
        <ele>450.2</ele>
        <time>2025-01-12T09:32:40Z</time>
      </trkpt>
      <trkpt lat="48.21618" lon="6.70873">
        <ele>451.2</ele>
        <time>2025-01-12T09:32:48Z</time>
      </trkpt>
      <trkpt lat="48.21613" lon="6.70886">
        <ele>452.2</ele>
        <time>2025-01-12T09:32:56Z</time>
      </trkpt>
      <trkpt lat="48.21607" lon="6.70898">
        <ele>453</ele>
        <time>2025-01-12T09:33:04Z</time>
      </trkpt>
      <trkpt lat="48.21603" lon="6.70911">
        <ele>453.8</ele>
        <time>2025-01-12T09:33:12Z</time>
      </trkpt>
      <trkpt lat="48.21598" lon="6.70924">
        <ele>454.3</ele>
        <time>2025-01-12T09:33:20Z</time>
      </trkpt>
      <trkpt lat="48.21594" lon="6.70938">
        <ele>454.6</ele>
        <time>2025-01-12T09:33:28Z</time>
      </trkpt>
      <trkpt lat="48.2159" lon="6.70951">
        <ele>454.8</ele>
        <time>2025-01-12T09:33:36Z</time>
      </trkpt>
      <trkpt lat="48.21584" lon="6.70963">
        <ele>454.7</ele>
        <time>2025-01-12T09:33:44Z</time>
      </trkpt>
      <trkpt lat="48.21579" lon="6.70976">
        <ele>454.6</ele>
        <time>2025-01-12T09:33:52Z</time>
      </trkpt>
      <trkpt lat="48.21573" lon="6.70987">
        <ele>454.3</ele>
        <time>2025-01-12T09:33:59Z</time>
      </trkpt>
      <trkpt lat="48.21566" lon="6.70996">
        <ele>454</ele>
        <time>2025-01-12T09:34:06Z</time>
      </trkpt>
      <trkpt lat="48.21561" lon="6.71008">
        <ele>453.6</ele>
        <time>2025-01-12T09:34:14Z</time>
      </trkpt>
      <trkpt lat="48.21556" lon="6.7102">
        <ele>453.2</ele>
        <time>2025-01-12T09:34:22Z</time>
      </trkpt>
      <trkpt lat="48.21551" lon="6.71032">
        <ele>452.8</ele>
        <time>2025-01-12T09:34:30Z</time>
      </trkpt>
      <trkpt lat="48.21541" lon="6.71031">
        <ele>451.6</ele>
        <time>2025-01-12T09:34:41Z</time>
      </trkpt>
      <trkpt lat="48.21535" lon="6.71021">
        <ele>450.9</ele>
        <time>2025-01-12T09:34:49Z</time>
      </trkpt>
      <trkpt lat="48.21528" lon="6.7101">
        <ele>450.3</ele>
        <time>2025-01-12T09:34:57Z</time>
      </trkpt>
      <trkpt lat="48.21521" lon="6.70999">
        <ele>449.8</ele>
        <time>2025-01-12T09:35:06Z</time>
      </trkpt>
      <trkpt lat="48.21514" lon="6.7099">
        <ele>449.4</ele>
        <time>2025-01-12T09:35:14Z</time>
      </trkpt>
      <trkpt lat="48.21506" lon="6.70981">
        <ele>449.2</ele>
        <time>2025-01-12T09:35:22Z</time>
      </trkpt>
      <trkpt lat="48.21499" lon="6.70974">
        <ele>449</ele>
        <time>2025-01-12T09:35:29Z</time>
      </trkpt>
      <trkpt lat="48.21489" lon="6.70969">
        <ele>448.8</ele>
        <time>2025-01-12T09:35:37Z</time>
      </trkpt>
      <trkpt lat="48.2148" lon="6.70974">
        <ele>448.7</ele>
        <time>2025-01-12T09:35:45Z</time>
      </trkpt>
      <trkpt lat="48.21472" lon="6.70983">
        <ele>448.7</ele>
        <time>2025-01-12T09:35:53Z</time>
      </trkpt>
      <trkpt lat="48.21465" lon="6.70993">
        <ele>448.8</ele>
        <time>2025-01-12T09:36:00Z</time>
      </trkpt>
      <trkpt lat="48.21459" lon="6.71005">
        <ele>448.9</ele>
        <time>2025-01-12T09:36:08Z</time>
      </trkpt>
      <trkpt lat="48.21453" lon="6.71018">
        <ele>449.1</ele>
        <time>2025-01-12T09:36:16Z</time>
      </trkpt>
      <trkpt lat="48.21447" lon="6.7103">
        <ele>449.4</ele>
        <time>2025-01-12T09:36:24Z</time>
      </trkpt>
      <trkpt lat="48.21441" lon="6.71042">
        <ele>449.7</ele>
        <time>2025-01-12T09:36:32Z</time>
      </trkpt>
      <trkpt lat="48.21435" lon="6.71055">
        <ele>450.1</ele>
        <time>2025-01-12T09:36:40Z</time>
      </trkpt>
      <trkpt lat="48.2143" lon="6.71066">
        <ele>450.5</ele>
        <time>2025-01-12T09:36:48Z</time>
      </trkpt>
      <trkpt lat="48.21427" lon="6.7108">
        <ele>450.9</ele>
        <time>2025-01-12T09:36:57Z</time>
      </trkpt>
      <trkpt lat="48.2142" lon="6.71091">
        <ele>451.4</ele>
        <time>2025-01-12T09:37:05Z</time>
      </trkpt>
      <trkpt lat="48.21413" lon="6.711">
        <ele>451.9</ele>
        <time>2025-01-12T09:37:13Z</time>
      </trkpt>
      <trkpt lat="48.21406" lon="6.71109">
        <ele>452.4</ele>
        <time>2025-01-12T09:37:21Z</time>
      </trkpt>
      <trkpt lat="48.21399" lon="6.71119">
        <ele>452.9</ele>
        <time>2025-01-12T09:37:29Z</time>
      </trkpt>
      <trkpt lat="48.21393" lon="6.71129">
        <ele>453.6</ele>
        <time>2025-01-12T09:37:36Z</time>
      </trkpt>
      <trkpt lat="48.21386" lon="6.7114">
        <ele>454.5</ele>
        <time>2025-01-12T09:37:44Z</time>
      </trkpt>
      <trkpt lat="48.21377" lon="6.71147">
        <ele>455.9</ele>
        <time>2025-01-12T09:37:52Z</time>
      </trkpt>
      <trkpt lat="48.21369" lon="6.71153">
        <ele>457.5</ele>
        <time>2025-01-12T09:38:00Z</time>
      </trkpt>
      <trkpt lat="48.2136" lon="6.71159">
        <ele>459.1</ele>
        <time>2025-01-12T09:38:09Z</time>
      </trkpt>
      <trkpt lat="48.21351" lon="6.71163">
        <ele>460.2</ele>
        <time>2025-01-12T09:38:20Z</time>
      </trkpt>
      <trkpt lat="48.21342" lon="6.71166">
        <ele>461.1</ele>
        <time>2025-01-12T09:38:30Z</time>
      </trkpt>
      <trkpt lat="48.21332" lon="6.7117">
        <ele>462</ele>
        <time>2025-01-12T09:38:39Z</time>
      </trkpt>
      <trkpt lat="48.21323" lon="6.71175">
        <ele>462.9</ele>
        <time>2025-01-12T09:38:48Z</time>
      </trkpt>
      <trkpt lat="48.21314" lon="6.71177">
        <ele>464</ele>
        <time>2025-01-12T09:38:56Z</time>
      </trkpt>
      <trkpt lat="48.21304" lon="6.71175">
        <ele>465.2</ele>
        <time>2025-01-12T09:39:04Z</time>
      </trkpt>
      <trkpt lat="48.21295" lon="6.71178">
        <ele>466.5</ele>
        <time>2025-01-12T09:39:12Z</time>
      </trkpt>
      <trkpt lat="48.21287" lon="6.71183">
        <ele>467.8</ele>
        <time>2025-01-12T09:39:20Z</time>
      </trkpt>
      <trkpt lat="48.21279" lon="6.71191">
        <ele>469.1</ele>
        <time>2025-01-12T09:39:28Z</time>
      </trkpt>
      <trkpt lat="48.21272" lon="6.71199">
        <ele>470.4</ele>
        <time>2025-01-12T09:39:36Z</time>
      </trkpt>
      <trkpt lat="48.21265" lon="6.71209">
        <ele>471.8</ele>
        <time>2025-01-12T09:39:45Z</time>
      </trkpt>
      <trkpt lat="48.21256" lon="6.71217">
        <ele>473</ele>
        <time>2025-01-12T09:39:53Z</time>
      </trkpt>
      <trkpt lat="48.21249" lon="6.71227">
        <ele>474</ele>
        <time>2025-01-12T09:40:01Z</time>
      </trkpt>
      <trkpt lat="48.21244" lon="6.71239">
        <ele>474.5</ele>
        <time>2025-01-12T09:40:11Z</time>
      </trkpt>
      <trkpt lat="48.21238" lon="6.7125">
        <ele>474.1</ele>
        <time>2025-01-12T09:40:20Z</time>
      </trkpt>
      <trkpt lat="48.21236" lon="6.71263">
        <ele>473.8</ele>
        <time>2025-01-12T09:40:28Z</time>
      </trkpt>
      <trkpt lat="48.21232" lon="6.71275">
        <ele>473.5</ele>
        <time>2025-01-12T09:40:36Z</time>
      </trkpt>
      <trkpt lat="48.21228" lon="6.71289">
        <ele>473.2</ele>
        <time>2025-01-12T09:40:45Z</time>
      </trkpt>
      <trkpt lat="48.21226" lon="6.71295">
        <ele>473.1</ele>
        <time>2025-01-12T09:40:54Z</time>
      </trkpt>
      <trkpt lat="48.21226" lon="6.71295">
        <ele>473.1</ele>
        <time>2025-01-12T09:40:55Z</time>
      </trkpt>
      <trkpt lat="48.21226" lon="6.71295">
        <ele>473.1</ele>
        <time>2025-01-12T09:40:56Z</time>
      </trkpt>
      <trkpt lat="48.21226" lon="6.71295">
        <ele>473.1</ele>
        <time>2025-01-12T09:40:59Z</time>
      </trkpt>
      <trkpt lat="48.21226" lon="6.71296">
        <ele>473.1</ele>
        <time>2025-01-12T09:41:00Z</time>
      </trkpt>
      <trkpt lat="48.21226" lon="6.71298">
        <ele>473.1</ele>
        <time>2025-01-12T09:41:01Z</time>
      </trkpt>
      <trkpt lat="48.21223" lon="6.71312">
        <ele>473</ele>
        <time>2025-01-12T09:41:11Z</time>
      </trkpt>
      <trkpt lat="48.2122" lon="6.71324">
        <ele>472.9</ele>
        <time>2025-01-12T09:41:19Z</time>
      </trkpt>
      <trkpt lat="48.21219" lon="6.71338">
        <ele>472.7</ele>
        <time>2025-01-12T09:41:27Z</time>
      </trkpt>
      <trkpt lat="48.21217" lon="6.71353">
        <ele>472.6</ele>
        <time>2025-01-12T09:41:36Z</time>
      </trkpt>
      <trkpt lat="48.21212" lon="6.71365">
        <ele>472.5</ele>
        <time>2025-01-12T09:41:45Z</time>
      </trkpt>
      <trkpt lat="48.21207" lon="6.71377">
        <ele>472.4</ele>
        <time>2025-01-12T09:41:54Z</time>
      </trkpt>
      <trkpt lat="48.21205" lon="6.7139">
        <ele>472.3</ele>
        <time>2025-01-12T09:42:03Z</time>
      </trkpt>
      <trkpt lat="48.21203" lon="6.71394">
        <ele>472.3</ele>
        <time>2025-01-12T09:42:13Z</time>
      </trkpt>
      <trkpt lat="48.21203" lon="6.71394">
        <ele>472.3</ele>
        <time>2025-01-12T09:42:14Z</time>
      </trkpt>
      <trkpt lat="48.21203" lon="6.71394">
        <ele>472.3</ele>
        <time>2025-01-12T09:42:15Z</time>
      </trkpt>
      <trkpt lat="48.21204" lon="6.71396">
        <ele>472.3</ele>
        <time>2025-01-12T09:42:34Z</time>
      </trkpt>
      <trkpt lat="48.21203" lon="6.71397">
        <ele>472.3</ele>
        <time>2025-01-12T09:42:35Z</time>
      </trkpt>
      <trkpt lat="48.21203" lon="6.71409">
        <ele>472.3</ele>
        <time>2025-01-12T09:42:49Z</time>
      </trkpt>
      <trkpt lat="48.21203" lon="6.71409">
        <ele>472.3</ele>
        <time>2025-01-12T09:42:50Z</time>
      </trkpt>
      <trkpt lat="48.21203" lon="6.71409">
        <ele>472.3</ele>
        <time>2025-01-12T09:42:51Z</time>
      </trkpt>
      <trkpt lat="48.21202" lon="6.71411">
        <ele>472.3</ele>
        <time>2025-01-12T09:42:54Z</time>
      </trkpt>
      <trkpt lat="48.21202" lon="6.71411">
        <ele>472.3</ele>
        <time>2025-01-12T09:42:55Z</time>
      </trkpt>
      <trkpt lat="48.21202" lon="6.71411">
        <ele>472.3</ele>
        <time>2025-01-12T09:42:56Z</time>
      </trkpt>
      <trkpt lat="48.21202" lon="6.71411">
        <ele>472.3</ele>
        <time>2025-01-12T09:42:57Z</time>
      </trkpt>
      <trkpt lat="48.21202" lon="6.71411">
        <ele>472.3</ele>
        <time>2025-01-12T09:42:58Z</time>
      </trkpt>
      <trkpt lat="48.21203" lon="6.71412">
        <ele>472.3</ele>
        <time>2025-01-12T09:43:02Z</time>
      </trkpt>
      <trkpt lat="48.21203" lon="6.71413">
        <ele>472.3</ele>
        <time>2025-01-12T09:43:03Z</time>
      </trkpt>
      <trkpt lat="48.21205" lon="6.71399">
        <ele>472.3</ele>
        <time>2025-01-12T09:43:13Z</time>
      </trkpt>
      <trkpt lat="48.21207" lon="6.71385">
        <ele>472.3</ele>
        <time>2025-01-12T09:43:22Z</time>
      </trkpt>
      <trkpt lat="48.21211" lon="6.71372">
        <ele>472.4</ele>
        <time>2025-01-12T09:43:30Z</time>
      </trkpt>
      <trkpt lat="48.21216" lon="6.71361">
        <ele>472.5</ele>
        <time>2025-01-12T09:43:38Z</time>
      </trkpt>
      <trkpt lat="48.21219" lon="6.71347">
        <ele>472.7</ele>
        <time>2025-01-12T09:43:46Z</time>
      </trkpt>
      <trkpt lat="48.2122" lon="6.71333">
        <ele>472.8</ele>
        <time>2025-01-12T09:43:54Z</time>
      </trkpt>
      <trkpt lat="48.21223" lon="6.7132">
        <ele>472.9</ele>
        <time>2025-01-12T09:44:02Z</time>
      </trkpt>
      <trkpt lat="48.21228" lon="6.71308">
        <ele>473</ele>
        <time>2025-01-12T09:44:10Z</time>
      </trkpt>
      <trkpt lat="48.21228" lon="6.71293">
        <ele>473.2</ele>
        <time>2025-01-12T09:44:19Z</time>
      </trkpt>
      <trkpt lat="48.21232" lon="6.71281">
        <ele>473.4</ele>
        <time>2025-01-12T09:44:27Z</time>
      </trkpt>
      <trkpt lat="48.21234" lon="6.71276">
        <ele>473.5</ele>
        <time>2025-01-12T09:44:36Z</time>
      </trkpt>
      <trkpt lat="48.21235" lon="6.71275">
        <ele>473.6</ele>
        <time>2025-01-12T09:44:37Z</time>
      </trkpt>
      <trkpt lat="48.21236" lon="6.71273">
        <ele>473.6</ele>
        <time>2025-01-12T09:44:38Z</time>
      </trkpt>
      <trkpt lat="48.21236" lon="6.71272">
        <ele>473.6</ele>
        <time>2025-01-12T09:44:39Z</time>
      </trkpt>
      <trkpt lat="48.21237" lon="6.7127">
        <ele>473.7</ele>
        <time>2025-01-12T09:44:40Z</time>
      </trkpt>
      <trkpt lat="48.21237" lon="6.71269">
        <ele>473.7</ele>
        <time>2025-01-12T09:44:41Z</time>
      </trkpt>
      <trkpt lat="48.21239" lon="6.71254">
        <ele>474</ele>
        <time>2025-01-12T09:44:49Z</time>
      </trkpt>
      <trkpt lat="48.21241" lon="6.71241">
        <ele>474.4</ele>
        <time>2025-01-12T09:44:57Z</time>
      </trkpt>
      <trkpt lat="48.21243" lon="6.71227">
        <ele>474.7</ele>
        <time>2025-01-12T09:45:05Z</time>
      </trkpt>
      <trkpt lat="48.21245" lon="6.71213">
        <ele>475.2</ele>
        <time>2025-01-12T09:45:13Z</time>
      </trkpt>
      <trkpt lat="48.2125" lon="6.712">
        <ele>475.8</ele>
        <time>2025-01-12T09:45:21Z</time>
      </trkpt>
      <trkpt lat="48.21252" lon="6.71185">
        <ele>476.3</ele>
        <time>2025-01-12T09:45:29Z</time>
      </trkpt>
      <trkpt lat="48.21253" lon="6.71171">
        <ele>476.9</ele>
        <time>2025-01-12T09:45:37Z</time>
      </trkpt>
      <trkpt lat="48.21255" lon="6.71157">
        <ele>477.5</ele>
        <time>2025-01-12T09:45:45Z</time>
      </trkpt>
      <trkpt lat="48.21257" lon="6.71142">
        <ele>478.2</ele>
        <time>2025-01-12T09:45:54Z</time>
      </trkpt>
      <trkpt lat="48.21258" lon="6.71128">
        <ele>478.9</ele>
        <time>2025-01-12T09:46:02Z</time>
      </trkpt>
      <trkpt lat="48.21261" lon="6.71115">
        <ele>479.6</ele>
        <time>2025-01-12T09:46:10Z</time>
      </trkpt>
      <trkpt lat="48.2126" lon="6.711">
        <ele>480.3</ele>
        <time>2025-01-12T09:46:19Z</time>
      </trkpt>
      <trkpt lat="48.21258" lon="6.71086">
        <ele>481.1</ele>
        <time>2025-01-12T09:46:28Z</time>
      </trkpt>
      <trkpt lat="48.21252" lon="6.71074">
        <ele>482.6</ele>
        <time>2025-01-12T09:46:37Z</time>
      </trkpt>
      <trkpt lat="48.21247" lon="6.71063">
        <ele>484.1</ele>
        <time>2025-01-12T09:46:45Z</time>
      </trkpt>
      <trkpt lat="48.2124" lon="6.71052">
        <ele>485.5</ele>
        <time>2025-01-12T09:46:54Z</time>
      </trkpt>
      <trkpt lat="48.21234" lon="6.71041">
        <ele>486.9</ele>
        <time>2025-01-12T09:47:03Z</time>
      </trkpt>
      <trkpt lat="48.21231" lon="6.71028">
        <ele>488.1</ele>
        <time>2025-01-12T09:47:13Z</time>
      </trkpt>
      <trkpt lat="48.21227" lon="6.71022">
        <ele>488.8</ele>
        <time>2025-01-12T09:47:24Z</time>
      </trkpt>
      <trkpt lat="48.21227" lon="6.71023">
        <ele>488.8</ele>
        <time>2025-01-12T09:47:25Z</time>
      </trkpt>
      <trkpt lat="48.21227" lon="6.71023">
        <ele>488.8</ele>
        <time>2025-01-12T09:47:38Z</time>
      </trkpt>
      <trkpt lat="48.21227" lon="6.71023">
        <ele>488.8</ele>
        <time>2025-01-12T09:47:39Z</time>
      </trkpt>
      <trkpt lat="48.21227" lon="6.71022">
        <ele>488.9</ele>
        <time>2025-01-12T09:47:40Z</time>
      </trkpt>
      <trkpt lat="48.21221" lon="6.7101">
        <ele>490</ele>
        <time>2025-01-12T09:47:49Z</time>
      </trkpt>
      <trkpt lat="48.21217" lon="6.70997">
        <ele>491.1</ele>
        <time>2025-01-12T09:47:58Z</time>
      </trkpt>
      <trkpt lat="48.21213" lon="6.70985">
        <ele>492.1</ele>
        <time>2025-01-12T09:48:08Z</time>
      </trkpt>
      <trkpt lat="48.21209" lon="6.7097">
        <ele>492.9</ele>
        <time>2025-01-12T09:48:16Z</time>
      </trkpt>
      <trkpt lat="48.21208" lon="6.70956">
        <ele>493.6</ele>
        <time>2025-01-12T09:48:24Z</time>
      </trkpt>
      <trkpt lat="48.21203" lon="6.70943">
        <ele>494.1</ele>
        <time>2025-01-12T09:48:32Z</time>
      </trkpt>
      <trkpt lat="48.21198" lon="6.7093">
        <ele>494.5</ele>
        <time>2025-01-12T09:48:40Z</time>
      </trkpt>
      <trkpt lat="48.21198" lon="6.70916">
        <ele>495.1</ele>
        <time>2025-01-12T09:48:50Z</time>
      </trkpt>
      <trkpt lat="48.21198" lon="6.70901">
        <ele>496.1</ele>
        <time>2025-01-12T09:48:59Z</time>
      </trkpt>
      <trkpt lat="48.21197" lon="6.70886">
        <ele>497.1</ele>
        <time>2025-01-12T09:49:07Z</time>
      </trkpt>
      <trkpt lat="48.21197" lon="6.70872">
        <ele>498.1</ele>
        <time>2025-01-12T09:49:15Z</time>
      </trkpt>
      <trkpt lat="48.21198" lon="6.70857">
        <ele>499.3</ele>
        <time>2025-01-12T09:49:26Z</time>
      </trkpt>
      <trkpt lat="48.21198" lon="6.70842">
        <ele>500.7</ele>
        <time>2025-01-12T09:49:35Z</time>
      </trkpt>
      <trkpt lat="48.21199" lon="6.70829">
        <ele>502</ele>
        <time>2025-01-12T09:49:44Z</time>
      </trkpt>
      <trkpt lat="48.21199" lon="6.70815">
        <ele>503.3</ele>
        <time>2025-01-12T09:49:52Z</time>
      </trkpt>
      <trkpt lat="48.21201" lon="6.70802">
        <ele>504.7</ele>
        <time>2025-01-12T09:50:01Z</time>
      </trkpt>
      <trkpt lat="48.21201" lon="6.70788">
        <ele>506.3</ele>
        <time>2025-01-12T09:50:15Z</time>
      </trkpt>
      <trkpt lat="48.21203" lon="6.70774">
        <ele>507.9</ele>
        <time>2025-01-12T09:50:24Z</time>
      </trkpt>
      <trkpt lat="48.21205" lon="6.70761">
        <ele>509.6</ele>
        <time>2025-01-12T09:50:35Z</time>
      </trkpt>
      <trkpt lat="48.21208" lon="6.70747">
        <ele>511.2</ele>
        <time>2025-01-12T09:50:46Z</time>
      </trkpt>
      <trkpt lat="48.21211" lon="6.70734">
        <ele>512.9</ele>
        <time>2025-01-12T09:50:57Z</time>
      </trkpt>
      <trkpt lat="48.2121" lon="6.70721">
        <ele>514.4</ele>
        <time>2025-01-12T09:51:13Z</time>
      </trkpt>
      <trkpt lat="48.2121" lon="6.70721">
        <ele>514.5</ele>
        <time>2025-01-12T09:51:14Z</time>
      </trkpt>
      <trkpt lat="48.2121" lon="6.70721">
        <ele>514.5</ele>
        <time>2025-01-12T09:51:15Z</time>
      </trkpt>
      <trkpt lat="48.2121" lon="6.7072">
        <ele>514.7</ele>
        <time>2025-01-12T09:51:26Z</time>
      </trkpt>
      <trkpt lat="48.2121" lon="6.70719">
        <ele>514.8</ele>
        <time>2025-01-12T09:51:27Z</time>
      </trkpt>
      <trkpt lat="48.21214" lon="6.70706">
        <ele>516.4</ele>
        <time>2025-01-12T09:51:37Z</time>
      </trkpt>
      <trkpt lat="48.21213" lon="6.70692">
        <ele>518</ele>
        <time>2025-01-12T09:51:48Z</time>
      </trkpt>
      <trkpt lat="48.21218" lon="6.70679">
        <ele>519.6</ele>
        <time>2025-01-12T09:52:01Z</time>
      </trkpt>
      <trkpt lat="48.21221" lon="6.70666">
        <ele>521.2</ele>
        <time>2025-01-12T09:52:10Z</time>
      </trkpt>
      <trkpt lat="48.21224" lon="6.70653">
        <ele>522.7</ele>
        <time>2025-01-12T09:52:19Z</time>
      </trkpt>
      <trkpt lat="48.21228" lon="6.7064">
        <ele>524.5</ele>
        <time>2025-01-12T09:52:32Z</time>
      </trkpt>
      <trkpt lat="48.21231" lon="6.70626">
        <ele>526.3</ele>
        <time>2025-01-12T09:52:43Z</time>
      </trkpt>
      <trkpt lat="48.21236" lon="6.70615">
        <ele>528</ele>
        <time>2025-01-12T09:52:55Z</time>
      </trkpt>
      <trkpt lat="48.21236" lon="6.70629">
        <ele>529.5</ele>
        <time>2025-01-12T09:53:16Z</time>
      </trkpt>
      <trkpt lat="48.21236" lon="6.70644">
        <ele>530.5</ele>
        <time>2025-01-12T09:53:26Z</time>
      </trkpt>
      <trkpt lat="48.21237" lon="6.70657">
        <ele>531.4</ele>
        <time>2025-01-12T09:53:34Z</time>
      </trkpt>
      <trkpt lat="48.21238" lon="6.70672">
        <ele>532.5</ele>
        <time>2025-01-12T09:53:44Z</time>
      </trkpt>
      <trkpt lat="48.21239" lon="6.70685">
        <ele>533.5</ele>
        <time>2025-01-12T09:53:52Z</time>
      </trkpt>
      <trkpt lat="48.21238" lon="6.70699">
        <ele>534.5</ele>
        <time>2025-01-12T09:54:01Z</time>
      </trkpt>
      <trkpt lat="48.21239" lon="6.70713">
        <ele>535.3</ele>
        <time>2025-01-12T09:54:09Z</time>
      </trkpt>
      <trkpt lat="48.21242" lon="6.70727">
        <ele>536.2</ele>
        <time>2025-01-12T09:54:17Z</time>
      </trkpt>
      <trkpt lat="48.21245" lon="6.70741">
        <ele>537.1</ele>
        <time>2025-01-12T09:54:25Z</time>
      </trkpt>
      <trkpt lat="48.2125" lon="6.70753">
        <ele>538.2</ele>
        <time>2025-01-12T09:54:34Z</time>
      </trkpt>
      <trkpt lat="48.21254" lon="6.70766">
        <ele>539.5</ele>
        <time>2025-01-12T09:54:44Z</time>
      </trkpt>
      <trkpt lat="48.21259" lon="6.7078">
        <ele>540.8</ele>
        <time>2025-01-12T09:54:53Z</time>
      </trkpt>
      <trkpt lat="48.21262" lon="6.70793">
        <ele>542.3</ele>
        <time>2025-01-12T09:55:03Z</time>
      </trkpt>
      <trkpt lat="48.21263" lon="6.70807">
        <ele>543.1</ele>
        <time>2025-01-12T09:55:11Z</time>
      </trkpt>
      <trkpt lat="48.21264" lon="6.70821">
        <ele>544</ele>
        <time>2025-01-12T09:55:20Z</time>
      </trkpt>
      <trkpt lat="48.21268" lon="6.70834">
        <ele>544.8</ele>
        <time>2025-01-12T09:55:29Z</time>
      </trkpt>
      <trkpt lat="48.2127" lon="6.70848">
        <ele>545.5</ele>
        <time>2025-01-12T09:55:38Z</time>
      </trkpt>
      <trkpt lat="48.21274" lon="6.70861">
        <ele>546.2</ele>
        <time>2025-01-12T09:55:46Z</time>
      </trkpt>
      <trkpt lat="48.21275" lon="6.70875">
        <ele>546.9</ele>
        <time>2025-01-12T09:55:55Z</time>
      </trkpt>
      <trkpt lat="48.2128" lon="6.70889">
        <ele>547.6</ele>
        <time>2025-01-12T09:56:04Z</time>
      </trkpt>
      <trkpt lat="48.21287" lon="6.70897">
        <ele>548.1</ele>
        <time>2025-01-12T09:56:18Z</time>
      </trkpt>
      <trkpt lat="48.21286" lon="6.70899">
        <ele>548.2</ele>
        <time>2025-01-12T09:56:23Z</time>
      </trkpt>
      <trkpt lat="48.21286" lon="6.70898">
        <ele>548.2</ele>
        <time>2025-01-12T09:56:24Z</time>
      </trkpt>
      <trkpt lat="48.21287" lon="6.70898">
        <ele>548.2</ele>
        <time>2025-01-12T09:56:25Z</time>
      </trkpt>
      <trkpt lat="48.21286" lon="6.70901">
        <ele>548.3</ele>
        <time>2025-01-12T09:58:07Z</time>
      </trkpt>
      <trkpt lat="48.21286" lon="6.70901">
        <ele>548.3</ele>
        <time>2025-01-12T09:58:08Z</time>
      </trkpt>
      <trkpt lat="48.21286" lon="6.70901">
        <ele>548.3</ele>
        <time>2025-01-12T09:58:09Z</time>
      </trkpt>
      <trkpt lat="48.21286" lon="6.70901">
        <ele>548.3</ele>
        <time>2025-01-12T09:58:10Z</time>
      </trkpt>
      <trkpt lat="48.21286" lon="6.70901">
        <ele>548.3</ele>
        <time>2025-01-12T10:00:24Z</time>
      </trkpt>
      <trkpt lat="48.21286" lon="6.70901">
        <ele>548.3</ele>
        <time>2025-01-12T10:00:25Z</time>
      </trkpt>
      <trkpt lat="48.21286" lon="6.70901">
        <ele>548.3</ele>
        <time>2025-01-12T10:00:26Z</time>
      </trkpt>
      <trkpt lat="48.21294" lon="6.70894">
        <ele>548.6</ele>
        <time>2025-01-12T10:00:37Z</time>
      </trkpt>
      <trkpt lat="48.21294" lon="6.70879">
        <ele>548.7</ele>
        <time>2025-01-12T10:00:44Z</time>
      </trkpt>
      <trkpt lat="48.21294" lon="6.70865">
        <ele>548.8</ele>
        <time>2025-01-12T10:00:51Z</time>
      </trkpt>
      <trkpt lat="48.21295" lon="6.7085">
        <ele>548.9</ele>
        <time>2025-01-12T10:00:59Z</time>
      </trkpt>
      <trkpt lat="48.21296" lon="6.70835">
        <ele>549.3</ele>
        <time>2025-01-12T10:01:07Z</time>
      </trkpt>
      <trkpt lat="48.21295" lon="6.70821">
        <ele>549.8</ele>
        <time>2025-01-12T10:01:15Z</time>
      </trkpt>
      <trkpt lat="48.21297" lon="6.70806">
        <ele>550.3</ele>
        <time>2025-01-12T10:01:24Z</time>
      </trkpt>
      <trkpt lat="48.21294" lon="6.70792">
        <ele>550.9</ele>
        <time>2025-01-12T10:01:33Z</time>
      </trkpt>
      <trkpt lat="48.21294" lon="6.70778">
        <ele>551.2</ele>
        <time>2025-01-12T10:01:41Z</time>
      </trkpt>
      <trkpt lat="48.2129" lon="6.70765">
        <ele>551.3</ele>
        <time>2025-01-12T10:01:48Z</time>
      </trkpt>
      <trkpt lat="48.21285" lon="6.70753">
        <ele>551.4</ele>
        <time>2025-01-12T10:01:55Z</time>
      </trkpt>
      <trkpt lat="48.21278" lon="6.70742">
        <ele>551.3</ele>
        <time>2025-01-12T10:02:03Z</time>
      </trkpt>
      <trkpt lat="48.21272" lon="6.7073">
        <ele>551.2</ele>
        <time>2025-01-12T10:02:10Z</time>
      </trkpt>
      <trkpt lat="48.21269" lon="6.70717">
        <ele>551</ele>
        <time>2025-01-12T10:02:17Z</time>
      </trkpt>
      <trkpt lat="48.21268" lon="6.70702">
        <ele>550.8</ele>
        <time>2025-01-12T10:02:25Z</time>
      </trkpt>
      <trkpt lat="48.21268" lon="6.70688">
        <ele>550.5</ele>
        <time>2025-01-12T10:02:33Z</time>
      </trkpt>
      <trkpt lat="48.21268" lon="6.70673">
        <ele>550.2</ele>
        <time>2025-01-12T10:02:42Z</time>
      </trkpt>
      <trkpt lat="48.21269" lon="6.70659">
        <ele>550</ele>
        <time>2025-01-12T10:02:50Z</time>
      </trkpt>
      <trkpt lat="48.21273" lon="6.70645">
        <ele>549.7</ele>
        <time>2025-01-12T10:02:57Z</time>
      </trkpt>
      <trkpt lat="48.21275" lon="6.70631">
        <ele>549.4</ele>
        <time>2025-01-12T10:03:04Z</time>
      </trkpt>
      <trkpt lat="48.21279" lon="6.70618">
        <ele>549</ele>
        <time>2025-01-12T10:03:11Z</time>
      </trkpt>
      <trkpt lat="48.21283" lon="6.70606">
        <ele>548.6</ele>
        <time>2025-01-12T10:03:20Z</time>
      </trkpt>
      <trkpt lat="48.21288" lon="6.70593">
        <ele>547.9</ele>
        <time>2025-01-12T10:03:27Z</time>
      </trkpt>
      <trkpt lat="48.21293" lon="6.70582">
        <ele>547.3</ele>
        <time>2025-01-12T10:03:34Z</time>
      </trkpt>
      <trkpt lat="48.21299" lon="6.70571">
        <ele>546.8</ele>
        <time>2025-01-12T10:03:41Z</time>
      </trkpt>
      <trkpt lat="48.21304" lon="6.70559">
        <ele>546.1</ele>
        <time>2025-01-12T10:03:48Z</time>
      </trkpt>
      <trkpt lat="48.21309" lon="6.70547">
        <ele>545.4</ele>
        <time>2025-01-12T10:03:58Z</time>
      </trkpt>
      <trkpt lat="48.21315" lon="6.70537">
        <ele>544.7</ele>
        <time>2025-01-12T10:04:07Z</time>
      </trkpt>
      <trkpt lat="48.21322" lon="6.70528">
        <ele>544</ele>
        <time>2025-01-12T10:04:14Z</time>
      </trkpt>
      <trkpt lat="48.21324" lon="6.70513">
        <ele>543.4</ele>
        <time>2025-01-12T10:04:20Z</time>
      </trkpt>
      <trkpt lat="48.21323" lon="6.70498">
        <ele>543</ele>
        <time>2025-01-12T10:04:27Z</time>
      </trkpt>
      <trkpt lat="48.21317" lon="6.70486">
        <ele>542.8</ele>
        <time>2025-01-12T10:04:35Z</time>
      </trkpt>
      <trkpt lat="48.21309" lon="6.70476">
        <ele>542.7</ele>
        <time>2025-01-12T10:04:43Z</time>
      </trkpt>
      <trkpt lat="48.21301" lon="6.70468">
        <ele>542.6</ele>
        <time>2025-01-12T10:04:56Z</time>
      </trkpt>
      <trkpt lat="48.21297" lon="6.70455">
        <ele>542.6</ele>
        <time>2025-01-12T10:05:04Z</time>
      </trkpt>
      <trkpt lat="48.21293" lon="6.70443">
        <ele>542.6</ele>
        <time>2025-01-12T10:05:11Z</time>
      </trkpt>
      <trkpt lat="48.21289" lon="6.7043">
        <ele>542.6</ele>
        <time>2025-01-12T10:05:20Z</time>
      </trkpt>
      <trkpt lat="48.21284" lon="6.70418">
        <ele>542.5</ele>
        <time>2025-01-12T10:05:28Z</time>
      </trkpt>
      <trkpt lat="48.2128" lon="6.70405">
        <ele>542.5</ele>
        <time>2025-01-12T10:05:37Z</time>
      </trkpt>
      <trkpt lat="48.21273" lon="6.70393">
        <ele>542.4</ele>
        <time>2025-01-12T10:05:45Z</time>
      </trkpt>
      <trkpt lat="48.21266" lon="6.70384">
        <ele>542.3</ele>
        <time>2025-01-12T10:05:52Z</time>
      </trkpt>
      <trkpt lat="48.21258" lon="6.70374">
        <ele>542.3</ele>
        <time>2025-01-12T10:06:00Z</time>
      </trkpt>
      <trkpt lat="48.21251" lon="6.70364">
        <ele>542.3</ele>
        <time>2025-01-12T10:06:08Z</time>
      </trkpt>
      <trkpt lat="48.21245" lon="6.70352">
        <ele>542.3</ele>
        <time>2025-01-12T10:06:16Z</time>
      </trkpt>
      <trkpt lat="48.21237" lon="6.70341">
        <ele>542.3</ele>
        <time>2025-01-12T10:06:24Z</time>
      </trkpt>
      <trkpt lat="48.21236" lon="6.70333">
        <ele>542.4</ele>
        <time>2025-01-12T10:06:33Z</time>
      </trkpt>
      <trkpt lat="48.21236" lon="6.70333">
        <ele>542.4</ele>
        <time>2025-01-12T10:06:34Z</time>
      </trkpt>
      <trkpt lat="48.21236" lon="6.70333">
        <ele>542.4</ele>
        <time>2025-01-12T10:06:35Z</time>
      </trkpt>
      <trkpt lat="48.21235" lon="6.70332">
        <ele>542.4</ele>
        <time>2025-01-12T10:06:41Z</time>
      </trkpt>
      <trkpt lat="48.21234" lon="6.70332">
        <ele>542.4</ele>
        <time>2025-01-12T10:06:42Z</time>
      </trkpt>
      <trkpt lat="48.21234" lon="6.70331">
        <ele>542.4</ele>
        <time>2025-01-12T10:06:43Z</time>
      </trkpt>
      <trkpt lat="48.21234" lon="6.70332">
        <ele>542.4</ele>
        <time>2025-01-12T10:06:44Z</time>
      </trkpt>
      <trkpt lat="48.21234" lon="6.70332">
        <ele>542.4</ele>
        <time>2025-01-12T10:06:45Z</time>
      </trkpt>
      <trkpt lat="48.21233" lon="6.70329">
        <ele>542.4</ele>
        <time>2025-01-12T10:07:16Z</time>
      </trkpt>
      <trkpt lat="48.21233" lon="6.70329">
        <ele>542.4</ele>
        <time>2025-01-12T10:07:17Z</time>
      </trkpt>
      <trkpt lat="48.21233" lon="6.70328">
        <ele>542.4</ele>
        <time>2025-01-12T10:07:18Z</time>
      </trkpt>
      <trkpt lat="48.21233" lon="6.70328">
        <ele>542.4</ele>
        <time>2025-01-12T10:07:19Z</time>
      </trkpt>
      <trkpt lat="48.21233" lon="6.70328">
        <ele>542.4</ele>
        <time>2025-01-12T10:07:20Z</time>
      </trkpt>
      <trkpt lat="48.21233" lon="6.70328">
        <ele>542.4</ele>
        <time>2025-01-12T10:07:29Z</time>
      </trkpt>
      <trkpt lat="48.21232" lon="6.70328">
        <ele>542.4</ele>
        <time>2025-01-12T10:07:30Z</time>
      </trkpt>
      <trkpt lat="48.21225" lon="6.70319">
        <ele>542.5</ele>
        <time>2025-01-12T10:07:38Z</time>
      </trkpt>
      <trkpt lat="48.21217" lon="6.7031">
        <ele>542.6</ele>
        <time>2025-01-12T10:07:46Z</time>
      </trkpt>
      <trkpt lat="48.21209" lon="6.70302">
        <ele>542.6</ele>
        <time>2025-01-12T10:07:54Z</time>
      </trkpt>
      <trkpt lat="48.212" lon="6.70295">
        <ele>542.7</ele>
        <time>2025-01-12T10:08:02Z</time>
      </trkpt>
      <trkpt lat="48.21194" lon="6.70284">
        <ele>542.7</ele>
        <time>2025-01-12T10:08:10Z</time>
      </trkpt>
      <trkpt lat="48.21188" lon="6.70273">
        <ele>542.7</ele>
        <time>2025-01-12T10:08:17Z</time>
      </trkpt>
      <trkpt lat="48.21182" lon="6.70262">
        <ele>542.6</ele>
        <time>2025-01-12T10:08:24Z</time>
      </trkpt>
      <trkpt lat="48.21175" lon="6.70253">
        <ele>542.5</ele>
        <time>2025-01-12T10:08:32Z</time>
      </trkpt>
      <trkpt lat="48.21168" lon="6.70242">
        <ele>542.4</ele>
        <time>2025-01-12T10:08:40Z</time>
      </trkpt>
      <trkpt lat="48.21163" lon="6.70231">
        <ele>542.1</ele>
        <time>2025-01-12T10:08:47Z</time>
      </trkpt>
      <trkpt lat="48.21157" lon="6.7022">
        <ele>541.9</ele>
        <time>2025-01-12T10:08:54Z</time>
      </trkpt>
      <trkpt lat="48.21152" lon="6.70209">
        <ele>541.6</ele>
        <time>2025-01-12T10:09:01Z</time>
      </trkpt>
      <trkpt lat="48.21147" lon="6.70197">
        <ele>541.4</ele>
        <time>2025-01-12T10:09:09Z</time>
      </trkpt>
      <trkpt lat="48.21143" lon="6.70183">
        <ele>541</ele>
        <time>2025-01-12T10:09:17Z</time>
      </trkpt>
      <trkpt lat="48.2114" lon="6.70169">
        <ele>540.7</ele>
        <time>2025-01-12T10:09:24Z</time>
      </trkpt>
      <trkpt lat="48.21138" lon="6.70156">
        <ele>540.3</ele>
        <time>2025-01-12T10:09:31Z</time>
      </trkpt>
      <trkpt lat="48.21137" lon="6.70142">
        <ele>539.9</ele>
        <time>2025-01-12T10:09:40Z</time>
      </trkpt>
      <trkpt lat="48.21137" lon="6.70128">
        <ele>539.6</ele>
        <time>2025-01-12T10:09:48Z</time>
      </trkpt>
      <trkpt lat="48.2114" lon="6.70114">
        <ele>539.2</ele>
        <time>2025-01-12T10:09:57Z</time>
      </trkpt>
      <trkpt lat="48.21146" lon="6.701">
        <ele>538.7</ele>
        <time>2025-01-12T10:10:05Z</time>
      </trkpt>
      <trkpt lat="48.21152" lon="6.70088">
        <ele>538.2</ele>
        <time>2025-01-12T10:10:13Z</time>
      </trkpt>
      <trkpt lat="48.21157" lon="6.70077">
        <ele>537.7</ele>
        <time>2025-01-12T10:10:20Z</time>
      </trkpt>
      <trkpt lat="48.21165" lon="6.70069">
        <ele>537.3</ele>
        <time>2025-01-12T10:10:27Z</time>
      </trkpt>
      <trkpt lat="48.21174" lon="6.70064">
        <ele>536.8</ele>
        <time>2025-01-12T10:10:36Z</time>
      </trkpt>
      <trkpt lat="48.21182" lon="6.70057">
        <ele>536.3</ele>
        <time>2025-01-12T10:10:44Z</time>
      </trkpt>
      <trkpt lat="48.21191" lon="6.7005">
        <ele>535.8</ele>
        <time>2025-01-12T10:10:51Z</time>
      </trkpt>
      <trkpt lat="48.21201" lon="6.70044">
        <ele>535.2</ele>
        <time>2025-01-12T10:10:59Z</time>
      </trkpt>
      <trkpt lat="48.21209" lon="6.70038">
        <ele>534.7</ele>
        <time>2025-01-12T10:11:07Z</time>
      </trkpt>
      <trkpt lat="48.21219" lon="6.70034">
        <ele>534.1</ele>
        <time>2025-01-12T10:11:14Z</time>
      </trkpt>
      <trkpt lat="48.21228" lon="6.70031">
        <ele>533.7</ele>
        <time>2025-01-12T10:11:21Z</time>
      </trkpt>
      <trkpt lat="48.21237" lon="6.70029">
        <ele>533.3</ele>
        <time>2025-01-12T10:11:29Z</time>
      </trkpt>
      <trkpt lat="48.21246" lon="6.70028">
        <ele>532.9</ele>
        <time>2025-01-12T10:11:37Z</time>
      </trkpt>
      <trkpt lat="48.21256" lon="6.70028">
        <ele>532.4</ele>
        <time>2025-01-12T10:11:45Z</time>
      </trkpt>
      <trkpt lat="48.21265" lon="6.70024">
        <ele>532</ele>
        <time>2025-01-12T10:11:53Z</time>
      </trkpt>
      <trkpt lat="48.21274" lon="6.70021">
        <ele>531.5</ele>
        <time>2025-01-12T10:12:01Z</time>
      </trkpt>
      <trkpt lat="48.21284" lon="6.70018">
        <ele>531</ele>
        <time>2025-01-12T10:12:08Z</time>
      </trkpt>
      <trkpt lat="48.21294" lon="6.70013">
        <ele>530.6</ele>
        <time>2025-01-12T10:12:16Z</time>
      </trkpt>
      <trkpt lat="48.21302" lon="6.70007">
        <ele>530.5</ele>
        <time>2025-01-12T10:12:23Z</time>
      </trkpt>
      <trkpt lat="48.21306" lon="6.70004">
        <ele>530.4</ele>
        <time>2025-01-12T10:12:37Z</time>
      </trkpt>
      <trkpt lat="48.21306" lon="6.70004">
        <ele>530.4</ele>
        <time>2025-01-12T10:12:38Z</time>
      </trkpt>
      <trkpt lat="48.21308" lon="6.70003">
        <ele>530.3</ele>
        <time>2025-01-12T10:12:48Z</time>
      </trkpt>
      <trkpt lat="48.21309" lon="6.70003">
        <ele>530.3</ele>
        <time>2025-01-12T10:12:49Z</time>
      </trkpt>
      <trkpt lat="48.2131" lon="6.70003">
        <ele>530.3</ele>
        <time>2025-01-12T10:12:50Z</time>
      </trkpt>
      <trkpt lat="48.21311" lon="6.70003">
        <ele>530.3</ele>
        <time>2025-01-12T10:12:54Z</time>
      </trkpt>
      <trkpt lat="48.21311" lon="6.70003">
        <ele>530.3</ele>
        <time>2025-01-12T10:12:55Z</time>
      </trkpt>
      <trkpt lat="48.21312" lon="6.70004">
        <ele>530.2</ele>
        <time>2025-01-12T10:12:56Z</time>
      </trkpt>
      <trkpt lat="48.21313" lon="6.70005">
        <ele>530.2</ele>
        <time>2025-01-12T10:12:57Z</time>
      </trkpt>
      <trkpt lat="48.21316" lon="6.69995">
        <ele>530.4</ele>
        <time>2025-01-12T10:13:08Z</time>
      </trkpt>
      <trkpt lat="48.21316" lon="6.69995">
        <ele>530.4</ele>
        <time>2025-01-12T10:13:09Z</time>
      </trkpt>
      <trkpt lat="48.21316" lon="6.69995">
        <ele>530.4</ele>
        <time>2025-01-12T10:13:10Z</time>
      </trkpt>
      <trkpt lat="48.21315" lon="6.69995">
        <ele>530.4</ele>
        <time>2025-01-12T10:13:21Z</time>
      </trkpt>
      <trkpt lat="48.21315" lon="6.69995">
        <ele>530.4</ele>
        <time>2025-01-12T10:13:22Z</time>
      </trkpt>
      <trkpt lat="48.21315" lon="6.69995">
        <ele>530.4</ele>
        <time>2025-01-12T10:13:23Z</time>
      </trkpt>
      <trkpt lat="48.21315" lon="6.69995">
        <ele>530.4</ele>
        <time>2025-01-12T10:13:24Z</time>
      </trkpt>
      <trkpt lat="48.21315" lon="6.69995">
        <ele>530.5</ele>
        <time>2025-01-12T10:13:25Z</time>
      </trkpt>
      <trkpt lat="48.21315" lon="6.69995">
        <ele>530.5</ele>
        <time>2025-01-12T10:13:26Z</time>
      </trkpt>
      <trkpt lat="48.21315" lon="6.69991">
        <ele>530.5</ele>
        <time>2025-01-12T10:13:29Z</time>
      </trkpt>
      <trkpt lat="48.21315" lon="6.6999">
        <ele>530.5</ele>
        <time>2025-01-12T10:13:30Z</time>
      </trkpt>
      <trkpt lat="48.21317" lon="6.69975">
        <ele>530.8</ele>
        <time>2025-01-12T10:13:38Z</time>
      </trkpt>
      <trkpt lat="48.21317" lon="6.69961">
        <ele>531</ele>
        <time>2025-01-12T10:13:46Z</time>
      </trkpt>
      <trkpt lat="48.21316" lon="6.69946">
        <ele>531.3</ele>
        <time>2025-01-12T10:13:54Z</time>
      </trkpt>
      <trkpt lat="48.21314" lon="6.69932">
        <ele>531.5</ele>
        <time>2025-01-12T10:14:02Z</time>
      </trkpt>
      <trkpt lat="48.21313" lon="6.69917">
        <ele>531.7</ele>
        <time>2025-01-12T10:14:10Z</time>
      </trkpt>
      <trkpt lat="48.21312" lon="6.69904">
        <ele>531.8</ele>
        <time>2025-01-12T10:14:17Z</time>
      </trkpt>
      <trkpt lat="48.21313" lon="6.69889">
        <ele>532.1</ele>
        <time>2025-01-12T10:14:24Z</time>
      </trkpt>
      <trkpt lat="48.21312" lon="6.69874">
        <ele>532.3</ele>
        <time>2025-01-12T10:14:32Z</time>
      </trkpt>
      <trkpt lat="48.21313" lon="6.69859">
        <ele>532.5</ele>
        <time>2025-01-12T10:14:40Z</time>
      </trkpt>
      <trkpt lat="48.21314" lon="6.69844">
        <ele>532.7</ele>
        <time>2025-01-12T10:14:49Z</time>
      </trkpt>
      <trkpt lat="48.21317" lon="6.6983">
        <ele>532.9</ele>
        <time>2025-01-12T10:14:57Z</time>
      </trkpt>
      <trkpt lat="48.21316" lon="6.69816">
        <ele>533.1</ele>
        <time>2025-01-12T10:15:03Z</time>
      </trkpt>
      <trkpt lat="48.21313" lon="6.69801">
        <ele>533.3</ele>
        <time>2025-01-12T10:15:11Z</time>
      </trkpt>
      <trkpt lat="48.21304" lon="6.69795">
        <ele>533.5</ele>
        <time>2025-01-12T10:15:21Z</time>
      </trkpt>
      <trkpt lat="48.21298" lon="6.69784">
        <ele>533.6</ele>
        <time>2025-01-12T10:15:28Z</time>
      </trkpt>
      <trkpt lat="48.21289" lon="6.69776">
        <ele>533.8</ele>
        <time>2025-01-12T10:15:36Z</time>
      </trkpt>
      <trkpt lat="48.2128" lon="6.6977">
        <ele>534</ele>
        <time>2025-01-12T10:15:44Z</time>
      </trkpt>
      <trkpt lat="48.2127" lon="6.69768">
        <ele>534.2</ele>
        <time>2025-01-12T10:15:52Z</time>
      </trkpt>
      <trkpt lat="48.21261" lon="6.69764">
        <ele>534.4</ele>
        <time>2025-01-12T10:15:59Z</time>
      </trkpt>
      <trkpt lat="48.21252" lon="6.6976">
        <ele>534.7</ele>
        <time>2025-01-12T10:16:07Z</time>
      </trkpt>
      <trkpt lat="48.21243" lon="6.69755">
        <ele>534.9</ele>
        <time>2025-01-12T10:16:13Z</time>
      </trkpt>
      <trkpt lat="48.21233" lon="6.69752">
        <ele>535.2</ele>
        <time>2025-01-12T10:16:21Z</time>
      </trkpt>
      <trkpt lat="48.21224" lon="6.69751">
        <ele>535.5</ele>
        <time>2025-01-12T10:16:28Z</time>
      </trkpt>
      <trkpt lat="48.21215" lon="6.69745">
        <ele>535.7</ele>
        <time>2025-01-12T10:16:37Z</time>
      </trkpt>
      <trkpt lat="48.21207" lon="6.69738">
        <ele>536</ele>
        <time>2025-01-12T10:16:45Z</time>
      </trkpt>
      <trkpt lat="48.21198" lon="6.69733">
        <ele>536.2</ele>
        <time>2025-01-12T10:16:53Z</time>
      </trkpt>
      <trkpt lat="48.2119" lon="6.69725">
        <ele>536.5</ele>
        <time>2025-01-12T10:17:01Z</time>
      </trkpt>
      <trkpt lat="48.21183" lon="6.69715">
        <ele>536.7</ele>
        <time>2025-01-12T10:17:08Z</time>
      </trkpt>
      <trkpt lat="48.21174" lon="6.69708">
        <ele>536.9</ele>
        <time>2025-01-12T10:17:16Z</time>
      </trkpt>
      <trkpt lat="48.21166" lon="6.697">
        <ele>537.2</ele>
        <time>2025-01-12T10:17:24Z</time>
      </trkpt>
      <trkpt lat="48.21158" lon="6.69692">
        <ele>537.4</ele>
        <time>2025-01-12T10:17:31Z</time>
      </trkpt>
      <trkpt lat="48.21153" lon="6.6968">
        <ele>537.6</ele>
        <time>2025-01-12T10:17:38Z</time>
      </trkpt>
      <trkpt lat="48.21144" lon="6.69674">
        <ele>537.8</ele>
        <time>2025-01-12T10:17:45Z</time>
      </trkpt>
      <trkpt lat="48.21136" lon="6.69668">
        <ele>538</ele>
        <time>2025-01-12T10:17:52Z</time>
      </trkpt>
      <trkpt lat="48.21129" lon="6.69657">
        <ele>538.2</ele>
        <time>2025-01-12T10:18:00Z</time>
      </trkpt>
      <trkpt lat="48.21123" lon="6.69647">
        <ele>538.3</ele>
        <time>2025-01-12T10:18:07Z</time>
      </trkpt>
      <trkpt lat="48.21117" lon="6.69635">
        <ele>538.5</ele>
        <time>2025-01-12T10:18:15Z</time>
      </trkpt>
      <trkpt lat="48.21112" lon="6.69628">
        <ele>538.7</ele>
        <time>2025-01-12T10:18:31Z</time>
      </trkpt>
      <trkpt lat="48.21112" lon="6.69628">
        <ele>538.7</ele>
        <time>2025-01-12T10:18:32Z</time>
      </trkpt>
      <trkpt lat="48.21112" lon="6.69628">
        <ele>538.7</ele>
        <time>2025-01-12T10:18:33Z</time>
      </trkpt>
      <trkpt lat="48.21112" lon="6.69628">
        <ele>538.7</ele>
        <time>2025-01-12T10:24:02Z</time>
      </trkpt>
      <trkpt lat="48.21112" lon="6.69628">
        <ele>538.7</ele>
        <time>2025-01-12T10:24:03Z</time>
      </trkpt>
      <trkpt lat="48.2112" lon="6.69637">
        <ele>538.5</ele>
        <time>2025-01-12T10:24:14Z</time>
      </trkpt>
      <trkpt lat="48.21123" lon="6.69651">
        <ele>538.3</ele>
        <time>2025-01-12T10:24:22Z</time>
      </trkpt>
      <trkpt lat="48.21129" lon="6.69661">
        <ele>538.1</ele>
        <time>2025-01-12T10:24:30Z</time>
      </trkpt>
      <trkpt lat="48.21136" lon="6.69672">
        <ele>537.9</ele>
        <time>2025-01-12T10:24:38Z</time>
      </trkpt>
      <trkpt lat="48.21143" lon="6.6968">
        <ele>537.7</ele>
        <time>2025-01-12T10:24:46Z</time>
      </trkpt>
      <trkpt lat="48.21151" lon="6.69689">
        <ele>537.5</ele>
        <time>2025-01-12T10:24:54Z</time>
      </trkpt>
      <trkpt lat="48.21159" lon="6.69697">
        <ele>537.3</ele>
        <time>2025-01-12T10:25:02Z</time>
      </trkpt>
      <trkpt lat="48.21167" lon="6.69705">
        <ele>537.1</ele>
        <time>2025-01-12T10:25:10Z</time>
      </trkpt>
      <trkpt lat="48.21174" lon="6.69714">
        <ele>536.9</ele>
        <time>2025-01-12T10:25:18Z</time>
      </trkpt>
      <trkpt lat="48.21182" lon="6.69724">
        <ele>536.7</ele>
        <time>2025-01-12T10:25:27Z</time>
      </trkpt>
      <trkpt lat="48.2119" lon="6.69732">
        <ele>536.4</ele>
        <time>2025-01-12T10:25:36Z</time>
      </trkpt>
      <trkpt lat="48.21198" lon="6.69739">
        <ele>536.2</ele>
        <time>2025-01-12T10:25:44Z</time>
      </trkpt>
      <trkpt lat="48.21206" lon="6.69746">
        <ele>536</ele>
        <time>2025-01-12T10:25:52Z</time>
      </trkpt>
      <trkpt lat="48.21214" lon="6.69754">
        <ele>535.7</ele>
        <time>2025-01-12T10:26:00Z</time>
      </trkpt>
      <trkpt lat="48.21223" lon="6.69755">
        <ele>535.5</ele>
        <time>2025-01-12T10:26:07Z</time>
      </trkpt>
      <trkpt lat="48.21233" lon="6.69756">
        <ele>535.2</ele>
        <time>2025-01-12T10:26:14Z</time>
      </trkpt>
      <trkpt lat="48.21242" lon="6.69758">
        <ele>534.9</ele>
        <time>2025-01-12T10:26:22Z</time>
      </trkpt>
      <trkpt lat="48.21252" lon="6.69762">
        <ele>534.7</ele>
        <time>2025-01-12T10:26:32Z</time>
      </trkpt>
      <trkpt lat="48.21261" lon="6.69765">
        <ele>534.4</ele>
        <time>2025-01-12T10:26:40Z</time>
      </trkpt>
      <trkpt lat="48.2127" lon="6.69768">
        <ele>534.2</ele>
        <time>2025-01-12T10:26:47Z</time>
      </trkpt>
      <trkpt lat="48.2128" lon="6.69773">
        <ele>534</ele>
        <time>2025-01-12T10:26:56Z</time>
      </trkpt>
      <trkpt lat="48.21288" lon="6.69777">
        <ele>533.8</ele>
        <time>2025-01-12T10:27:04Z</time>
      </trkpt>
      <trkpt lat="48.21297" lon="6.69783">
        <ele>533.6</ele>
        <time>2025-01-12T10:27:12Z</time>
      </trkpt>
      <trkpt lat="48.21305" lon="6.69791">
        <ele>533.5</ele>
        <time>2025-01-12T10:27:20Z</time>
      </trkpt>
      <trkpt lat="48.21312" lon="6.69801">
        <ele>533.3</ele>
        <time>2025-01-12T10:27:27Z</time>
      </trkpt>
      <trkpt lat="48.21313" lon="6.69814">
        <ele>533.1</ele>
        <time>2025-01-12T10:27:34Z</time>
      </trkpt>
      <trkpt lat="48.21311" lon="6.69829">
        <ele>532.9</ele>
        <time>2025-01-12T10:27:42Z</time>
      </trkpt>
      <trkpt lat="48.21308" lon="6.69843">
        <ele>532.7</ele>
        <time>2025-01-12T10:27:49Z</time>
      </trkpt>
      <trkpt lat="48.21309" lon="6.69858">
        <ele>532.4</ele>
        <time>2025-01-12T10:27:57Z</time>
      </trkpt>
      <trkpt lat="48.21308" lon="6.69872">
        <ele>532.2</ele>
        <time>2025-01-12T10:28:05Z</time>
      </trkpt>
      <trkpt lat="48.21309" lon="6.69887">
        <ele>532</ele>
        <time>2025-01-12T10:28:13Z</time>
      </trkpt>
      <trkpt lat="48.2131" lon="6.69901">
        <ele>531.8</ele>
        <time>2025-01-12T10:28:21Z</time>
      </trkpt>
      <trkpt lat="48.21309" lon="6.69916">
        <ele>531.6</ele>
        <time>2025-01-12T10:28:29Z</time>
      </trkpt>
      <trkpt lat="48.2131" lon="6.69931">
        <ele>531.4</ele>
        <time>2025-01-12T10:28:37Z</time>
      </trkpt>
      <trkpt lat="48.21311" lon="6.69947">
        <ele>531.2</ele>
        <time>2025-01-12T10:28:45Z</time>
      </trkpt>
      <trkpt lat="48.21311" lon="6.6996">
        <ele>530.9</ele>
        <time>2025-01-12T10:28:52Z</time>
      </trkpt>
      <trkpt lat="48.2131" lon="6.69974">
        <ele>530.7</ele>
        <time>2025-01-12T10:28:59Z</time>
      </trkpt>
      <trkpt lat="48.21312" lon="6.69988">
        <ele>530.5</ele>
        <time>2025-01-12T10:29:07Z</time>
      </trkpt>
      <trkpt lat="48.21316" lon="6.7">
        <ele>530.4</ele>
        <time>2025-01-12T10:29:14Z</time>
      </trkpt>
      <trkpt lat="48.21326" lon="6.70003">
        <ele>531.5</ele>
        <time>2025-01-12T10:29:22Z</time>
      </trkpt>
      <trkpt lat="48.21334" lon="6.69996">
        <ele>532.8</ele>
        <time>2025-01-12T10:29:28Z</time>
      </trkpt>
      <trkpt lat="48.21343" lon="6.69991">
        <ele>534.3</ele>
        <time>2025-01-12T10:29:36Z</time>
      </trkpt>
      <trkpt lat="48.21352" lon="6.69986">
        <ele>536.3</ele>
        <time>2025-01-12T10:29:43Z</time>
      </trkpt>
      <trkpt lat="48.21361" lon="6.69981">
        <ele>537.1</ele>
        <time>2025-01-12T10:29:50Z</time>
      </trkpt>
      <trkpt lat="48.21369" lon="6.69974">
        <ele>537.9</ele>
        <time>2025-01-12T10:30:04Z</time>
      </trkpt>
      <trkpt lat="48.21378" lon="6.69969">
        <ele>538.8</ele>
        <time>2025-01-12T10:30:11Z</time>
      </trkpt>
      <trkpt lat="48.21388" lon="6.69966">
        <ele>539.7</ele>
        <time>2025-01-12T10:30:17Z</time>
      </trkpt>
      <trkpt lat="48.21398" lon="6.6996">
        <ele>540.7</ele>
        <time>2025-01-12T10:30:23Z</time>
      </trkpt>
      <trkpt lat="48.21406" lon="6.69953">
        <ele>541.7</ele>
        <time>2025-01-12T10:30:31Z</time>
      </trkpt>
      <trkpt lat="48.21415" lon="6.69948">
        <ele>542.7</ele>
        <time>2025-01-12T10:30:38Z</time>
      </trkpt>
      <trkpt lat="48.21423" lon="6.69941">
        <ele>543.6</ele>
        <time>2025-01-12T10:30:45Z</time>
      </trkpt>
      <trkpt lat="48.21432" lon="6.69933">
        <ele>544.5</ele>
        <time>2025-01-12T10:30:52Z</time>
      </trkpt>
      <trkpt lat="48.21437" lon="6.69921">
        <ele>545.6</ele>
        <time>2025-01-12T10:31:01Z</time>
      </trkpt>
      <trkpt lat="48.2144" lon="6.69907">
        <ele>546.5</ele>
        <time>2025-01-12T10:31:09Z</time>
      </trkpt>
      <trkpt lat="48.21444" lon="6.69894">
        <ele>547.5</ele>
        <time>2025-01-12T10:31:16Z</time>
      </trkpt>
      <trkpt lat="48.21445" lon="6.6988">
        <ele>548.4</ele>
        <time>2025-01-12T10:31:23Z</time>
      </trkpt>
      <trkpt lat="48.21446" lon="6.69866">
        <ele>549.4</ele>
        <time>2025-01-12T10:31:30Z</time>
      </trkpt>
      <trkpt lat="48.21449" lon="6.69853">
        <ele>550.3</ele>
        <time>2025-01-12T10:31:38Z</time>
      </trkpt>
      <trkpt lat="48.21449" lon="6.69839">
        <ele>551.2</ele>
        <time>2025-01-12T10:31:46Z</time>
      </trkpt>
      <trkpt lat="48.21447" lon="6.69824">
        <ele>552.2</ele>
        <time>2025-01-12T10:31:54Z</time>
      </trkpt>
      <trkpt lat="48.21448" lon="6.6981">
        <ele>553</ele>
        <time>2025-01-12T10:32:02Z</time>
      </trkpt>
      <trkpt lat="48.21446" lon="6.69795">
        <ele>554</ele>
        <time>2025-01-12T10:32:10Z</time>
      </trkpt>
      <trkpt lat="48.21445" lon="6.69781">
        <ele>554.7</ele>
        <time>2025-01-12T10:32:17Z</time>
      </trkpt>
      <trkpt lat="48.21446" lon="6.69767">
        <ele>555.4</ele>
        <time>2025-01-12T10:32:24Z</time>
      </trkpt>
      <trkpt lat="48.21446" lon="6.69754">
        <ele>556.1</ele>
        <time>2025-01-12T10:32:33Z</time>
      </trkpt>
      <trkpt lat="48.21449" lon="6.6974">
        <ele>556.8</ele>
        <time>2025-01-12T10:32:40Z</time>
      </trkpt>
      <trkpt lat="48.21452" lon="6.69727">
        <ele>557.4</ele>
        <time>2025-01-12T10:32:48Z</time>
      </trkpt>
      <trkpt lat="48.21457" lon="6.69715">
        <ele>558.1</ele>
        <time>2025-01-12T10:32:55Z</time>
      </trkpt>
      <trkpt lat="48.21462" lon="6.69702">
        <ele>558.8</ele>
        <time>2025-01-12T10:33:04Z</time>
      </trkpt>
      <trkpt lat="48.21467" lon="6.6969">
        <ele>559.4</ele>
        <time>2025-01-12T10:33:09Z</time>
      </trkpt>
      <trkpt lat="48.21473" lon="6.69679">
        <ele>560</ele>
        <time>2025-01-12T10:33:16Z</time>
      </trkpt>
      <trkpt lat="48.21481" lon="6.6967">
        <ele>560.4</ele>
        <time>2025-01-12T10:33:25Z</time>
      </trkpt>
      <trkpt lat="48.21488" lon="6.69661">
        <ele>560.6</ele>
        <time>2025-01-12T10:33:31Z</time>
      </trkpt>
      <trkpt lat="48.21498" lon="6.69656">
        <ele>560.6</ele>
        <time>2025-01-12T10:33:40Z</time>
      </trkpt>
      <trkpt lat="48.21507" lon="6.69655">
        <ele>560.5</ele>
        <time>2025-01-12T10:33:47Z</time>
      </trkpt>
      <trkpt lat="48.21517" lon="6.69656">
        <ele>560.4</ele>
        <time>2025-01-12T10:33:55Z</time>
      </trkpt>
      <trkpt lat="48.21526" lon="6.69656">
        <ele>560.3</ele>
        <time>2025-01-12T10:34:03Z</time>
      </trkpt>
      <trkpt lat="48.21536" lon="6.69655">
        <ele>560.2</ele>
        <time>2025-01-12T10:34:12Z</time>
      </trkpt>
      <trkpt lat="48.21542" lon="6.69643">
        <ele>560.1</ele>
        <time>2025-01-12T10:34:18Z</time>
      </trkpt>
      <trkpt lat="48.21538" lon="6.6963">
        <ele>561.5</ele>
        <time>2025-01-12T10:34:29Z</time>
      </trkpt>
      <trkpt lat="48.21543" lon="6.69616">
        <ele>562.9</ele>
        <time>2025-01-12T10:34:38Z</time>
      </trkpt>
      <trkpt lat="48.21548" lon="6.69605">
        <ele>564.1</ele>
        <time>2025-01-12T10:34:45Z</time>
      </trkpt>
      <trkpt lat="48.21549" lon="6.69591">
        <ele>565.1</ele>
        <time>2025-01-12T10:34:54Z</time>
      </trkpt>
      <trkpt lat="48.21552" lon="6.69577">
        <ele>566.8</ele>
        <time>2025-01-12T10:35:03Z</time>
      </trkpt>
      <trkpt lat="48.21551" lon="6.69563">
        <ele>568</ele>
        <time>2025-01-12T10:35:11Z</time>
      </trkpt>
      <trkpt lat="48.21549" lon="6.69549">
        <ele>568.5</ele>
        <time>2025-01-12T10:35:21Z</time>
      </trkpt>
      <trkpt lat="48.21545" lon="6.69535">
        <ele>568.7</ele>
        <time>2025-01-12T10:35:34Z</time>
      </trkpt>
      <trkpt lat="48.21543" lon="6.69534">
        <ele>568.1</ele>
        <time>2025-01-12T10:35:39Z</time>
      </trkpt>
      <trkpt lat="48.21543" lon="6.69535">
        <ele>568.1</ele>
        <time>2025-01-12T10:35:40Z</time>
      </trkpt>
      <trkpt lat="48.21544" lon="6.69535">
        <ele>568.1</ele>
        <time>2025-01-12T10:35:41Z</time>
      </trkpt>
      <trkpt lat="48.21544" lon="6.69534">
        <ele>568.8</ele>
        <time>2025-01-12T10:35:42Z</time>
      </trkpt>
      <trkpt lat="48.21545" lon="6.69533">
        <ele>568.8</ele>
        <time>2025-01-12T10:35:43Z</time>
      </trkpt>
      <trkpt lat="48.21544" lon="6.69533">
        <ele>568.8</ele>
        <time>2025-01-12T10:35:48Z</time>
      </trkpt>
      <trkpt lat="48.21544" lon="6.69533">
        <ele>568.7</ele>
        <time>2025-01-12T10:35:49Z</time>
      </trkpt>
      <trkpt lat="48.21544" lon="6.69533">
        <ele>568</ele>
        <time>2025-01-12T10:35:50Z</time>
      </trkpt>
      <trkpt lat="48.21544" lon="6.69534">
        <ele>567.9</ele>
        <time>2025-01-12T10:35:51Z</time>
      </trkpt>
      <trkpt lat="48.21544" lon="6.69534">
        <ele>567.9</ele>
        <time>2025-01-12T10:35:52Z</time>
      </trkpt>
      <trkpt lat="48.21544" lon="6.69534">
        <ele>567.9</ele>
        <time>2025-01-12T10:35:53Z</time>
      </trkpt>
      <trkpt lat="48.21544" lon="6.69534">
        <ele>567.9</ele>
        <time>2025-01-12T10:35:54Z</time>
      </trkpt>
      <trkpt lat="48.21544" lon="6.69534">
        <ele>567.8</ele>
        <time>2025-01-12T10:35:55Z</time>
      </trkpt>
      <trkpt lat="48.21542" lon="6.69535">
        <ele>567.8</ele>
        <time>2025-01-12T10:35:59Z</time>
      </trkpt>
      <trkpt lat="48.21541" lon="6.69536">
        <ele>566.9</ele>
        <time>2025-01-12T10:36:00Z</time>
      </trkpt>
      <trkpt lat="48.2154" lon="6.69536">
        <ele>566.8</ele>
        <time>2025-01-12T10:36:01Z</time>
      </trkpt>
      <trkpt lat="48.21531" lon="6.69531">
        <ele>564.9</ele>
        <time>2025-01-12T10:36:12Z</time>
      </trkpt>
      <trkpt lat="48.21522" lon="6.6953">
        <ele>562.6</ele>
        <time>2025-01-12T10:36:22Z</time>
      </trkpt>
      <trkpt lat="48.21517" lon="6.69543">
        <ele>561.2</ele>
        <time>2025-01-12T10:36:28Z</time>
      </trkpt>
      <trkpt lat="48.21509" lon="6.69552">
        <ele>559.8</ele>
        <time>2025-01-12T10:36:36Z</time>
      </trkpt>
      <trkpt lat="48.21501" lon="6.69559">
        <ele>559</ele>
        <time>2025-01-12T10:36:44Z</time>
      </trkpt>
      <trkpt lat="48.21492" lon="6.69563">
        <ele>557.5</ele>
        <time>2025-01-12T10:36:53Z</time>
      </trkpt>
      <trkpt lat="48.21483" lon="6.69571">
        <ele>556.6</ele>
        <time>2025-01-12T10:37:01Z</time>
      </trkpt>
      <trkpt lat="48.21475" lon="6.69575">
        <ele>555.5</ele>
        <time>2025-01-12T10:37:10Z</time>
      </trkpt>
      <trkpt lat="48.21471" lon="6.69589">
        <ele>555</ele>
        <time>2025-01-12T10:37:24Z</time>
      </trkpt>
      <trkpt lat="48.21478" lon="6.69598">
        <ele>555.4</ele>
        <time>2025-01-12T10:37:36Z</time>
      </trkpt>
      <trkpt lat="48.21486" lon="6.69602">
        <ele>556.1</ele>
        <time>2025-01-12T10:37:48Z</time>
      </trkpt>
      <trkpt lat="48.21487" lon="6.69601">
        <ele>556.3</ele>
        <time>2025-01-12T10:37:54Z</time>
      </trkpt>
      <trkpt lat="48.21487" lon="6.69601">
        <ele>556.2</ele>
        <time>2025-01-12T10:37:55Z</time>
      </trkpt>
      <trkpt lat="48.21488" lon="6.696">
        <ele>556.2</ele>
        <time>2025-01-12T10:37:59Z</time>
      </trkpt>
      <trkpt lat="48.21488" lon="6.69598">
        <ele>556.2</ele>
        <time>2025-01-12T10:38:00Z</time>
      </trkpt>
      <trkpt lat="48.21488" lon="6.69596">
        <ele>556.2</ele>
        <time>2025-01-12T10:38:01Z</time>
      </trkpt>
      <trkpt lat="48.21496" lon="6.69588">
        <ele>557.1</ele>
        <time>2025-01-12T10:38:11Z</time>
      </trkpt>
      <trkpt lat="48.21505" lon="6.69586">
        <ele>558.2</ele>
        <time>2025-01-12T10:38:20Z</time>
      </trkpt>
      <trkpt lat="48.21513" lon="6.69594">
        <ele>558.6</ele>
        <time>2025-01-12T10:38:30Z</time>
      </trkpt>
      <trkpt lat="48.21521" lon="6.69585">
        <ele>559.8</ele>
        <time>2025-01-12T10:38:41Z</time>
      </trkpt>
      <trkpt lat="48.21527" lon="6.69575">
        <ele>561.8</ele>
        <time>2025-01-12T10:38:48Z</time>
      </trkpt>
      <trkpt lat="48.21534" lon="6.69566">
        <ele>563.4</ele>
        <time>2025-01-12T10:39:02Z</time>
      </trkpt>
      <trkpt lat="48.21539" lon="6.6956">
        <ele>565</ele>
        <time>2025-01-12T10:39:12Z</time>
      </trkpt>
      <trkpt lat="48.21539" lon="6.6956">
        <ele>565</ele>
        <time>2025-01-12T10:39:13Z</time>
      </trkpt>
      <trkpt lat="48.21541" lon="6.69558">
        <ele>565</ele>
        <time>2025-01-12T10:39:29Z</time>
      </trkpt>
      <trkpt lat="48.21541" lon="6.69557">
        <ele>565.5</ele>
        <time>2025-01-12T10:39:30Z</time>
      </trkpt>
      <trkpt lat="48.21546" lon="6.69551">
        <ele>566.8</ele>
        <time>2025-01-12T10:39:37Z</time>
      </trkpt>
      <trkpt lat="48.21547" lon="6.6955">
        <ele>567.4</ele>
        <time>2025-01-12T10:39:38Z</time>
      </trkpt>
      <trkpt lat="48.21546" lon="6.69548">
        <ele>567</ele>
        <time>2025-01-12T10:40:21Z</time>
      </trkpt>
      <trkpt lat="48.21546" lon="6.69548">
        <ele>567</ele>
        <time>2025-01-12T10:40:22Z</time>
      </trkpt>
      <trkpt lat="48.21546" lon="6.69547">
        <ele>567</ele>
        <time>2025-01-12T10:40:26Z</time>
      </trkpt>
      <trkpt lat="48.21546" lon="6.69547">
        <ele>567</ele>
        <time>2025-01-12T10:40:27Z</time>
      </trkpt>
      <trkpt lat="48.21546" lon="6.69547">
        <ele>566.9</ele>
        <time>2025-01-12T10:40:33Z</time>
      </trkpt>
      <trkpt lat="48.21547" lon="6.69548">
        <ele>566.9</ele>
        <time>2025-01-12T10:40:34Z</time>
      </trkpt>
      <trkpt lat="48.21546" lon="6.69548">
        <ele>566.9</ele>
        <time>2025-01-12T10:40:35Z</time>
      </trkpt>
      <trkpt lat="48.21546" lon="6.69548">
        <ele>566.9</ele>
        <time>2025-01-12T10:40:36Z</time>
      </trkpt>
      <trkpt lat="48.21546" lon="6.69548">
        <ele>566.8</ele>
        <time>2025-01-12T10:40:37Z</time>
      </trkpt>
      <trkpt lat="48.21546" lon="6.6955">
        <ele>566.5</ele>
        <time>2025-01-12T10:41:19Z</time>
      </trkpt>
      <trkpt lat="48.21546" lon="6.69551">
        <ele>566.5</ele>
        <time>2025-01-12T10:41:20Z</time>
      </trkpt>
      <trkpt lat="48.21546" lon="6.69552">
        <ele>566.4</ele>
        <time>2025-01-12T10:41:21Z</time>
      </trkpt>
      <trkpt lat="48.21547" lon="6.6956">
        <ele>566.4</ele>
        <time>2025-01-12T10:41:33Z</time>
      </trkpt>
      <trkpt lat="48.21548" lon="6.6956">
        <ele>566.3</ele>
        <time>2025-01-12T10:41:34Z</time>
      </trkpt>
      <trkpt lat="48.21547" lon="6.69561">
        <ele>566.3</ele>
        <time>2025-01-12T10:41:35Z</time>
      </trkpt>
      <trkpt lat="48.21547" lon="6.69562">
        <ele>565.9</ele>
        <time>2025-01-12T10:41:39Z</time>
      </trkpt>
      <trkpt lat="48.21547" lon="6.69564">
        <ele>565.9</ele>
        <time>2025-01-12T10:41:40Z</time>
      </trkpt>
      <trkpt lat="48.21547" lon="6.69565">
        <ele>565.9</ele>
        <time>2025-01-12T10:41:41Z</time>
      </trkpt>
      <trkpt lat="48.21547" lon="6.69571">
        <ele>565.1</ele>
        <time>2025-01-12T10:41:48Z</time>
      </trkpt>
      <trkpt lat="48.21547" lon="6.69571">
        <ele>565.1</ele>
        <time>2025-01-12T10:41:49Z</time>
      </trkpt>
      <trkpt lat="48.21547" lon="6.69571">
        <ele>565</ele>
        <time>2025-01-12T10:41:50Z</time>
      </trkpt>
      <trkpt lat="48.21547" lon="6.69575">
        <ele>564.1</ele>
        <time>2025-01-12T10:41:54Z</time>
      </trkpt>
      <trkpt lat="48.21546" lon="6.69576">
        <ele>564.1</ele>
        <time>2025-01-12T10:41:55Z</time>
      </trkpt>
      <trkpt lat="48.21546" lon="6.69578">
        <ele>564</ele>
        <time>2025-01-12T10:41:56Z</time>
      </trkpt>
      <trkpt lat="48.21544" lon="6.69591">
        <ele>562.1</ele>
        <time>2025-01-12T10:42:11Z</time>
      </trkpt>
      <trkpt lat="48.21543" lon="6.69592">
        <ele>562.1</ele>
        <time>2025-01-12T10:42:14Z</time>
      </trkpt>
      <trkpt lat="48.21543" lon="6.69592">
        <ele>562.1</ele>
        <time>2025-01-12T10:42:15Z</time>
      </trkpt>
      <trkpt lat="48.21543" lon="6.69592">
        <ele>562</ele>
        <time>2025-01-12T10:42:16Z</time>
      </trkpt>
      <trkpt lat="48.21542" lon="6.69595">
        <ele>562</ele>
        <time>2025-01-12T10:44:04Z</time>
      </trkpt>
      <trkpt lat="48.2154" lon="6.69608">
        <ele>561</ele>
        <time>2025-01-12T10:44:12Z</time>
      </trkpt>
      <trkpt lat="48.21537" lon="6.69622">
        <ele>559.9</ele>
        <time>2025-01-12T10:44:22Z</time>
      </trkpt>
      <trkpt lat="48.21541" lon="6.69634">
        <ele>559.6</ele>
        <time>2025-01-12T10:44:36Z</time>
      </trkpt>
      <trkpt lat="48.21547" lon="6.69646">
        <ele>559.3</ele>
        <time>2025-01-12T10:44:42Z</time>
      </trkpt>
      <trkpt lat="48.21556" lon="6.6965">
        <ele>559</ele>
        <time>2025-01-12T10:44:47Z</time>
      </trkpt>
      <trkpt lat="48.21566" lon="6.69655">
        <ele>558.8</ele>
        <time>2025-01-12T10:44:56Z</time>
      </trkpt>
      <trkpt lat="48.21574" lon="6.69663">
        <ele>558.6</ele>
        <time>2025-01-12T10:45:05Z</time>
      </trkpt>
      <trkpt lat="48.21583" lon="6.69668">
        <ele>558.5</ele>
        <time>2025-01-12T10:45:12Z</time>
      </trkpt>
      <trkpt lat="48.21593" lon="6.6967">
        <ele>558.4</ele>
        <time>2025-01-12T10:45:21Z</time>
      </trkpt>
      <trkpt lat="48.21603" lon="6.69672">
        <ele>558.2</ele>
        <time>2025-01-12T10:45:30Z</time>
      </trkpt>
      <trkpt lat="48.21613" lon="6.69675">
        <ele>558.1</ele>
        <time>2025-01-12T10:45:38Z</time>
      </trkpt>
      <trkpt lat="48.21622" lon="6.69681">
        <ele>558</ele>
        <time>2025-01-12T10:45:47Z</time>
      </trkpt>
      <trkpt lat="48.2163" lon="6.69688">
        <ele>557.9</ele>
        <time>2025-01-12T10:45:55Z</time>
      </trkpt>
      <trkpt lat="48.21639" lon="6.69692">
        <ele>557.9</ele>
        <time>2025-01-12T10:46:03Z</time>
      </trkpt>
      <trkpt lat="48.21649" lon="6.69692">
        <ele>558</ele>
        <time>2025-01-12T10:46:12Z</time>
      </trkpt>
      <trkpt lat="48.21658" lon="6.69693">
        <ele>558</ele>
        <time>2025-01-12T10:46:20Z</time>
      </trkpt>
      <trkpt lat="48.21668" lon="6.69691">
        <ele>557.9</ele>
        <time>2025-01-12T10:46:28Z</time>
      </trkpt>
      <trkpt lat="48.21677" lon="6.69695">
        <ele>557.9</ele>
        <time>2025-01-12T10:46:36Z</time>
      </trkpt>
      <trkpt lat="48.21685" lon="6.69702">
        <ele>557.8</ele>
        <time>2025-01-12T10:46:44Z</time>
      </trkpt>
      <trkpt lat="48.21695" lon="6.69708">
        <ele>557.5</ele>
        <time>2025-01-12T10:46:51Z</time>
      </trkpt>
      <trkpt lat="48.21703" lon="6.69716">
        <ele>557.3</ele>
        <time>2025-01-12T10:46:59Z</time>
      </trkpt>
      <trkpt lat="48.21711" lon="6.69725">
        <ele>557</ele>
        <time>2025-01-12T10:47:07Z</time>
      </trkpt>
      <trkpt lat="48.2172" lon="6.6973">
        <ele>556.7</ele>
        <time>2025-01-12T10:47:15Z</time>
      </trkpt>
      <trkpt lat="48.21725" lon="6.69741">
        <ele>556.5</ele>
        <time>2025-01-12T10:47:22Z</time>
      </trkpt>
      <trkpt lat="48.21733" lon="6.69749">
        <ele>556.3</ele>
        <time>2025-01-12T10:47:30Z</time>
      </trkpt>
      <trkpt lat="48.21741" lon="6.69755">
        <ele>556.1</ele>
        <time>2025-01-12T10:47:38Z</time>
      </trkpt>
      <trkpt lat="48.2175" lon="6.69761">
        <ele>555.9</ele>
        <time>2025-01-12T10:47:46Z</time>
      </trkpt>
      <trkpt lat="48.21759" lon="6.69764">
        <ele>555.7</ele>
        <time>2025-01-12T10:47:54Z</time>
      </trkpt>
      <trkpt lat="48.21768" lon="6.69771">
        <ele>555.4</ele>
        <time>2025-01-12T10:48:03Z</time>
      </trkpt>
      <trkpt lat="48.21776" lon="6.69776">
        <ele>555.3</ele>
        <time>2025-01-12T10:48:11Z</time>
      </trkpt>
      <trkpt lat="48.21785" lon="6.69784">
        <ele>555.2</ele>
        <time>2025-01-12T10:48:20Z</time>
      </trkpt>
      <trkpt lat="48.21792" lon="6.69795">
        <ele>555.1</ele>
        <time>2025-01-12T10:48:29Z</time>
      </trkpt>
      <trkpt lat="48.218" lon="6.69806">
        <ele>555.2</ele>
        <time>2025-01-12T10:48:38Z</time>
      </trkpt>
      <trkpt lat="48.21808" lon="6.69811">
        <ele>555.3</ele>
        <time>2025-01-12T10:48:46Z</time>
      </trkpt>
      <trkpt lat="48.21816" lon="6.69818">
        <ele>555.5</ele>
        <time>2025-01-12T10:48:53Z</time>
      </trkpt>
      <trkpt lat="48.21825" lon="6.69824">
        <ele>555.7</ele>
        <time>2025-01-12T10:49:00Z</time>
      </trkpt>
      <trkpt lat="48.21833" lon="6.69833">
        <ele>555.8</ele>
        <time>2025-01-12T10:49:08Z</time>
      </trkpt>
      <trkpt lat="48.21838" lon="6.69845">
        <ele>556</ele>
        <time>2025-01-12T10:49:17Z</time>
      </trkpt>
      <trkpt lat="48.21845" lon="6.69854">
        <ele>556.2</ele>
        <time>2025-01-12T10:49:26Z</time>
      </trkpt>
      <trkpt lat="48.21853" lon="6.69862">
        <ele>556.4</ele>
        <time>2025-01-12T10:49:34Z</time>
      </trkpt>
      <trkpt lat="48.21861" lon="6.69872">
        <ele>556.6</ele>
        <time>2025-01-12T10:49:42Z</time>
      </trkpt>
      <trkpt lat="48.21869" lon="6.69878">
        <ele>556.8</ele>
        <time>2025-01-12T10:49:50Z</time>
      </trkpt>
      <trkpt lat="48.21877" lon="6.69886">
        <ele>556.9</ele>
        <time>2025-01-12T10:49:58Z</time>
      </trkpt>
      <trkpt lat="48.21885" lon="6.69895">
        <ele>557</ele>
        <time>2025-01-12T10:50:05Z</time>
      </trkpt>
      <trkpt lat="48.21891" lon="6.69906">
        <ele>557.1</ele>
        <time>2025-01-12T10:50:14Z</time>
      </trkpt>
      <trkpt lat="48.21898" lon="6.69916">
        <ele>557</ele>
        <time>2025-01-12T10:50:21Z</time>
      </trkpt>
      <trkpt lat="48.21904" lon="6.69928">
        <ele>556.7</ele>
        <time>2025-01-12T10:50:30Z</time>
      </trkpt>
      <trkpt lat="48.2191" lon="6.69939">
        <ele>556.3</ele>
        <time>2025-01-12T10:50:38Z</time>
      </trkpt>
      <trkpt lat="48.21915" lon="6.69952">
        <ele>555.7</ele>
        <time>2025-01-12T10:50:46Z</time>
      </trkpt>
      <trkpt lat="48.21922" lon="6.69962">
        <ele>555.1</ele>
        <time>2025-01-12T10:50:54Z</time>
      </trkpt>
      <trkpt lat="48.21929" lon="6.69972">
        <ele>554.3</ele>
        <time>2025-01-12T10:51:02Z</time>
      </trkpt>
      <trkpt lat="48.21937" lon="6.69982">
        <ele>553.5</ele>
        <time>2025-01-12T10:51:11Z</time>
      </trkpt>
      <trkpt lat="48.21945" lon="6.69988">
        <ele>552.8</ele>
        <time>2025-01-12T10:51:20Z</time>
      </trkpt>
      <trkpt lat="48.21955" lon="6.69987">
        <ele>552.1</ele>
        <time>2025-01-12T10:51:30Z</time>
      </trkpt>
      <trkpt lat="48.21963" lon="6.69982">
        <ele>551.5</ele>
        <time>2025-01-12T10:51:39Z</time>
      </trkpt>
      <trkpt lat="48.21973" lon="6.69976">
        <ele>550.5</ele>
        <time>2025-01-12T10:51:47Z</time>
      </trkpt>
      <trkpt lat="48.21982" lon="6.69968">
        <ele>549.4</ele>
        <time>2025-01-12T10:51:54Z</time>
      </trkpt>
      <trkpt lat="48.21989" lon="6.69958">
        <ele>548.4</ele>
        <time>2025-01-12T10:52:03Z</time>
      </trkpt>
      <trkpt lat="48.21994" lon="6.69946">
        <ele>547.3</ele>
        <time>2025-01-12T10:52:09Z</time>
      </trkpt>
      <trkpt lat="48.22" lon="6.69935">
        <ele>546.4</ele>
        <time>2025-01-12T10:52:17Z</time>
      </trkpt>
      <trkpt lat="48.22006" lon="6.69924">
        <ele>545.4</ele>
        <time>2025-01-12T10:52:27Z</time>
      </trkpt>
      <trkpt lat="48.22009" lon="6.69911">
        <ele>544.4</ele>
        <time>2025-01-12T10:52:36Z</time>
      </trkpt>
      <trkpt lat="48.22012" lon="6.69897">
        <ele>543.5</ele>
        <time>2025-01-12T10:52:43Z</time>
      </trkpt>
      <trkpt lat="48.22016" lon="6.69884">
        <ele>542.7</ele>
        <time>2025-01-12T10:52:51Z</time>
      </trkpt>
      <trkpt lat="48.22021" lon="6.69871">
        <ele>541.9</ele>
        <time>2025-01-12T10:52:59Z</time>
      </trkpt>
      <trkpt lat="48.22025" lon="6.69859">
        <ele>541.2</ele>
        <time>2025-01-12T10:53:07Z</time>
      </trkpt>
      <trkpt lat="48.22026" lon="6.69845">
        <ele>540.5</ele>
        <time>2025-01-12T10:53:16Z</time>
      </trkpt>
      <trkpt lat="48.22032" lon="6.69834">
        <ele>539.8</ele>
        <time>2025-01-12T10:53:25Z</time>
      </trkpt>
      <trkpt lat="48.22037" lon="6.69822">
        <ele>539</ele>
        <time>2025-01-12T10:53:34Z</time>
      </trkpt>
      <trkpt lat="48.22044" lon="6.69812">
        <ele>538.2</ele>
        <time>2025-01-12T10:53:44Z</time>
      </trkpt>
      <trkpt lat="48.22051" lon="6.69803">
        <ele>537.4</ele>
        <time>2025-01-12T10:53:53Z</time>
      </trkpt>
      <trkpt lat="48.2206" lon="6.69794">
        <ele>536.5</ele>
        <time>2025-01-12T10:54:00Z</time>
      </trkpt>
      <trkpt lat="48.22067" lon="6.69785">
        <ele>535.6</ele>
        <time>2025-01-12T10:54:08Z</time>
      </trkpt>
      <trkpt lat="48.22074" lon="6.69775">
        <ele>534.7</ele>
        <time>2025-01-12T10:54:16Z</time>
      </trkpt>
      <trkpt lat="48.22082" lon="6.69766">
        <ele>533.8</ele>
        <time>2025-01-12T10:54:26Z</time>
      </trkpt>
      <trkpt lat="48.22088" lon="6.69755">
        <ele>533.1</ele>
        <time>2025-01-12T10:54:35Z</time>
      </trkpt>
      <trkpt lat="48.22095" lon="6.69747">
        <ele>532.4</ele>
        <time>2025-01-12T10:54:46Z</time>
      </trkpt>
      <trkpt lat="48.22096" lon="6.69745">
        <ele>532.3</ele>
        <time>2025-01-12T10:54:51Z</time>
      </trkpt>
      <trkpt lat="48.22096" lon="6.69745">
        <ele>532.3</ele>
        <time>2025-01-12T10:54:52Z</time>
      </trkpt>
      <trkpt lat="48.22096" lon="6.69745">
        <ele>532.3</ele>
        <time>2025-01-12T10:54:53Z</time>
      </trkpt>
      <trkpt lat="48.22096" lon="6.69745">
        <ele>532.3</ele>
        <time>2025-01-12T10:54:54Z</time>
      </trkpt>
      <trkpt lat="48.22096" lon="6.69744">
        <ele>532.2</ele>
        <time>2025-01-12T10:54:55Z</time>
      </trkpt>
      <trkpt lat="48.22098" lon="6.69736">
        <ele>531.9</ele>
        <time>2025-01-12T10:55:08Z</time>
      </trkpt>
      <trkpt lat="48.22098" lon="6.69735">
        <ele>531.8</ele>
        <time>2025-01-12T10:55:09Z</time>
      </trkpt>
      <trkpt lat="48.22097" lon="6.69735">
        <ele>531.7</ele>
        <time>2025-01-12T10:55:10Z</time>
      </trkpt>
      <trkpt lat="48.22097" lon="6.69733">
        <ele>531.6</ele>
        <time>2025-01-12T10:55:24Z</time>
      </trkpt>
      <trkpt lat="48.22098" lon="6.69733">
        <ele>531.6</ele>
        <time>2025-01-12T10:55:25Z</time>
      </trkpt>
      <trkpt lat="48.22098" lon="6.69733">
        <ele>531.5</ele>
        <time>2025-01-12T10:55:29Z</time>
      </trkpt>
      <trkpt lat="48.22098" lon="6.69733">
        <ele>531.5</ele>
        <time>2025-01-12T10:55:30Z</time>
      </trkpt>
      <trkpt lat="48.22098" lon="6.69733">
        <ele>531.5</ele>
        <time>2025-01-12T10:55:31Z</time>
      </trkpt>
      <trkpt lat="48.22098" lon="6.69733">
        <ele>531.5</ele>
        <time>2025-01-12T10:55:34Z</time>
      </trkpt>
      <trkpt lat="48.22098" lon="6.69733">
        <ele>531.5</ele>
        <time>2025-01-12T10:55:35Z</time>
      </trkpt>
      <trkpt lat="48.22098" lon="6.69733">
        <ele>531.5</ele>
        <time>2025-01-12T10:55:36Z</time>
      </trkpt>
      <trkpt lat="48.22098" lon="6.69733">
        <ele>531.5</ele>
        <time>2025-01-12T10:55:37Z</time>
      </trkpt>
      <trkpt lat="48.22098" lon="6.69733">
        <ele>531.5</ele>
        <time>2025-01-12T10:55:38Z</time>
      </trkpt>
      <trkpt lat="48.22099" lon="6.69732">
        <ele>531.3</ele>
        <time>2025-01-12T10:55:49Z</time>
      </trkpt>
      <trkpt lat="48.22099" lon="6.69732">
        <ele>531.3</ele>
        <time>2025-01-12T10:55:50Z</time>
      </trkpt>
      <trkpt lat="48.22108" lon="6.69729">
        <ele>530.5</ele>
        <time>2025-01-12T10:55:58Z</time>
      </trkpt>
      <trkpt lat="48.22117" lon="6.69721">
        <ele>529.5</ele>
        <time>2025-01-12T10:56:06Z</time>
      </trkpt>
      <trkpt lat="48.22126" lon="6.69715">
        <ele>528.6</ele>
        <time>2025-01-12T10:56:14Z</time>
      </trkpt>
      <trkpt lat="48.22135" lon="6.69709">
        <ele>527.5</ele>
        <time>2025-01-12T10:56:26Z</time>
      </trkpt>
      <trkpt lat="48.22144" lon="6.69701">
        <ele>526.6</ele>
        <time>2025-01-12T10:56:38Z</time>
      </trkpt>
      <trkpt lat="48.22152" lon="6.69694">
        <ele>525.8</ele>
        <time>2025-01-12T10:56:45Z</time>
      </trkpt>
      <trkpt lat="48.22161" lon="6.69689">
        <ele>525</ele>
        <time>2025-01-12T10:56:53Z</time>
      </trkpt>
      <trkpt lat="48.22169" lon="6.69682">
        <ele>524.3</ele>
        <time>2025-01-12T10:57:06Z</time>
      </trkpt>
      <trkpt lat="48.22179" lon="6.69682">
        <ele>523.8</ele>
        <time>2025-01-12T10:57:15Z</time>
      </trkpt>
      <trkpt lat="48.22188" lon="6.69682">
        <ele>523.5</ele>
        <time>2025-01-12T10:57:23Z</time>
      </trkpt>
      <trkpt lat="48.22198" lon="6.6968">
        <ele>523.2</ele>
        <time>2025-01-12T10:57:31Z</time>
      </trkpt>
      <trkpt lat="48.22207" lon="6.69681">
        <ele>523</ele>
        <time>2025-01-12T10:57:39Z</time>
      </trkpt>
      <trkpt lat="48.22217" lon="6.6968">
        <ele>522.8</ele>
        <time>2025-01-12T10:57:47Z</time>
      </trkpt>
      <trkpt lat="48.22226" lon="6.69681">
        <ele>522.6</ele>
        <time>2025-01-12T10:57:56Z</time>
      </trkpt>
      <trkpt lat="48.22235" lon="6.69682">
        <ele>522.4</ele>
        <time>2025-01-12T10:58:04Z</time>
      </trkpt>
      <trkpt lat="48.22245" lon="6.69683">
        <ele>522.2</ele>
        <time>2025-01-12T10:58:12Z</time>
      </trkpt>
      <trkpt lat="48.22254" lon="6.69684">
        <ele>521.9</ele>
        <time>2025-01-12T10:58:20Z</time>
      </trkpt>
      <trkpt lat="48.22264" lon="6.69685">
        <ele>521.6</ele>
        <time>2025-01-12T10:58:29Z</time>
      </trkpt>
      <trkpt lat="48.22274" lon="6.69685">
        <ele>521.4</ele>
        <time>2025-01-12T10:58:37Z</time>
      </trkpt>
      <trkpt lat="48.22283" lon="6.69687">
        <ele>521.1</ele>
        <time>2025-01-12T10:58:47Z</time>
      </trkpt>
      <trkpt lat="48.22293" lon="6.69686">
        <ele>520.7</ele>
        <time>2025-01-12T10:58:55Z</time>
      </trkpt>
      <trkpt lat="48.22302" lon="6.69684">
        <ele>520.4</ele>
        <time>2025-01-12T10:59:03Z</time>
      </trkpt>
      <trkpt lat="48.22311" lon="6.69681">
        <ele>520</ele>
        <time>2025-01-12T10:59:10Z</time>
      </trkpt>
      <trkpt lat="48.22321" lon="6.69678">
        <ele>519.7</ele>
        <time>2025-01-12T10:59:20Z</time>
      </trkpt>
      <trkpt lat="48.2233" lon="6.69674">
        <ele>519.4</ele>
        <time>2025-01-12T10:59:28Z</time>
      </trkpt>
      <trkpt lat="48.22338" lon="6.6967">
        <ele>519.2</ele>
        <time>2025-01-12T10:59:37Z</time>
      </trkpt>
      <trkpt lat="48.22348" lon="6.69666">
        <ele>518.9</ele>
        <time>2025-01-12T10:59:49Z</time>
      </trkpt>
      <trkpt lat="48.22358" lon="6.69663">
        <ele>518.8</ele>
        <time>2025-01-12T10:59:57Z</time>
      </trkpt>
      <trkpt lat="48.22367" lon="6.69658">
        <ele>518.6</ele>
        <time>2025-01-12T11:00:08Z</time>
      </trkpt>
      <trkpt lat="48.22375" lon="6.6965">
        <ele>518.4</ele>
        <time>2025-01-12T11:00:14Z</time>
      </trkpt>
      <trkpt lat="48.22384" lon="6.69643">
        <ele>518.2</ele>
        <time>2025-01-12T11:00:24Z</time>
      </trkpt>
      <trkpt lat="48.22392" lon="6.69636">
        <ele>518</ele>
        <time>2025-01-12T11:00:34Z</time>
      </trkpt>
      <trkpt lat="48.22401" lon="6.6963">
        <ele>517.8</ele>
        <time>2025-01-12T11:00:40Z</time>
      </trkpt>
      <trkpt lat="48.2241" lon="6.69622">
        <ele>517.7</ele>
        <time>2025-01-12T11:00:48Z</time>
      </trkpt>
      <trkpt lat="48.22417" lon="6.69613">
        <ele>517.5</ele>
        <time>2025-01-12T11:00:59Z</time>
      </trkpt>
      <trkpt lat="48.22425" lon="6.69604">
        <ele>517.4</ele>
        <time>2025-01-12T11:01:07Z</time>
      </trkpt>
      <trkpt lat="48.22433" lon="6.69594">
        <ele>517.2</ele>
        <time>2025-01-12T11:01:15Z</time>
      </trkpt>
      <trkpt lat="48.22439" lon="6.69583">
        <ele>517.1</ele>
        <time>2025-01-12T11:01:23Z</time>
      </trkpt>
      <trkpt lat="48.22446" lon="6.69573">
        <ele>516.9</ele>
        <time>2025-01-12T11:01:31Z</time>
      </trkpt>
      <trkpt lat="48.22455" lon="6.69567">
        <ele>516.8</ele>
        <time>2025-01-12T11:01:43Z</time>
      </trkpt>
      <trkpt lat="48.22464" lon="6.69572">
        <ele>516.8</ele>
        <time>2025-01-12T11:01:54Z</time>
      </trkpt>
      <trkpt lat="48.22472" lon="6.69563">
        <ele>516.9</ele>
        <time>2025-01-12T11:02:02Z</time>
      </trkpt>
      <trkpt lat="48.22477" lon="6.69557">
        <ele>516.9</ele>
        <time>2025-01-12T11:02:13Z</time>
      </trkpt>
      <trkpt lat="48.22477" lon="6.69557">
        <ele>516.9</ele>
        <time>2025-01-12T11:02:14Z</time>
      </trkpt>
      <trkpt lat="48.22477" lon="6.69557">
        <ele>516.9</ele>
        <time>2025-01-12T11:02:15Z</time>
      </trkpt>
      <trkpt lat="48.22477" lon="6.69557">
        <ele>516.9</ele>
        <time>2025-01-12T11:02:53Z</time>
      </trkpt>
      <trkpt lat="48.22476" lon="6.69557">
        <ele>516.9</ele>
        <time>2025-01-12T11:02:54Z</time>
      </trkpt>
      <trkpt lat="48.22475" lon="6.69557">
        <ele>516.9</ele>
        <time>2025-01-12T11:02:55Z</time>
      </trkpt>
      <trkpt lat="48.22469" lon="6.69546">
        <ele>517</ele>
        <time>2025-01-12T11:03:03Z</time>
      </trkpt>
      <trkpt lat="48.22467" lon="6.69532">
        <ele>517.1</ele>
        <time>2025-01-12T11:03:10Z</time>
      </trkpt>
      <trkpt lat="48.2247" lon="6.69518">
        <ele>517.3</ele>
        <time>2025-01-12T11:03:18Z</time>
      </trkpt>
      <trkpt lat="48.22475" lon="6.69505">
        <ele>517.4</ele>
        <time>2025-01-12T11:03:26Z</time>
      </trkpt>
      <trkpt lat="48.22478" lon="6.69492">
        <ele>517.5</ele>
        <time>2025-01-12T11:03:34Z</time>
      </trkpt>
      <trkpt lat="48.22481" lon="6.69478">
        <ele>517.4</ele>
        <time>2025-01-12T11:03:43Z</time>
      </trkpt>
      <trkpt lat="48.22483" lon="6.69472">
        <ele>517.4</ele>
        <time>2025-01-12T11:03:51Z</time>
      </trkpt>
      <trkpt lat="48.22483" lon="6.69472">
        <ele>517.4</ele>
        <time>2025-01-12T11:03:52Z</time>
      </trkpt>
      <trkpt lat="48.22483" lon="6.69472">
        <ele>517.4</ele>
        <time>2025-01-12T11:03:53Z</time>
      </trkpt>
      <trkpt lat="48.22483" lon="6.69469">
        <ele>517.4</ele>
        <time>2025-01-12T11:03:56Z</time>
      </trkpt>
      <trkpt lat="48.22483" lon="6.69467">
        <ele>517.4</ele>
        <time>2025-01-12T11:03:57Z</time>
      </trkpt>
      <trkpt lat="48.22484" lon="6.69466">
        <ele>517.4</ele>
        <time>2025-01-12T11:03:58Z</time>
      </trkpt>
      <trkpt lat="48.22488" lon="6.69454">
        <ele>517.2</ele>
        <time>2025-01-12T11:04:07Z</time>
      </trkpt>
      <trkpt lat="48.22492" lon="6.69442">
        <ele>517</ele>
        <time>2025-01-12T11:04:15Z</time>
      </trkpt>
      <trkpt lat="48.22496" lon="6.69427">
        <ele>516.7</ele>
        <time>2025-01-12T11:04:23Z</time>
      </trkpt>
      <trkpt lat="48.225" lon="6.69416">
        <ele>516.4</ele>
        <time>2025-01-12T11:04:31Z</time>
      </trkpt>
      <trkpt lat="48.2251" lon="6.69413">
        <ele>516</ele>
        <time>2025-01-12T11:04:40Z</time>
      </trkpt>
      <trkpt lat="48.22511" lon="6.69414">
        <ele>515.9</ele>
        <time>2025-01-12T11:04:46Z</time>
      </trkpt>
      <trkpt lat="48.22511" lon="6.69414">
        <ele>515.9</ele>
        <time>2025-01-12T11:04:47Z</time>
      </trkpt>
      <trkpt lat="48.22511" lon="6.69414">
        <ele>515.9</ele>
        <time>2025-01-12T11:04:48Z</time>
      </trkpt>
      <trkpt lat="48.2251" lon="6.69415">
        <ele>515.8</ele>
        <time>2025-01-12T11:05:31Z</time>
      </trkpt>
      <trkpt lat="48.22508" lon="6.69416">
        <ele>515.8</ele>
        <time>2025-01-12T11:05:32Z</time>
      </trkpt>
      <trkpt lat="48.22509" lon="6.69401">
        <ele>515.3</ele>
        <time>2025-01-12T11:05:43Z</time>
      </trkpt>
      <trkpt lat="48.22517" lon="6.69391">
        <ele>514.6</ele>
        <time>2025-01-12T11:05:55Z</time>
      </trkpt>
      <trkpt lat="48.22525" lon="6.69383">
        <ele>513.8</ele>
        <time>2025-01-12T11:06:04Z</time>
      </trkpt>
      <trkpt lat="48.22533" lon="6.69376">
        <ele>513.1</ele>
        <time>2025-01-12T11:06:17Z</time>
      </trkpt>
      <trkpt lat="48.22533" lon="6.69376">
        <ele>513.1</ele>
        <time>2025-01-12T11:06:18Z</time>
      </trkpt>
      <trkpt lat="48.22534" lon="6.69374">
        <ele>512.9</ele>
        <time>2025-01-12T11:06:38Z</time>
      </trkpt>
      <trkpt lat="48.22534" lon="6.69374">
        <ele>512.9</ele>
        <time>2025-01-12T11:06:39Z</time>
      </trkpt>
      <trkpt lat="48.22534" lon="6.69374">
        <ele>512.9</ele>
        <time>2025-01-12T11:06:40Z</time>
      </trkpt>
      <trkpt lat="48.22534" lon="6.69374">
        <ele>512.9</ele>
        <time>2025-01-12T11:06:41Z</time>
      </trkpt>
      <trkpt lat="48.22534" lon="6.69374">
        <ele>512.9</ele>
        <time>2025-01-12T11:06:42Z</time>
      </trkpt>
      <trkpt lat="48.22535" lon="6.69373">
        <ele>512.8</ele>
        <time>2025-01-12T11:06:51Z</time>
      </trkpt>
      <trkpt lat="48.22535" lon="6.69372">
        <ele>512.7</ele>
        <time>2025-01-12T11:06:52Z</time>
      </trkpt>
      <trkpt lat="48.22543" lon="6.69362">
        <ele>511.7</ele>
        <time>2025-01-12T11:07:06Z</time>
      </trkpt>
      <trkpt lat="48.22551" lon="6.69354">
        <ele>510.8</ele>
        <time>2025-01-12T11:07:13Z</time>
      </trkpt>
      <trkpt lat="48.22557" lon="6.69344">
        <ele>509.9</ele>
        <time>2025-01-12T11:07:24Z</time>
      </trkpt>
      <trkpt lat="48.22565" lon="6.69334">
        <ele>509</ele>
        <time>2025-01-12T11:07:32Z</time>
      </trkpt>
      <trkpt lat="48.22572" lon="6.69323">
        <ele>508.1</ele>
        <time>2025-01-12T11:07:40Z</time>
      </trkpt>
      <trkpt lat="48.22579" lon="6.69315">
        <ele>507.4</ele>
        <time>2025-01-12T11:07:47Z</time>
      </trkpt>
      <trkpt lat="48.22588" lon="6.69309">
        <ele>506.8</ele>
        <time>2025-01-12T11:07:55Z</time>
      </trkpt>
      <trkpt lat="48.22597" lon="6.69307">
        <ele>506.4</ele>
        <time>2025-01-12T11:08:05Z</time>
      </trkpt>
      <trkpt lat="48.22607" lon="6.69306">
        <ele>506.1</ele>
        <time>2025-01-12T11:08:14Z</time>
      </trkpt>
      <trkpt lat="48.22616" lon="6.69306">
        <ele>506</ele>
        <time>2025-01-12T11:08:22Z</time>
      </trkpt>
      <trkpt lat="48.22624" lon="6.69299">
        <ele>505.9</ele>
        <time>2025-01-12T11:08:28Z</time>
      </trkpt>
      <trkpt lat="48.22632" lon="6.69294">
        <ele>505.9</ele>
        <time>2025-01-12T11:08:35Z</time>
      </trkpt>
      <trkpt lat="48.22641" lon="6.69286">
        <ele>505.8</ele>
        <time>2025-01-12T11:08:42Z</time>
      </trkpt>
      <trkpt lat="48.22648" lon="6.69277">
        <ele>505.6</ele>
        <time>2025-01-12T11:08:49Z</time>
      </trkpt>
      <trkpt lat="48.22656" lon="6.69268">
        <ele>505.4</ele>
        <time>2025-01-12T11:08:57Z</time>
      </trkpt>
      <trkpt lat="48.22664" lon="6.69259">
        <ele>505</ele>
        <time>2025-01-12T11:09:05Z</time>
      </trkpt>
      <trkpt lat="48.22671" lon="6.69251">
        <ele>504.7</ele>
        <time>2025-01-12T11:09:13Z</time>
      </trkpt>
      <trkpt lat="48.22679" lon="6.69242">
        <ele>504.2</ele>
        <time>2025-01-12T11:09:22Z</time>
      </trkpt>
      <trkpt lat="48.22687" lon="6.69234">
        <ele>503.8</ele>
        <time>2025-01-12T11:09:30Z</time>
      </trkpt>
      <trkpt lat="48.22695" lon="6.69224">
        <ele>503.3</ele>
        <time>2025-01-12T11:09:38Z</time>
      </trkpt>
      <trkpt lat="48.22703" lon="6.69215">
        <ele>503</ele>
        <time>2025-01-12T11:09:46Z</time>
      </trkpt>
      <trkpt lat="48.2271" lon="6.69206">
        <ele>502.7</ele>
        <time>2025-01-12T11:09:54Z</time>
      </trkpt>
      <trkpt lat="48.22717" lon="6.69198">
        <ele>502.5</ele>
        <time>2025-01-12T11:10:01Z</time>
      </trkpt>
      <trkpt lat="48.22724" lon="6.69188">
        <ele>502.4</ele>
        <time>2025-01-12T11:10:09Z</time>
      </trkpt>
      <trkpt lat="48.2273" lon="6.69178">
        <ele>502.3</ele>
        <time>2025-01-12T11:10:16Z</time>
      </trkpt>
      <trkpt lat="48.22736" lon="6.69166">
        <ele>502.2</ele>
        <time>2025-01-12T11:10:24Z</time>
      </trkpt>
      <trkpt lat="48.22741" lon="6.69154">
        <ele>502</ele>
        <time>2025-01-12T11:10:32Z</time>
      </trkpt>
      <trkpt lat="48.22744" lon="6.69141">
        <ele>501.5</ele>
        <time>2025-01-12T11:10:39Z</time>
      </trkpt>
      <trkpt lat="48.22745" lon="6.69127">
        <ele>500.8</ele>
        <time>2025-01-12T11:10:47Z</time>
      </trkpt>
      <trkpt lat="48.22744" lon="6.69113">
        <ele>499.9</ele>
        <time>2025-01-12T11:10:55Z</time>
      </trkpt>
      <trkpt lat="48.22744" lon="6.69097">
        <ele>498.7</ele>
        <time>2025-01-12T11:11:03Z</time>
      </trkpt>
      <trkpt lat="48.22745" lon="6.69083">
        <ele>497.6</ele>
        <time>2025-01-12T11:11:11Z</time>
      </trkpt>
      <trkpt lat="48.22745" lon="6.69069">
        <ele>496.4</ele>
        <time>2025-01-12T11:11:19Z</time>
      </trkpt>
      <trkpt lat="48.22745" lon="6.69054">
        <ele>495.2</ele>
        <time>2025-01-12T11:11:28Z</time>
      </trkpt>
      <trkpt lat="48.22745" lon="6.6904">
        <ele>494.1</ele>
        <time>2025-01-12T11:11:36Z</time>
      </trkpt>
      <trkpt lat="48.22743" lon="6.69025">
        <ele>493</ele>
        <time>2025-01-12T11:11:44Z</time>
      </trkpt>
      <trkpt lat="48.22742" lon="6.69012">
        <ele>492</ele>
        <time>2025-01-12T11:11:52Z</time>
      </trkpt>
      <trkpt lat="48.22741" lon="6.68997">
        <ele>490.9</ele>
        <time>2025-01-12T11:12:01Z</time>
      </trkpt>
      <trkpt lat="48.22741" lon="6.68983">
        <ele>490</ele>
        <time>2025-01-12T11:12:09Z</time>
      </trkpt>
      <trkpt lat="48.22738" lon="6.68969">
        <ele>489.1</ele>
        <time>2025-01-12T11:12:17Z</time>
      </trkpt>
      <trkpt lat="48.22742" lon="6.68956">
        <ele>488.2</ele>
        <time>2025-01-12T11:12:26Z</time>
      </trkpt>
      <trkpt lat="48.22747" lon="6.68945">
        <ele>487.3</ele>
        <time>2025-01-12T11:12:34Z</time>
      </trkpt>
      <trkpt lat="48.22752" lon="6.68933">
        <ele>486.6</ele>
        <time>2025-01-12T11:12:42Z</time>
      </trkpt>
      <trkpt lat="48.22759" lon="6.68928">
        <ele>485.9</ele>
        <time>2025-01-12T11:12:54Z</time>
      </trkpt>
      <trkpt lat="48.2276" lon="6.68928">
        <ele>485.9</ele>
        <time>2025-01-12T11:12:55Z</time>
      </trkpt>
      <trkpt lat="48.22761" lon="6.68927">
        <ele>485.8</ele>
        <time>2025-01-12T11:12:56Z</time>
      </trkpt>
      <trkpt lat="48.22762" lon="6.68926">
        <ele>485.7</ele>
        <time>2025-01-12T11:12:57Z</time>
      </trkpt>
      <trkpt lat="48.22761" lon="6.68924">
        <ele>485.7</ele>
        <time>2025-01-12T11:13:01Z</time>
      </trkpt>
      <trkpt lat="48.22761" lon="6.68924">
        <ele>485.6</ele>
        <time>2025-01-12T11:13:02Z</time>
      </trkpt>
      <trkpt lat="48.22761" lon="6.68924">
        <ele>485.6</ele>
        <time>2025-01-12T11:13:03Z</time>
      </trkpt>
      <trkpt lat="48.22763" lon="6.68921">
        <ele>485.4</ele>
        <time>2025-01-12T11:13:14Z</time>
      </trkpt>
      <trkpt lat="48.22764" lon="6.6892">
        <ele>485.4</ele>
        <time>2025-01-12T11:13:15Z</time>
      </trkpt>
      <trkpt lat="48.22765" lon="6.68919">
        <ele>485.3</ele>
        <time>2025-01-12T11:13:16Z</time>
      </trkpt>
      <trkpt lat="48.22773" lon="6.68909">
        <ele>484.6</ele>
        <time>2025-01-12T11:13:25Z</time>
      </trkpt>
      <trkpt lat="48.2278" lon="6.68899">
        <ele>484</ele>
        <time>2025-01-12T11:13:34Z</time>
      </trkpt>
      <trkpt lat="48.22789" lon="6.68894">
        <ele>483.5</ele>
        <time>2025-01-12T11:13:42Z</time>
      </trkpt>
      <trkpt lat="48.22798" lon="6.68889">
        <ele>483</ele>
        <time>2025-01-12T11:13:54Z</time>
      </trkpt>
      <trkpt lat="48.22808" lon="6.68885">
        <ele>482.5</ele>
        <time>2025-01-12T11:14:03Z</time>
      </trkpt>
      <trkpt lat="48.22817" lon="6.6888">
        <ele>482.1</ele>
        <time>2025-01-12T11:14:11Z</time>
      </trkpt>
      <trkpt lat="48.22826" lon="6.68875">
        <ele>481.9</ele>
        <time>2025-01-12T11:14:18Z</time>
      </trkpt>
      <trkpt lat="48.22835" lon="6.6887">
        <ele>481.6</ele>
        <time>2025-01-12T11:14:26Z</time>
      </trkpt>
      <trkpt lat="48.22843" lon="6.68864">
        <ele>481.4</ele>
        <time>2025-01-12T11:14:33Z</time>
      </trkpt>
      <trkpt lat="48.22852" lon="6.68858">
        <ele>481.2</ele>
        <time>2025-01-12T11:14:40Z</time>
      </trkpt>
      <trkpt lat="48.2286" lon="6.68853">
        <ele>481</ele>
        <time>2025-01-12T11:14:48Z</time>
      </trkpt>
      <trkpt lat="48.22869" lon="6.6885">
        <ele>480.8</ele>
        <time>2025-01-12T11:14:58Z</time>
      </trkpt>
      <trkpt lat="48.22879" lon="6.68846">
        <ele>480.6</ele>
        <time>2025-01-12T11:15:07Z</time>
      </trkpt>
      <trkpt lat="48.22888" lon="6.6884">
        <ele>480.4</ele>
        <time>2025-01-12T11:15:15Z</time>
      </trkpt>
      <trkpt lat="48.22897" lon="6.68834">
        <ele>480.2</ele>
        <time>2025-01-12T11:15:22Z</time>
      </trkpt>
      <trkpt lat="48.22902" lon="6.68831">
        <ele>480.1</ele>
        <time>2025-01-12T11:15:34Z</time>
      </trkpt>
      <trkpt lat="48.22903" lon="6.6883">
        <ele>480.1</ele>
        <time>2025-01-12T11:15:35Z</time>
      </trkpt>
      <trkpt lat="48.22904" lon="6.6883">
        <ele>480</ele>
        <time>2025-01-12T11:15:36Z</time>
      </trkpt>
      <trkpt lat="48.22905" lon="6.68829">
        <ele>480</ele>
        <time>2025-01-12T11:15:37Z</time>
      </trkpt>
      <trkpt lat="48.22906" lon="6.68827">
        <ele>480</ele>
        <time>2025-01-12T11:15:38Z</time>
      </trkpt>
      <trkpt lat="48.22914" lon="6.6882">
        <ele>479.8</ele>
        <time>2025-01-12T11:15:45Z</time>
      </trkpt>
      <trkpt lat="48.22922" lon="6.68813">
        <ele>479.5</ele>
        <time>2025-01-12T11:15:57Z</time>
      </trkpt>
      <trkpt lat="48.22931" lon="6.68808">
        <ele>479.2</ele>
        <time>2025-01-12T11:16:07Z</time>
      </trkpt>
      <trkpt lat="48.2294" lon="6.68804">
        <ele>478.9</ele>
        <time>2025-01-12T11:16:15Z</time>
      </trkpt>
      <trkpt lat="48.22949" lon="6.68799">
        <ele>478.4</ele>
        <time>2025-01-12T11:16:23Z</time>
      </trkpt>
      <trkpt lat="48.22958" lon="6.68796">
        <ele>477.9</ele>
        <time>2025-01-12T11:16:31Z</time>
      </trkpt>
      <trkpt lat="48.22967" lon="6.68792">
        <ele>477.4</ele>
        <time>2025-01-12T11:16:40Z</time>
      </trkpt>
      <trkpt lat="48.22976" lon="6.68788">
        <ele>476.8</ele>
        <time>2025-01-12T11:16:48Z</time>
      </trkpt>
      <trkpt lat="48.22984" lon="6.68783">
        <ele>476.2</ele>
        <time>2025-01-12T11:16:55Z</time>
      </trkpt>
      <trkpt lat="48.22993" lon="6.68779">
        <ele>475.5</ele>
        <time>2025-01-12T11:17:04Z</time>
      </trkpt>
      <trkpt lat="48.23003" lon="6.68774">
        <ele>474.9</ele>
        <time>2025-01-12T11:17:14Z</time>
      </trkpt>
      <trkpt lat="48.23011" lon="6.68767">
        <ele>474.2</ele>
        <time>2025-01-12T11:17:22Z</time>
      </trkpt>
      <trkpt lat="48.2302" lon="6.68764">
        <ele>473.5</ele>
        <time>2025-01-12T11:17:30Z</time>
      </trkpt>
      <trkpt lat="48.23029" lon="6.6876">
        <ele>472.9</ele>
        <time>2025-01-12T11:17:38Z</time>
      </trkpt>
      <trkpt lat="48.23039" lon="6.68756">
        <ele>472.2</ele>
        <time>2025-01-12T11:17:46Z</time>
      </trkpt>
      <trkpt lat="48.23047" lon="6.68752">
        <ele>471.5</ele>
        <time>2025-01-12T11:17:54Z</time>
      </trkpt>
      <trkpt lat="48.23057" lon="6.68748">
        <ele>470.7</ele>
        <time>2025-01-12T11:18:03Z</time>
      </trkpt>
      <trkpt lat="48.23065" lon="6.68742">
        <ele>469.9</ele>
        <time>2025-01-12T11:18:10Z</time>
      </trkpt>
      <trkpt lat="48.23074" lon="6.68734">
        <ele>468.8</ele>
        <time>2025-01-12T11:18:19Z</time>
      </trkpt>
      <trkpt lat="48.23082" lon="6.68728">
        <ele>467.9</ele>
        <time>2025-01-12T11:18:28Z</time>
      </trkpt>
      <trkpt lat="48.2309" lon="6.68718">
        <ele>466.8</ele>
        <time>2025-01-12T11:18:37Z</time>
      </trkpt>
      <trkpt lat="48.23099" lon="6.68711">
        <ele>465.6</ele>
        <time>2025-01-12T11:18:45Z</time>
      </trkpt>
      <trkpt lat="48.23107" lon="6.68704">
        <ele>464.6</ele>
        <time>2025-01-12T11:18:53Z</time>
      </trkpt>
      <trkpt lat="48.23113" lon="6.68694">
        <ele>463.7</ele>
        <time>2025-01-12T11:19:01Z</time>
      </trkpt>
      <trkpt lat="48.23121" lon="6.68685">
        <ele>462.8</ele>
        <time>2025-01-12T11:19:09Z</time>
      </trkpt>
      <trkpt lat="48.23127" lon="6.68674">
        <ele>461.9</ele>
        <time>2025-01-12T11:19:18Z</time>
      </trkpt>
      <trkpt lat="48.23134" lon="6.68664">
        <ele>460.9</ele>
        <time>2025-01-12T11:19:26Z</time>
      </trkpt>
      <trkpt lat="48.23142" lon="6.68658">
        <ele>459.9</ele>
        <time>2025-01-12T11:19:38Z</time>
      </trkpt>
      <trkpt lat="48.23151" lon="6.68652">
        <ele>459</ele>
        <time>2025-01-12T11:19:46Z</time>
      </trkpt>
      <trkpt lat="48.2316" lon="6.68648">
        <ele>458.1</ele>
        <time>2025-01-12T11:19:54Z</time>
      </trkpt>
      <trkpt lat="48.23169" lon="6.68643">
        <ele>457.2</ele>
        <time>2025-01-12T11:20:02Z</time>
      </trkpt>
      <trkpt lat="48.23178" lon="6.68638">
        <ele>456.2</ele>
        <time>2025-01-12T11:20:10Z</time>
      </trkpt>
      <trkpt lat="48.23186" lon="6.68632">
        <ele>455.5</ele>
        <time>2025-01-12T11:20:17Z</time>
      </trkpt>
      <trkpt lat="48.23195" lon="6.68625">
        <ele>454.8</ele>
        <time>2025-01-12T11:20:25Z</time>
      </trkpt>
      <trkpt lat="48.23203" lon="6.68619">
        <ele>454.3</ele>
        <time>2025-01-12T11:20:32Z</time>
      </trkpt>
      <trkpt lat="48.23211" lon="6.68609">
        <ele>453.8</ele>
        <time>2025-01-12T11:20:40Z</time>
      </trkpt>
      <trkpt lat="48.23219" lon="6.686">
        <ele>453.3</ele>
        <time>2025-01-12T11:20:49Z</time>
      </trkpt>
      <trkpt lat="48.23226" lon="6.68591">
        <ele>452.7</ele>
        <time>2025-01-12T11:21:00Z</time>
      </trkpt>
      <trkpt lat="48.23232" lon="6.68581">
        <ele>452</ele>
        <time>2025-01-12T11:21:09Z</time>
      </trkpt>
      <trkpt lat="48.23239" lon="6.68572">
        <ele>451.3</ele>
        <time>2025-01-12T11:21:18Z</time>
      </trkpt>
      <trkpt lat="48.23246" lon="6.68562">
        <ele>450.5</ele>
        <time>2025-01-12T11:21:28Z</time>
      </trkpt>
      <trkpt lat="48.23254" lon="6.68554">
        <ele>449.6</ele>
        <time>2025-01-12T11:21:39Z</time>
      </trkpt>
      <trkpt lat="48.23261" lon="6.68545">
        <ele>448.7</ele>
        <time>2025-01-12T11:21:50Z</time>
      </trkpt>
      <trkpt lat="48.2327" lon="6.68538">
        <ele>447.7</ele>
        <time>2025-01-12T11:21:59Z</time>
      </trkpt>
      <trkpt lat="48.23278" lon="6.68531">
        <ele>446.8</ele>
        <time>2025-01-12T11:22:08Z</time>
      </trkpt>
      <trkpt lat="48.23286" lon="6.68525">
        <ele>445.9</ele>
        <time>2025-01-12T11:22:16Z</time>
      </trkpt>
      <trkpt lat="48.23295" lon="6.68518">
        <ele>444.7</ele>
        <time>2025-01-12T11:22:24Z</time>
      </trkpt>
      <trkpt lat="48.23303" lon="6.68511">
        <ele>443.6</ele>
        <time>2025-01-12T11:22:32Z</time>
      </trkpt>
      <trkpt lat="48.23311" lon="6.68505">
        <ele>442.5</ele>
        <time>2025-01-12T11:22:41Z</time>
      </trkpt>
      <trkpt lat="48.2332" lon="6.685">
        <ele>441.3</ele>
        <time>2025-01-12T11:22:51Z</time>
      </trkpt>
      <trkpt lat="48.23329" lon="6.68494">
        <ele>440.1</ele>
        <time>2025-01-12T11:22:59Z</time>
      </trkpt>
      <trkpt lat="48.23339" lon="6.68492">
        <ele>438.9</ele>
        <time>2025-01-12T11:23:08Z</time>
      </trkpt>
      <trkpt lat="48.23348" lon="6.68488">
        <ele>437.7</ele>
        <time>2025-01-12T11:23:17Z</time>
      </trkpt>
      <trkpt lat="48.23356" lon="6.68482">
        <ele>436.5</ele>
        <time>2025-01-12T11:23:24Z</time>
      </trkpt>
      <trkpt lat="48.23365" lon="6.68479">
        <ele>435.2</ele>
        <time>2025-01-12T11:23:36Z</time>
      </trkpt>
      <trkpt lat="48.23374" lon="6.68474">
        <ele>433.9</ele>
        <time>2025-01-12T11:23:44Z</time>
      </trkpt>
      <trkpt lat="48.23383" lon="6.68471">
        <ele>432.6</ele>
        <time>2025-01-12T11:23:50Z</time>
      </trkpt>
      <trkpt lat="48.23392" lon="6.68469">
        <ele>431.3</ele>
        <time>2025-01-12T11:23:58Z</time>
      </trkpt>
      <trkpt lat="48.23401" lon="6.68468">
        <ele>430.1</ele>
        <time>2025-01-12T11:24:04Z</time>
      </trkpt>
      <trkpt lat="48.23411" lon="6.68463">
        <ele>428.8</ele>
        <time>2025-01-12T11:24:12Z</time>
      </trkpt>
      <trkpt lat="48.23419" lon="6.68459">
        <ele>427.6</ele>
        <time>2025-01-12T11:24:20Z</time>
      </trkpt>
      <trkpt lat="48.23428" lon="6.68454">
        <ele>426.5</ele>
        <time>2025-01-12T11:24:27Z</time>
      </trkpt>
      <trkpt lat="48.23436" lon="6.68447">
        <ele>425.3</ele>
        <time>2025-01-12T11:24:35Z</time>
      </trkpt>
      <trkpt lat="48.23446" lon="6.68441">
        <ele>424.3</ele>
        <time>2025-01-12T11:24:45Z</time>
      </trkpt>
      <trkpt lat="48.23455" lon="6.68437">
        <ele>423.3</ele>
        <time>2025-01-12T11:24:54Z</time>
      </trkpt>
      <trkpt lat="48.23464" lon="6.68432">
        <ele>422.5</ele>
        <time>2025-01-12T11:25:03Z</time>
      </trkpt>
      <trkpt lat="48.23473" lon="6.68429">
        <ele>421.8</ele>
        <time>2025-01-12T11:25:12Z</time>
      </trkpt>
      <trkpt lat="48.23483" lon="6.68425">
        <ele>421</ele>
        <time>2025-01-12T11:25:20Z</time>
      </trkpt>
      <trkpt lat="48.23492" lon="6.68419">
        <ele>420.5</ele>
        <time>2025-01-12T11:25:28Z</time>
      </trkpt>
      <trkpt lat="48.23501" lon="6.68414">
        <ele>420</ele>
        <time>2025-01-12T11:25:37Z</time>
      </trkpt>
      <trkpt lat="48.2351" lon="6.68411">
        <ele>419.5</ele>
        <time>2025-01-12T11:25:47Z</time>
      </trkpt>
      <trkpt lat="48.23519" lon="6.68408">
        <ele>419</ele>
        <time>2025-01-12T11:25:58Z</time>
      </trkpt>
      <trkpt lat="48.23529" lon="6.68404">
        <ele>418.3</ele>
        <time>2025-01-12T11:26:07Z</time>
      </trkpt>
      <trkpt lat="48.23537" lon="6.68398">
        <ele>417.7</ele>
        <time>2025-01-12T11:26:14Z</time>
      </trkpt>
      <trkpt lat="48.23547" lon="6.68391">
        <ele>417.1</ele>
        <time>2025-01-12T11:26:20Z</time>
      </trkpt>
      <trkpt lat="48.23554" lon="6.68382">
        <ele>416.7</ele>
        <time>2025-01-12T11:26:26Z</time>
      </trkpt>
      <trkpt lat="48.23561" lon="6.68373">
        <ele>416.3</ele>
        <time>2025-01-12T11:26:33Z</time>
      </trkpt>
      <trkpt lat="48.23567" lon="6.68362">
        <ele>415.9</ele>
        <time>2025-01-12T11:26:42Z</time>
      </trkpt>
      <trkpt lat="48.23574" lon="6.68351">
        <ele>415.6</ele>
        <time>2025-01-12T11:26:50Z</time>
      </trkpt>
      <trkpt lat="48.23579" lon="6.68339">
        <ele>415.4</ele>
        <time>2025-01-12T11:26:58Z</time>
      </trkpt>
      <trkpt lat="48.2358" lon="6.68324">
        <ele>415.2</ele>
        <time>2025-01-12T11:27:06Z</time>
      </trkpt>
      <trkpt lat="48.23582" lon="6.68311">
        <ele>415</ele>
        <time>2025-01-12T11:27:13Z</time>
      </trkpt>
      <trkpt lat="48.23583" lon="6.68296">
        <ele>414.8</ele>
        <time>2025-01-12T11:27:21Z</time>
      </trkpt>
      <trkpt lat="48.23586" lon="6.68283">
        <ele>414.7</ele>
        <time>2025-01-12T11:27:29Z</time>
      </trkpt>
      <trkpt lat="48.23589" lon="6.68269">
        <ele>414.6</ele>
        <time>2025-01-12T11:27:37Z</time>
      </trkpt>
      <trkpt lat="48.23591" lon="6.68256">
        <ele>414.6</ele>
        <time>2025-01-12T11:27:45Z</time>
      </trkpt>
      <trkpt lat="48.23591" lon="6.68241">
        <ele>414.5</ele>
        <time>2025-01-12T11:27:53Z</time>
      </trkpt>
      <trkpt lat="48.23594" lon="6.68228">
        <ele>414.4</ele>
        <time>2025-01-12T11:28:01Z</time>
      </trkpt>
      <trkpt lat="48.23595" lon="6.68214">
        <ele>414.4</ele>
        <time>2025-01-12T11:28:09Z</time>
      </trkpt>
      <trkpt lat="48.23596" lon="6.682">
        <ele>414.3</ele>
        <time>2025-01-12T11:28:17Z</time>
      </trkpt>
      <trkpt lat="48.23597" lon="6.68185">
        <ele>414.2</ele>
        <time>2025-01-12T11:28:26Z</time>
      </trkpt>
      <trkpt lat="48.23599" lon="6.68172">
        <ele>414.1</ele>
        <time>2025-01-12T11:28:33Z</time>
      </trkpt>
      <trkpt lat="48.23597" lon="6.68157">
        <ele>414</ele>
        <time>2025-01-12T11:28:41Z</time>
      </trkpt>
      <trkpt lat="48.23597" lon="6.68143">
        <ele>413.8</ele>
        <time>2025-01-12T11:28:49Z</time>
      </trkpt>
      <trkpt lat="48.23597" lon="6.68129">
        <ele>413.7</ele>
        <time>2025-01-12T11:28:57Z</time>
      </trkpt>
      <trkpt lat="48.23596" lon="6.68115">
        <ele>413.5</ele>
        <time>2025-01-12T11:29:05Z</time>
      </trkpt>
      <trkpt lat="48.23597" lon="6.681">
        <ele>413.3</ele>
        <time>2025-01-12T11:29:14Z</time>
      </trkpt>
      <trkpt lat="48.23596" lon="6.68085">
        <ele>413.2</ele>
        <time>2025-01-12T11:29:23Z</time>
      </trkpt>
      <trkpt lat="48.23594" lon="6.6807">
        <ele>413.2</ele>
        <time>2025-01-12T11:29:32Z</time>
      </trkpt>
      <trkpt lat="48.23593" lon="6.68056">
        <ele>413.2</ele>
        <time>2025-01-12T11:29:40Z</time>
      </trkpt>
      <trkpt lat="48.23591" lon="6.68043">
        <ele>413.1</ele>
        <time>2025-01-12T11:29:48Z</time>
      </trkpt>
      <trkpt lat="48.23588" lon="6.68028">
        <ele>412.9</ele>
        <time>2025-01-12T11:29:57Z</time>
      </trkpt>
      <trkpt lat="48.23586" lon="6.68015">
        <ele>412.7</ele>
        <time>2025-01-12T11:30:05Z</time>
      </trkpt>
      <trkpt lat="48.23583" lon="6.68001">
        <ele>412.5</ele>
        <time>2025-01-12T11:30:13Z</time>
      </trkpt>
      <trkpt lat="48.23581" lon="6.67987">
        <ele>412.3</ele>
        <time>2025-01-12T11:30:21Z</time>
      </trkpt>
      <trkpt lat="48.23578" lon="6.67973">
        <ele>412</ele>
        <time>2025-01-12T11:30:29Z</time>
      </trkpt>
      <trkpt lat="48.23576" lon="6.67959">
        <ele>411.9</ele>
        <time>2025-01-12T11:30:37Z</time>
      </trkpt>
      <trkpt lat="48.23573" lon="6.67946">
        <ele>411.7</ele>
        <time>2025-01-12T11:30:45Z</time>
      </trkpt>
      <trkpt lat="48.23571" lon="6.67932">
        <ele>411.6</ele>
        <time>2025-01-12T11:30:53Z</time>
      </trkpt>
      <trkpt lat="48.23569" lon="6.67918">
        <ele>411.5</ele>
        <time>2025-01-12T11:31:01Z</time>
      </trkpt>
      <trkpt lat="48.23567" lon="6.67904">
        <ele>411.3</ele>
        <time>2025-01-12T11:31:09Z</time>
      </trkpt>
      <trkpt lat="48.23565" lon="6.6789">
        <ele>411.2</ele>
        <time>2025-01-12T11:31:17Z</time>
      </trkpt>
      <trkpt lat="48.23564" lon="6.67877">
        <ele>411.1</ele>
        <time>2025-01-12T11:31:25Z</time>
      </trkpt>
      <trkpt lat="48.23562" lon="6.67862">
        <ele>410.9</ele>
        <time>2025-01-12T11:31:34Z</time>
      </trkpt>
      <trkpt lat="48.23559" lon="6.67849">
        <ele>410.8</ele>
        <time>2025-01-12T11:31:42Z</time>
      </trkpt>
      <trkpt lat="48.23555" lon="6.67836">
        <ele>410.6</ele>
        <time>2025-01-12T11:31:50Z</time>
      </trkpt>
      <trkpt lat="48.2355" lon="6.67823">
        <ele>410.4</ele>
        <time>2025-01-12T11:31:58Z</time>
      </trkpt>
      <trkpt lat="48.23546" lon="6.67811">
        <ele>410.2</ele>
        <time>2025-01-12T11:32:06Z</time>
      </trkpt>
      <trkpt lat="48.23543" lon="6.67798">
        <ele>409.8</ele>
        <time>2025-01-12T11:32:14Z</time>
      </trkpt>
      <trkpt lat="48.2354" lon="6.67784">
        <ele>409.3</ele>
        <time>2025-01-12T11:32:23Z</time>
      </trkpt>
      <trkpt lat="48.23539" lon="6.6777">
        <ele>408.6</ele>
        <time>2025-01-12T11:32:31Z</time>
      </trkpt>
      <trkpt lat="48.23539" lon="6.67755">
        <ele>407.7</ele>
        <time>2025-01-12T11:32:40Z</time>
      </trkpt>
      <trkpt lat="48.23539" lon="6.67741">
        <ele>406.7</ele>
        <time>2025-01-12T11:32:48Z</time>
      </trkpt>
      <trkpt lat="48.23539" lon="6.67726">
        <ele>405.7</ele>
        <time>2025-01-12T11:32:56Z</time>
      </trkpt>
      <trkpt lat="48.23539" lon="6.67712">
        <ele>404.8</ele>
        <time>2025-01-12T11:33:04Z</time>
      </trkpt>
      <trkpt lat="48.23537" lon="6.67699">
        <ele>403.9</ele>
        <time>2025-01-12T11:33:12Z</time>
      </trkpt>
      <trkpt lat="48.23537" lon="6.67683">
        <ele>403</ele>
        <time>2025-01-12T11:33:21Z</time>
      </trkpt>
      <trkpt lat="48.23536" lon="6.67669">
        <ele>402.1</ele>
        <time>2025-01-12T11:33:29Z</time>
      </trkpt>
      <trkpt lat="48.23536" lon="6.67654">
        <ele>401.1</ele>
        <time>2025-01-12T11:33:38Z</time>
      </trkpt>
      <trkpt lat="48.23535" lon="6.6764">
        <ele>400.2</ele>
        <time>2025-01-12T11:33:46Z</time>
      </trkpt>
      <trkpt lat="48.23536" lon="6.67626">
        <ele>399.2</ele>
        <time>2025-01-12T11:33:54Z</time>
      </trkpt>
      <trkpt lat="48.23536" lon="6.67612">
        <ele>398.4</ele>
        <time>2025-01-12T11:34:02Z</time>
      </trkpt>
      <trkpt lat="48.23539" lon="6.67597">
        <ele>397.8</ele>
        <time>2025-01-12T11:34:11Z</time>
      </trkpt>
      <trkpt lat="48.23539" lon="6.6759">
        <ele>397.5</ele>
        <time>2025-01-12T11:34:19Z</time>
      </trkpt>
      <trkpt lat="48.23539" lon="6.6759">
        <ele>397.5</ele>
        <time>2025-01-12T11:34:20Z</time>
      </trkpt>
      <trkpt lat="48.23539" lon="6.67591">
        <ele>397.5</ele>
        <time>2025-01-12T11:34:21Z</time>
      </trkpt>
      <trkpt lat="48.23539" lon="6.67591">
        <ele>397.5</ele>
        <time>2025-01-12T11:34:24Z</time>
      </trkpt>
      <trkpt lat="48.23539" lon="6.67591">
        <ele>397.5</ele>
        <time>2025-01-12T11:34:25Z</time>
      </trkpt>
      <trkpt lat="48.23539" lon="6.67591">
        <ele>397.5</ele>
        <time>2025-01-12T11:34:34Z</time>
      </trkpt>
      <trkpt lat="48.23539" lon="6.67591">
        <ele>397.5</ele>
        <time>2025-01-12T11:34:35Z</time>
      </trkpt>
      <trkpt lat="48.23537" lon="6.67591">
        <ele>397.3</ele>
        <time>2025-01-12T11:34:54Z</time>
      </trkpt>
      <trkpt lat="48.23536" lon="6.67591">
        <ele>397.3</ele>
        <time>2025-01-12T11:34:55Z</time>
      </trkpt>
      <trkpt lat="48.23535" lon="6.67591">
        <ele>397.2</ele>
        <time>2025-01-12T11:34:56Z</time>
      </trkpt>
      <trkpt lat="48.23526" lon="6.67588">
        <ele>396.4</ele>
        <time>2025-01-12T11:35:06Z</time>
      </trkpt>
      <trkpt lat="48.23516" lon="6.67589">
        <ele>395</ele>
        <time>2025-01-12T11:35:18Z</time>
      </trkpt>
      <trkpt lat="48.23507" lon="6.67585">
        <ele>393.3</ele>
        <time>2025-01-12T11:35:26Z</time>
      </trkpt>
      <trkpt lat="48.23502" lon="6.67573">
        <ele>391.7</ele>
        <time>2025-01-12T11:35:37Z</time>
      </trkpt>
      <trkpt lat="48.23498" lon="6.6756">
        <ele>390.3</ele>
        <time>2025-01-12T11:35:45Z</time>
      </trkpt>
      <trkpt lat="48.23493" lon="6.67549">
        <ele>389.3</ele>
        <time>2025-01-12T11:35:54Z</time>
      </trkpt>
      <trkpt lat="48.23489" lon="6.67536">
        <ele>388.4</ele>
        <time>2025-01-12T11:36:02Z</time>
      </trkpt>
      <trkpt lat="48.23486" lon="6.67524">
        <ele>387.4</ele>
        <time>2025-01-12T11:36:10Z</time>
      </trkpt>
      <trkpt lat="48.23484" lon="6.67509">
        <ele>386.3</ele>
        <time>2025-01-12T11:36:21Z</time>
      </trkpt>
      <trkpt lat="48.23483" lon="6.67496">
        <ele>385.1</ele>
        <time>2025-01-12T11:36:29Z</time>
      </trkpt>
      <trkpt lat="48.23478" lon="6.67482">
        <ele>383.8</ele>
        <time>2025-01-12T11:36:37Z</time>
      </trkpt>
      <trkpt lat="48.23472" lon="6.6747">
        <ele>382.7</ele>
        <time>2025-01-12T11:36:44Z</time>
      </trkpt>
      <trkpt lat="48.2347" lon="6.67456">
        <ele>381.5</ele>
        <time>2025-01-12T11:36:51Z</time>
      </trkpt>
      <trkpt lat="48.23464" lon="6.67445">
        <ele>380.3</ele>
        <time>2025-01-12T11:36:59Z</time>
      </trkpt>
      <trkpt lat="48.23463" lon="6.67432">
        <ele>380.4</ele>
        <time>2025-01-12T11:37:07Z</time>
      </trkpt>
      <trkpt lat="48.23464" lon="6.67418">
        <ele>380.4</ele>
        <time>2025-01-12T11:37:15Z</time>
      </trkpt>
      <trkpt lat="48.23465" lon="6.67403">
        <ele>380.3</ele>
        <time>2025-01-12T11:37:23Z</time>
      </trkpt>
      <trkpt lat="48.23463" lon="6.67388">
        <ele>380.1</ele>
        <time>2025-01-12T11:37:31Z</time>
      </trkpt>
      <trkpt lat="48.23463" lon="6.67374">
        <ele>379.9</ele>
        <time>2025-01-12T11:37:39Z</time>
      </trkpt>
      <trkpt lat="48.23462" lon="6.67359">
        <ele>379.7</ele>
        <time>2025-01-12T11:37:47Z</time>
      </trkpt>
      <trkpt lat="48.23461" lon="6.67345">
        <ele>379.5</ele>
        <time>2025-01-12T11:37:55Z</time>
      </trkpt>
      <trkpt lat="48.23459" lon="6.67331">
        <ele>379.1</ele>
        <time>2025-01-12T11:38:04Z</time>
      </trkpt>
      <trkpt lat="48.23458" lon="6.67317">
        <ele>378.8</ele>
        <time>2025-01-12T11:38:19Z</time>
      </trkpt>
      <trkpt lat="48.23457" lon="6.67303">
        <ele>378.5</ele>
        <time>2025-01-12T11:38:28Z</time>
      </trkpt>
      <trkpt lat="48.23456" lon="6.67289">
        <ele>378.3</ele>
        <time>2025-01-12T11:38:37Z</time>
      </trkpt>
      <trkpt lat="48.23455" lon="6.67275">
        <ele>378.1</ele>
        <time>2025-01-12T11:38:46Z</time>
      </trkpt>
      <trkpt lat="48.23454" lon="6.67261">
        <ele>378</ele>
        <time>2025-01-12T11:38:56Z</time>
      </trkpt>
      <trkpt lat="48.23453" lon="6.67253">
        <ele>377.9</ele>
        <time>2025-01-12T11:39:06Z</time>
      </trkpt>
      <trkpt lat="48.23452" lon="6.67249">
        <ele>377.9</ele>
        <time>2025-01-12T11:39:16Z</time>
      </trkpt>
      <trkpt lat="48.23451" lon="6.67245">
        <ele>377.9</ele>
        <time>2025-01-12T11:39:16Z</time>
      </trkpt>
      <trkpt lat="48.23451" lon="6.67245">
        <ele>377.9</ele>
        <time>2025-01-12T11:39:16Z</time>
      </trkpt>
    </trkseg>
  </trk>
</gpx>